Darstellungsparameter: Aktuell verwendete Einstellungen:
Skalierung der Graphiken ... ?
xyx+y,   Skalierungsfaktor:      Skalierung: Modus: x, Faktor: 1
Darstellungszeitraum ... ?
Vom - - bis: - -   Zeitraum: 28.04.2006 - 18.05.2006
Min/Max/Avg-Anzeige ... ?
Zeige MMA aktuell
Zeige MMA Monat
Zeige MMA alles
Zeige --A aktuell
Zeige --A Monat
Zeige --A alles
Keine MMA-Anzeige
MMA:
Keine MMA-Graphiken
MMA-Basis: 28.04.2006 - 18.05.2006
Quicknavigation für Darstellung... ?
Tage:      1T, 2T, 3T, 5T -1T -2T -3T -5T +1T +2T +3T +5T
Wochen: 1W, 2W, 3W -1W -2W -3W +1W +2W +3W
Monate: 1M, 3M, 6M -1M -3M -6M +1M +3M +6M
Jahre:    1J, 3J, 5J, 10J -1J -3J -5J -10J +1J +3J +5J +10J
Nutze für die Darstellung ... ?
Originaldaten oder Mittelwerte auf ...
Stundenbasis Tagesbasis Wochenbasis
Monatsbasis Jahresbasis      Datenbasis: Original-Daten
Darstellen als:
Statistik (Auto) Statistik J:M      Darstellung:
Zur Graphik,    zurück zur Übersicht aller Sensoren.
 
Tabellarische Datenbersicht: ?
 
Sensor: Nr:Datum:Temp:Abs-Feuchte:Windchill:Wind:
Aussen-T/F 1 28-04-2006 00:06:02 11.1 C 8.06 g/m*3 11.1 C 0 km/h
2 28-04-2006 00:16:02 11.1 C 8.06 g/m*3 11.1 C 0 km/h
3 28-04-2006 00:26:02 10.9 C 8.06 g/m*3 10.9 C 0 km/h
4 28-04-2006 00:36:02 10.7 C 7.76 g/m*3 10.7 C 0 km/h
5 28-04-2006 00:46:02 10.7 C 7.37 g/m*3 10.7 C 0 km/h
6 28-04-2006 00:56:02 10.7 C 7.17 g/m*3 10.7 C 0 km/h
7 28-04-2006 01:06:02 10.5 C 7.18 g/m*3 10.5 C 0 km/h
8 28-04-2006 01:16:02 10.3 C 6.99 g/m*3 10.3 C 0 km/h
9 28-04-2006 01:26:02 10.1 C 7 g/m*3 10.1 C 0 km/h
10 28-04-2006 01:36:01 9.9 C 7 g/m*3 9.9 C 0 km/h
11 28-04-2006 01:46:02 9.6 C 6.96 g/m*3 9.6 C 0 km/h
12 28-04-2006 01:56:02 9.3 C 6.92 g/m*3 9.3 C 0 km/h
13 28-04-2006 02:06:03 9 C 6.79 g/m*3 9 C 0 km/h
14 28-04-2006 02:16:02 8.8 C 6.79 g/m*3 8.8 C 0 km/h
15 28-04-2006 02:26:02 8.6 C 6.7 g/m*3 8.6 C 0 km/h
16 28-04-2006 02:36:02 8.4 C 6.79 g/m*3 8.4 C 0 km/h
17 28-04-2006 02:47:04 8.2 C 6.78 g/m*3 8.2 C 0 km/h
18 28-04-2006 02:57:04 8 C 6.7 g/m*3 8 C 0 km/h
19 28-04-2006 03:07:04 8 C 6.78 g/m*3 8 C 0 km/h
20 28-04-2006 03:17:03 7.9 C 6.82 g/m*3 7.9 C 0 km/h
21 28-04-2006 03:27:03 7.7 C 6.73 g/m*3 7.7 C 0 km/h
22 28-04-2006 03:37:02 7.8 C 6.77 g/m*3 7.8 C 0 km/h
23 28-04-2006 03:47:02 7.7 C 6.65 g/m*3 7.7 C 0 km/h
24 28-04-2006 03:57:02 7.7 C 6.65 g/m*3 7.7 C 0 km/h
25 28-04-2006 04:07:02 7.8 C 6.61 g/m*3 7.8 C 0 km/h
Sensor: Nr:Datum:Temp:Abs-Feuchte:Windchill:Wind:
Aussen-T/F 26 28-04-2006 04:17:03 7.8 C 6.61 g/m*3 7.8 C 0 km/h
27 28-04-2006 04:27:03 7.8 C 6.53 g/m*3 7.8 C 0 km/h
28 28-04-2006 04:37:02 7.8 C 6.53 g/m*3 7.8 C 0 km/h
29 28-04-2006 04:47:02 7.6 C 6.53 g/m*3 7.6 C 0 km/h
30 28-04-2006 04:57:02 7.4 C 6.44 g/m*3 7.4 C 0 km/h
31 28-04-2006 05:07:02 7.3 C 6.48 g/m*3 7.3 C 0 km/h
32 28-04-2006 05:17:02 7.3 C 6.48 g/m*3 7.3 C 0 km/h
33 28-04-2006 05:27:02 7 C 6.43 g/m*3 7 C 0 km/h
34 28-04-2006 05:37:02 6.9 C 6.39 g/m*3 6.9 C 0 km/h
35 28-04-2006 05:47:02 6.8 C 6.42 g/m*3 6.8 C 0 km/h
36 28-04-2006 05:57:02 6.6 C 6.34 g/m*3 6.6 C 0 km/h
37 28-04-2006 06:07:02 6.5 C 6.3 g/m*3 6.5 C 0 km/h
38 28-04-2006 06:17:02 6.7 C 6.23 g/m*3 6.7 C 0 km/h
39 28-04-2006 06:27:02 6.8 C 6.12 g/m*3 6.8 C 0 km/h
40 28-04-2006 06:37:02 6.7 C 6.08 g/m*3 6.7 C 0 km/h
41 28-04-2006 06:47:03 6.6 C 6.04 g/m*3 6.6 C 0 km/h
42 28-04-2006 06:57:03 6.6 C 6.04 g/m*3 6.6 C 0 km/h
43 28-04-2006 07:07:02 6.6 C 6.04 g/m*3 6.6 C 0 km/h
44 28-04-2006 07:17:02 6.7 C 6.08 g/m*3 6.7 C 0 km/h
45 28-04-2006 07:27:02 6.8 C 6.12 g/m*3 6.8 C 0 km/h
46 28-04-2006 07:37:02 7 C 5.89 g/m*3 7 C 0 km/h
47 28-04-2006 07:47:02 7.2 C 5.89 g/m*3 7.2 C 0 km/h
48 28-04-2006 07:57:02 7.4 C 5.88 g/m*3 7.4 C 0 km/h
49 28-04-2006 08:07:01 7.4 C 5.81 g/m*3 7.4 C 0 km/h
50 28-04-2006 08:17:01 7.5 C 5.84 g/m*3 7.5 C 0 km/h
Sensor: Nr:Datum:Temp:Abs-Feuchte:Windchill:Wind:
Aussen-T/F 51 28-04-2006 08:27:01 7.6 C 5.8 g/m*3 7.6 C 0 km/h
52 28-04-2006 08:37:01 7.7 C 5.92 g/m*3 7.7 C 0 km/h
53 28-04-2006 08:47:02 7.9 C 6.08 g/m*3 7.9 C 0 km/h
54 28-04-2006 08:57:02 8 C 5.95 g/m*3 8 C 0 km/h
55 28-04-2006 09:07:01 8.1 C 6.07 g/m*3 8.1 C 0 km/h
56 28-04-2006 09:17:01 8.6 C 6.19 g/m*3 8.6 C 0 km/h
57 28-04-2006 09:27:01 8.7 C 6.14 g/m*3 8.7 C 0 km/h
58 28-04-2006 09:37:01 8.4 C 5.94 g/m*3 8.4 C 0 km/h
59 28-04-2006 09:47:02 8.6 C 5.93 g/m*3 8.6 C 0 km/h
60 28-04-2006 09:57:02 8.2 C 5.86 g/m*3 8.2 C 0 km/h
61 28-04-2006 10:07:01 8.2 C 5.86 g/m*3 8.2 C 0 km/h
62 28-04-2006 10:17:01 8.4 C 5.94 g/m*3 8.4 C 0 km/h
63 28-04-2006 10:27:01 8.5 C 5.89 g/m*3 8.5 C 0 km/h
64 28-04-2006 10:37:01 8.7 C 5.88 g/m*3 8.7 C 0 km/h
65 28-04-2006 10:47:01 9.3 C 5.84 g/m*3 9.3 C 0 km/h
66 28-04-2006 10:57:01 9.2 C 5.71 g/m*3 9.2 C 0 km/h
67 28-04-2006 11:07:01 9.7 C 5.9 g/m*3 9.7 C 0 km/h
68 28-04-2006 11:17:01 9.7 C 5.81 g/m*3 9.7 C 0 km/h
69 28-04-2006 11:27:01 10.1 C 5.77 g/m*3 10.1 C 0 km/h
70 28-04-2006 11:37:01 10.6 C 5.76 g/m*3 10.6 C 0 km/h
71 28-04-2006 11:47:02 10.9 C 5.87 g/m*3 10.9 C 0 km/h
72 28-04-2006 11:57:02 11.4 C 5.75 g/m*3 11.4 C 0 km/h
73 28-04-2006 12:07:02 11.7 C 5.65 g/m*3 11.7 C 0 km/h
74 28-04-2006 12:17:02 11.9 C 5.61 g/m*3 11.9 C 0 km/h
75 28-04-2006 12:27:02 12.3 C 5.65 g/m*3 12.3 C 0 km/h
Sensor: Nr:Datum:Temp:Abs-Feuchte:Windchill:Wind:
Aussen-T/F 76 28-04-2006 12:37:02 12.5 C 5.28 g/m*3 12.5 C 0 km/h
77 28-04-2006 12:47:02 13.1 C 5.25 g/m*3 13.1 C 0 km/h
78 28-04-2006 12:57:02 13.1 C 5.14 g/m*3 13.1 C 0 km/h
79 28-04-2006 13:07:02 13.2 C 5.17 g/m*3 13.2 C 0 km/h
80 28-04-2006 13:17:02 13.1 C 5.14 g/m*3 13.1 C 0 km/h
81 28-04-2006 13:27:02 13 C 5.22 g/m*3 13 C 0 km/h
82 28-04-2006 13:37:03 12.9 C 5.3 g/m*3 12.9 C 0 km/h
83 28-04-2006 13:47:02 13.4 C 5.11 g/m*3 13.4 C 0 km/h
84 28-04-2006 13:57:03 14.3 C 5.28 g/m*3 14.3 C 0 km/h
85 28-04-2006 14:07:02 14.6 C 5.13 g/m*3 14.6 C 0 km/h
86 28-04-2006 14:17:02 14.7 C 5.29 g/m*3 14.7 C 0 km/h
87 28-04-2006 14:27:02 15.2 C 5.19 g/m*3 15.2 C 0 km/h
88 28-04-2006 14:37:03 14.7 C 5.16 g/m*3 14.7 C 0 km/h
89 28-04-2006 14:47:02 15 C 4.87 g/m*3 15 C 0 km/h
90 28-04-2006 14:57:02 16.3 C 5.13 g/m*3 16.3 C 0 km/h
91 28-04-2006 15:07:02 15.7 C 4.95 g/m*3 15.7 C 0 km/h
92 28-04-2006 15:17:02 15.3 C 4.83 g/m*3 15.3 C 0 km/h
93 28-04-2006 15:27:02 14.7 C 4.91 g/m*3 14.7 C 0 km/h
94 28-04-2006 15:37:02 14.9 C 4.59 g/m*3 14.9 C 0 km/h
95 28-04-2006 15:47:01 15.4 C 4.73 g/m*3 15.4 C 0 km/h
96 28-04-2006 15:57:01 15.3 C 4.83 g/m*3 15.3 C 0 km/h
97 28-04-2006 16:07:02 15.9 C 4.74 g/m*3 15.9 C 0 km/h
98 28-04-2006 16:17:02 16.9 C 4.89 g/m*3 16.9 C 0 km/h
99 28-04-2006 16:27:02 15.5 C 4.63 g/m*3 15.5 C 0 km/h
100 28-04-2006 16:37:02 15 C 4.23 g/m*3 15 C 0 km/h
Sensor: Nr:Datum:Temp:Abs-Feuchte:Windchill:Wind:
Aussen-T/F 101 28-04-2006 16:47:02 16.8 C 4.72 g/m*3 16.8 C 0 km/h
102 28-04-2006 16:57:02 16.1 C 4.25 g/m*3 16.1 C 0 km/h
103 28-04-2006 17:07:02 15.7 C 4.15 g/m*3 15.7 C 0 km/h
104 28-04-2006 17:17:02 15.2 C 4.02 g/m*3 15.2 C 0 km/h
105 28-04-2006 17:27:02 14.9 C 4.21 g/m*3 14.9 C 0 km/h
106 28-04-2006 17:37:03 14.5 C 4.1 g/m*3 14.5 C 0 km/h
107 28-04-2006 17:47:03 14.8 C 4.18 g/m*3 14.8 C 0 km/h
108 28-04-2006 17:57:03 14.7 C 3.9 g/m*3 14.7 C 0 km/h
109 28-04-2006 18:07:03 14.7 C 3.9 g/m*3 14.7 C 0 km/h
110 28-04-2006 18:17:02 14.8 C 4.18 g/m*3 14.8 C 0 km/h
111 28-04-2006 18:27:03 16.3 C 3.88 g/m*3 16.3 C 0 km/h
112 28-04-2006 18:37:02 16.3 C 3.19 g/m*3 16.3 C 0 km/h
113 28-04-2006 18:47:02 15 C 3.21 g/m*3 15 C 0 km/h
114 28-04-2006 18:57:02 15.2 C 3.5 g/m*3 15.2 C 0 km/h
115 28-04-2006 19:07:02 15.7 C 3.48 g/m*3 15.7 C 0 km/h
116 28-04-2006 19:17:02 14.8 C 3.8 g/m*3 14.8 C 0 km/h
117 28-04-2006 19:27:02 14.4 C 3.96 g/m*3 14.4 C 0 km/h
118 28-04-2006 19:37:02 13.7 C 3.91 g/m*3 13.7 C 0 km/h
119 28-04-2006 19:47:02 13.7 C 4.03 g/m*3 13.7 C 0 km/h
120 28-04-2006 19:57:02 13.5 C 4.09 g/m*3 13.5 C 0 km/h
121 28-04-2006 20:07:02 13.2 C 4.02 g/m*3 13.2 C 0 km/h
122 28-04-2006 20:17:02 13.1 C 4.11 g/m*3 13.1 C 0 km/h
123 28-04-2006 20:27:02 12.9 C 4.17 g/m*3 12.9 C 0 km/h
124 28-04-2006 20:37:02 12.7 C 4.23 g/m*3 12.7 C 0 km/h
125 28-04-2006 20:47:01 12.5 C 4.4 g/m*3 12.5 C 0 km/h
Sensor: Nr:Datum:Temp:Abs-Feuchte:Windchill:Wind:
Aussen-T/F 126 28-04-2006 20:57:01 12.5 C 4.73 g/m*3 12.5 C 0 km/h
127 28-04-2006 21:07:01 12.3 C 4.89 g/m*3 12.3 C 0 km/h
128 28-04-2006 21:17:01 12.2 C 5.18 g/m*3 12.2 C 0 km/h
129 28-04-2006 21:27:01 11.4 C 5.34 g/m*3 11.4 C 0 km/h
130 28-04-2006 21:37:02 10.8 C 5.14 g/m*3 10.8 C 0 km/h
131 28-04-2006 21:47:02 10.8 C 4.94 g/m*3 10.8 C 0 km/h
132 28-04-2006 21:57:03 10.7 C 4.62 g/m*3 10.7 C 0 km/h
133 28-04-2006 22:07:02 10.5 C 4.56 g/m*3 10.5 C 0 km/h
134 28-04-2006 22:17:02 10.3 C 4.5 g/m*3 10.3 C 0 km/h
135 28-04-2006 22:27:02 9.9 C 4.29 g/m*3 9.9 C 0 km/h
136 28-04-2006 22:37:03 9.7 C 4.24 g/m*3 9.7 C 0 km/h
137 28-04-2006 22:47:02 9.7 C 4.24 g/m*3 9.7 C 0 km/h
138 28-04-2006 22:57:02 9.6 C 4.31 g/m*3 9.6 C 0 km/h
139 28-04-2006 23:07:02 9.4 C 4.43 g/m*3 9.4 C 0 km/h
140 28-04-2006 23:17:01 9.2 C 4.46 g/m*3 9.2 C 0 km/h
141 28-04-2006 23:27:02 9 C 4.58 g/m*3 9 C 0 km/h
142 28-04-2006 23:37:01 8.8 C 4.7 g/m*3 8.8 C 0 km/h
143 28-04-2006 23:47:02 8.6 C 4.81 g/m*3 8.6 C 0 km/h
144 28-04-2006 23:57:03 8.4 C 4.92 g/m*3 8.4 C 0 km/h
145 29-04-2006 00:07:02 8.3 C 5.06 g/m*3 8.3 C 0 km/h
146 29-04-2006 00:17:02 8.4 C 5.17 g/m*3 8.4 C 0 km/h
147 29-04-2006 00:27:02 8.5 C 5.29 g/m*3 8.5 C 0 km/h
148 29-04-2006 00:37:01 8.4 C 5.26 g/m*3 8.4 C 0 km/h
149 29-04-2006 00:47:02 8.3 C 5.23 g/m*3 8.3 C 0 km/h
150 29-04-2006 00:57:02 8.3 C 5.23 g/m*3 8.3 C 0 km/h
Sensor: Nr:Datum:Temp:Abs-Feuchte:Windchill:Wind:
Aussen-T/F 151 29-04-2006 01:07:02 8.4 C 5.17 g/m*3 8.4 C 0 km/h
152 29-04-2006 01:17:02 8.4 C 5.17 g/m*3 8.4 C 0 km/h
153 29-04-2006 01:27:02 8.2 C 5.19 g/m*3 8.2 C 0 km/h
154 29-04-2006 01:37:02 8.2 C 4.94 g/m*3 8.2 C 0 km/h
155 29-04-2006 01:47:02 8.1 C 4.83 g/m*3 8.1 C 0 km/h
156 29-04-2006 01:57:02 7.9 C 4.76 g/m*3 7.9 C 0 km/h
157 29-04-2006 02:07:02 7.8 C 4.82 g/m*3 7.8 C 0 km/h
158 29-04-2006 02:17:01 7.8 C 4.9 g/m*3 7.8 C 0 km/h
159 29-04-2006 02:27:01 7.6 C 4.67 g/m*3 7.6 C 0 km/h
160 29-04-2006 02:37:02 7.4 C 4.37 g/m*3 7.4 C 0 km/h
161 29-04-2006 02:48:04 6.8 C 4.21 g/m*3 6.8 C 0 km/h
162 29-04-2006 02:58:04 6.6 C 4.23 g/m*3 6.6 C 0 km/h
163 29-04-2006 03:08:04 6.4 C 4.1 g/m*3 6.4 C 0 km/h
164 29-04-2006 03:18:04 6.3 C 4.15 g/m*3 6.3 C 0 km/h
165 29-04-2006 03:28:04 6.3 C 4.07 g/m*3 6.3 C 0 km/h
166 29-04-2006 03:38:02 6.2 C 4.04 g/m*3 6.2 C 0 km/h
167 29-04-2006 03:48:02 6 C 3.92 g/m*3 6 C 0 km/h
168 29-04-2006 03:58:02 5.7 C 3.84 g/m*3 5.7 C 0 km/h
169 29-04-2006 04:08:03 5.7 C 3.84 g/m*3 5.7 C 0 km/h
170 29-04-2006 04:18:02 5.5 C 3.86 g/m*3 5.5 C 0 km/h
171 29-04-2006 04:28:02 5.3 C 4.02 g/m*3 5.3 C 0 km/h
172 29-04-2006 04:38:02 5 C 4.21 g/m*3 5 C 0 km/h
173 29-04-2006 04:48:02 4.8 C 4.29 g/m*3 4.8 C 0 km/h
174 29-04-2006 04:58:02 4.6 C 4.23 g/m*3 4.6 C 0 km/h
175 29-04-2006 05:08:02 4.7 C 4.26 g/m*3 4.7 C 0 km/h
Sensor: Nr:Datum:Temp:Abs-Feuchte:Windchill:Wind:
Aussen-T/F 176 29-04-2006 05:18:02 4.7 C 4.2 g/m*3 4.7 C 0 km/h
177 29-04-2006 05:28:02 4.6 C 4.23 g/m*3 4.6 C 0 km/h
178 29-04-2006 05:38:02 4.7 C 4.26 g/m*3 4.7 C 0 km/h
179 29-04-2006 05:48:02 4.8 C 4.29 g/m*3 4.8 C 0 km/h
180 29-04-2006 05:58:02 4.9 C 4.32 g/m*3 4.9 C 0 km/h
181 29-04-2006 06:08:02 5.1 C 4.31 g/m*3 5.1 C 0 km/h
182 29-04-2006 06:18:01 5.1 C 4.31 g/m*3 5.1 C 0 km/h
183 29-04-2006 06:28:02 5.1 C 4.38 g/m*3 5.1 C 0 km/h
184 29-04-2006 06:38:01 5.1 C 4.38 g/m*3 5.1 C 0 km/h
185 29-04-2006 06:48:02 5.2 C 4.41 g/m*3 5.2 C 0 km/h
186 29-04-2006 06:58:02 5.3 C 4.44 g/m*3 5.3 C 0 km/h
187 29-04-2006 07:08:01 5.4 C 4.4 g/m*3 5.4 C 0 km/h
188 29-04-2006 07:18:01 5.4 C 4.4 g/m*3 5.4 C 0 km/h
189 29-04-2006 07:28:01 5.6 C 4.45 g/m*3 5.6 C 0 km/h
190 29-04-2006 07:38:02 5.6 C 4.45 g/m*3 5.6 C 0 km/h
191 29-04-2006 07:48:02 5.7 C 4.48 g/m*3 5.7 C 0 km/h
192 29-04-2006 07:58:02 5.7 C 4.48 g/m*3 5.7 C 0 km/h
193 29-04-2006 08:08:01 5.7 C 4.41 g/m*3 5.7 C 0 km/h
194 29-04-2006 08:18:01 5.8 C 4.44 g/m*3 5.8 C 0 km/h
195 29-04-2006 08:28:01 5.8 C 4.37 g/m*3 5.8 C 0 km/h
196 29-04-2006 08:38:01 5.9 C 4.33 g/m*3 5.9 C 0 km/h
197 29-04-2006 08:48:02 6 C 4.28 g/m*3 6 C 0 km/h
198 29-04-2006 08:58:02 6.3 C 4.22 g/m*3 6.3 C 0 km/h
199 29-04-2006 09:08:01 6.4 C 4.17 g/m*3 6.4 C 0 km/h
200 29-04-2006 09:18:01 6.7 C 4.18 g/m*3 6.7 C 0 km/h
Sensor: Nr:Datum:Temp:Abs-Feuchte:Windchill:Wind:
Aussen-T/F 201 29-04-2006 09:28:01 6.9 C 4 g/m*3 6.9 C 0 km/h
202 29-04-2006 09:38:01 6.8 C 3.98 g/m*3 6.8 C 0 km/h
203 29-04-2006 09:48:02 6.5 C 3.75 g/m*3 6.5 C 0 km/h
204 29-04-2006 09:58:02 7.3 C 3.87 g/m*3 7.3 C 0 km/h
205 29-04-2006 10:08:02 7.2 C 3.69 g/m*3 7.2 C 0 km/h
206 29-04-2006 10:18:02 7.8 C 3.75 g/m*3 7.8 C 0 km/h
207 29-04-2006 10:28:02 7.7 C 3.73 g/m*3 7.7 C 0 km/h
208 29-04-2006 10:38:02 7.8 C 3.67 g/m*3 7.8 C 0 km/h
209 29-04-2006 10:48:02 8.2 C 3.52 g/m*3 8.2 C 0 km/h
210 29-04-2006 10:58:02 8.4 C 3.56 g/m*3 8.4 C 0 km/h
211 29-04-2006 11:08:02 8.5 C 3.42 g/m*3 8.5 C 0 km/h
212 29-04-2006 11:18:03 9 C 3.53 g/m*3 9 C 0 km/h
213 29-04-2006 11:28:03 8.9 C 3.59 g/m*3 8.9 C 0 km/h
214 29-04-2006 11:38:02 8.8 C 3.92 g/m*3 8.8 C 0 km/h
215 29-04-2006 11:48:02 8.5 C 3.84 g/m*3 8.5 C 0 km/h
216 29-04-2006 11:58:02 8.4 C 3.82 g/m*3 8.4 C 0 km/h
217 29-04-2006 12:08:02 9.8 C 4.08 g/m*3 9.8 C 0 km/h
218 29-04-2006 12:18:02 9.8 C 3.62 g/m*3 9.8 C 0 km/h
219 29-04-2006 12:28:02 8.7 C 3.03 g/m*3 8.7 C 0 km/h
220 29-04-2006 12:38:02 9.5 C 3.37 g/m*3 9.5 C 0 km/h
221 29-04-2006 12:48:02 9.7 C 2.95 g/m*3 9.7 C 0 km/h
222 29-04-2006 12:58:02 10.5 C 3.2 g/m*3 10.5 C 0 km/h
223 29-04-2006 13:08:03 8.6 C 3.44 g/m*3 8.6 C 0 km/h
224 29-04-2006 13:18:02 10 C 3.57 g/m*3 10 C 0 km/h
225 29-04-2006 13:28:02 10.2 C 3.43 g/m*3 10.2 C 0 km/h
Sensor: Nr:Datum:Temp:Abs-Feuchte:Windchill:Wind:
Aussen-T/F 226 29-04-2006 13:38:02 10.5 C 3.1 g/m*3 10.5 C 0 km/h
227 29-04-2006 13:48:02 11.3 C 3.06 g/m*3 11.3 C 0 km/h
228 29-04-2006 13:58:02 11 C 2.9 g/m*3 11 C 0 km/h
229 29-04-2006 14:08:02 10.8 C 3.26 g/m*3 10.8 C 0 km/h
230 29-04-2006 14:18:02 12.1 C 3.32 g/m*3 12.1 C 0 km/h
231 29-04-2006 14:28:02 12.3 C 2.82 g/m*3 12.3 C 0 km/h
232 29-04-2006 14:38:03 12.2 C 2.7 g/m*3 12.2 C 0 km/h
233 29-04-2006 14:48:02 11.5 C 2.79 g/m*3 11.5 C 0 km/h
234 29-04-2006 14:58:02 11.8 C 3.05 g/m*3 11.8 C 0 km/h
235 29-04-2006 15:08:02 10.4 C 3.66 g/m*3 10.4 C 0 km/h
236 29-04-2006 15:18:02 9.5 C 3.64 g/m*3 9.5 C 0 km/h
237 29-04-2006 15:28:02 9.5 C 3.73 g/m*3 9.5 C 0 km/h
238 29-04-2006 15:38:03 11.5 C 3.72 g/m*3 11.5 C 0 km/h
239 29-04-2006 15:48:02 10.6 C 3.9 g/m*3 10.6 C 0 km/h
240 29-04-2006 15:58:03 11 C 4.2 g/m*3 11 C 0 km/h
241 29-04-2006 16:08:02 11.6 C 4.16 g/m*3 11.6 C 0 km/h
242 29-04-2006 16:18:02 10.8 C 3.76 g/m*3 10.8 C 0 km/h
243 29-04-2006 16:28:02 11.1 C 3.53 g/m*3 11.1 C 0 km/h
244 29-04-2006 16:38:03 11.4 C 3.49 g/m*3 11.4 C 0 km/h
245 29-04-2006 16:48:02 11.3 C 3.77 g/m*3 11.3 C 0 km/h
246 29-04-2006 16:58:02 11 C 3.8 g/m*3 11 C 0 km/h
247 29-04-2006 17:08:02 10.9 C 4.08 g/m*3 10.9 C 0 km/h
248 29-04-2006 17:18:02 9.2 C 4.46 g/m*3 9.2 C 0 km/h
249 29-04-2006 17:28:02 8.8 C 4.7 g/m*3 8.8 C 0 km/h
250 29-04-2006 17:38:02 8.6 C 4.73 g/m*3 8.6 C 0 km/h
Sensor: Nr:Datum:Temp:Abs-Feuchte:Windchill:Wind:
Aussen-T/F 251 29-04-2006 17:48:02 9.1 C 4.88 g/m*3 9.1 C 0 km/h
252 29-04-2006 17:58:02 9.3 C 4.85 g/m*3 9.3 C 0 km/h
253 29-04-2006 18:08:02 9.9 C 4.58 g/m*3 9.9 C 0 km/h
254 29-04-2006 18:18:02 9.8 C 4.55 g/m*3 9.8 C 0 km/h
255 29-04-2006 18:28:02 9.2 C 4.46 g/m*3 9.2 C 0 km/h
256 29-04-2006 18:38:02 9 C 4.32 g/m*3 9 C 0 km/h
257 29-04-2006 18:48:02 8.9 C 4.47 g/m*3 8.9 C 0 km/h
258 29-04-2006 18:58:02 8.8 C 4.53 g/m*3 8.8 C 0 km/h
259 29-04-2006 19:08:02 8.8 C 4.61 g/m*3 8.8 C 0 km/h
260 29-04-2006 19:18:02 8.9 C 4.73 g/m*3 8.9 C 0 km/h
261 29-04-2006 19:28:02 8.7 C 4.67 g/m*3 8.7 C 0 km/h
262 29-04-2006 19:38:03 7.1 C 4.91 g/m*3 7.1 C 0 km/h
263 29-04-2006 19:48:02 6.5 C 5.85 g/m*3 6.5 C 0 km/h
264 29-04-2006 19:58:02 7.6 C 6.69 g/m*3 7.6 C 0 km/h
265 29-04-2006 20:08:02 7.3 C 6.32 g/m*3 7.3 C 0 km/h
266 29-04-2006 20:18:02 6.8 C 6.27 g/m*3 6.8 C 0 km/h
267 29-04-2006 20:28:02 6.7 C 6.38 g/m*3 6.7 C 0 km/h
268 29-04-2006 20:38:03 6.3 C 6.22 g/m*3 6.3 C 0 km/h
269 29-04-2006 20:48:02 5.6 C 6.01 g/m*3 5.6 C 0 km/h
270 29-04-2006 20:58:03 5.3 C 5.89 g/m*3 5.3 C 0 km/h
271 29-04-2006 21:08:02 5 C 5.84 g/m*3 5 C 0 km/h
272 29-04-2006 21:18:02 4.9 C 5.87 g/m*3 4.9 C 0 km/h
273 29-04-2006 21:28:02 5.1 C 5.95 g/m*3 5.1 C 0 km/h
274 29-04-2006 21:38:03 5.2 C 5.99 g/m*3 5.2 C 0 km/h
275 29-04-2006 21:48:02 5.1 C 5.88 g/m*3 5.1 C 0 km/h
Sensor: Nr:Datum:Temp:Abs-Feuchte:Windchill:Wind:
Aussen-T/F 276 29-04-2006 21:58:02 5.1 C 5.88 g/m*3 5.1 C 0 km/h
277 29-04-2006 22:08:02 5.1 C 5.88 g/m*3 5.1 C 0 km/h
278 29-04-2006 22:18:02 5.1 C 5.88 g/m*3 5.1 C 0 km/h
279 29-04-2006 22:28:02 4.8 C 5.83 g/m*3 4.8 C 0 km/h
280 29-04-2006 22:38:03 4.7 C 5.8 g/m*3 4.7 C 0 km/h
281 29-04-2006 22:48:02 4.8 C 5.83 g/m*3 4.8 C 0 km/h
282 29-04-2006 22:58:03 4.7 C 5.8 g/m*3 4.7 C 0 km/h
283 29-04-2006 23:08:02 4.7 C 5.8 g/m*3 4.7 C 0 km/h
284 29-04-2006 23:18:02 4.7 C 5.8 g/m*3 4.7 C 0 km/h
285 29-04-2006 23:28:02 4.6 C 5.76 g/m*3 4.6 C 0 km/h
286 29-04-2006 23:38:03 4.7 C 5.86 g/m*3 4.7 C 0 km/h
287 29-04-2006 23:48:02 4.9 C 5.94 g/m*3 4.9 C 0 km/h
288 29-04-2006 23:58:02 5.1 C 5.95 g/m*3 5.1 C 0 km/h
289 30-04-2006 00:08:02 5.2 C 5.99 g/m*3 5.2 C 0 km/h
290 30-04-2006 00:18:02 5.1 C 5.88 g/m*3 5.1 C 0 km/h
291 30-04-2006 00:28:03 4.7 C 5.8 g/m*3 4.7 C 0 km/h
292 30-04-2006 00:38:02 4.6 C 5.82 g/m*3 4.6 C 0 km/h
293 30-04-2006 00:48:03 4.6 C 5.82 g/m*3 4.6 C 0 km/h
294 30-04-2006 00:58:03 4.6 C 5.82 g/m*3 4.6 C 0 km/h
295 30-04-2006 01:08:03 4.6 C 5.82 g/m*3 4.6 C 0 km/h
296 30-04-2006 01:18:03 4.7 C 5.86 g/m*3 4.7 C 0 km/h
297 30-04-2006 01:28:03 4.7 C 5.86 g/m*3 4.7 C 0 km/h
298 30-04-2006 01:38:02 4.5 C 5.78 g/m*3 4.5 C 0 km/h
299 30-04-2006 01:48:03 4.4 C 5.75 g/m*3 4.4 C 0 km/h
300 30-04-2006 01:58:03 4.2 C 5.67 g/m*3 4.2 C 0 km/h
Sensor: Nr:Datum:Temp:Abs-Feuchte:Windchill:Wind:
Aussen-T/F 301 30-04-2006 02:08:03 4.1 C 5.7 g/m*3 4.1 C 0 km/h
302 30-04-2006 02:18:03 4 C 5.66 g/m*3 4 C 0 km/h
303 30-04-2006 02:28:03 3.9 C 5.68 g/m*3 3.9 C 0 km/h
304 30-04-2006 02:38:03 3.8 C 5.65 g/m*3 3.8 C 0 km/h
305 30-04-2006 02:49:04 3.8 C 5.65 g/m*3 3.8 C 0 km/h
306 30-04-2006 02:59:04 3.7 C 5.61 g/m*3 3.7 C 0 km/h
307 30-04-2006 03:09:04 3.8 C 5.65 g/m*3 3.8 C 0 km/h
308 30-04-2006 03:19:04 4 C 5.66 g/m*3 4 C 0 km/h
309 30-04-2006 03:29:04 4.1 C 5.63 g/m*3 4.1 C 0 km/h
310 30-04-2006 03:39:02 4.1 C 5.57 g/m*3 4.1 C 0 km/h
311 30-04-2006 03:49:02 4.1 C 5.57 g/m*3 4.1 C 0 km/h
312 30-04-2006 03:59:02 4.1 C 5.57 g/m*3 4.1 C 0 km/h
313 30-04-2006 04:09:02 4 C 5.59 g/m*3 4 C 0 km/h
314 30-04-2006 04:19:02 4 C 5.59 g/m*3 4 C 0 km/h
315 30-04-2006 04:29:02 3.9 C 5.62 g/m*3 3.9 C 0 km/h
316 30-04-2006 04:39:02 4 C 5.59 g/m*3 4 C 0 km/h
317 30-04-2006 04:49:02 4.1 C 5.63 g/m*3 4.1 C 0 km/h
318 30-04-2006 04:59:02 4.2 C 5.67 g/m*3 4.2 C 0 km/h
319 30-04-2006 05:09:01 4.1 C 5.63 g/m*3 4.1 C 0 km/h
320 30-04-2006 05:19:02 4.1 C 5.63 g/m*3 4.1 C 0 km/h
321 30-04-2006 05:29:02 4.1 C 5.63 g/m*3 4.1 C 0 km/h
322 30-04-2006 05:39:02 4.2 C 5.67 g/m*3 4.2 C 0 km/h
323 30-04-2006 05:49:02 4.3 C 5.77 g/m*3 4.3 C 0 km/h
324 30-04-2006 05:59:02 4.1 C 5.7 g/m*3 4.1 C 0 km/h
325 30-04-2006 06:09:03 4.1 C 5.7 g/m*3 4.1 C 0 km/h
Sensor: Nr:Datum:Temp:Abs-Feuchte:Windchill:Wind:
Aussen-T/F 326 30-04-2006 06:19:02 4.2 C 5.73 g/m*3 4.2 C 0 km/h
327 30-04-2006 06:29:02 4.3 C 5.77 g/m*3 4.3 C 0 km/h
328 30-04-2006 06:39:02 4.2 C 5.73 g/m*3 4.2 C 0 km/h
329 30-04-2006 06:49:02 4.2 C 5.67 g/m*3 4.2 C 0 km/h
330 30-04-2006 06:59:03 4.1 C 5.63 g/m*3 4.1 C 0 km/h
331 30-04-2006 07:09:02 4 C 5.59 g/m*3 4 C 0 km/h
332 30-04-2006 07:19:01 4.2 C 5.73 g/m*3 4.2 C 0 km/h
333 30-04-2006 07:29:01 4.3 C 5.77 g/m*3 4.3 C 0 km/h
334 30-04-2006 07:39:01 4.6 C 5.89 g/m*3 4.6 C 0 km/h
335 30-04-2006 07:49:02 4.5 C 5.78 g/m*3 4.5 C 0 km/h
336 30-04-2006 07:59:02 3.8 C 5.4 g/m*3 3.8 C 0 km/h
337 30-04-2006 08:09:02 3.3 C 5.22 g/m*3 3.3 C 0 km/h
338 30-04-2006 08:19:01 3.3 C 5.22 g/m*3 3.3 C 0 km/h
339 30-04-2006 08:29:01 3.5 C 5.23 g/m*3 3.5 C 0 km/h
340 30-04-2006 08:39:01 3.8 C 5.27 g/m*3 3.8 C 0 km/h
341 30-04-2006 08:49:02 4.2 C 5.28 g/m*3 4.2 C 0 km/h
342 30-04-2006 08:59:03 4.5 C 5.26 g/m*3 4.5 C 0 km/h
343 30-04-2006 09:09:02 4.5 C 5.19 g/m*3 4.5 C 0 km/h
344 30-04-2006 09:19:01 4.4 C 5.16 g/m*3 4.4 C 0 km/h
345 30-04-2006 09:29:01 4.4 C 5.22 g/m*3 4.4 C 0 km/h
346 30-04-2006 09:39:01 4.5 C 5.32 g/m*3 4.5 C 0 km/h
347 30-04-2006 09:49:02 4.9 C 5.4 g/m*3 4.9 C 0 km/h
348 30-04-2006 09:59:02 5.5 C 5.41 g/m*3 5.5 C 0 km/h
349 30-04-2006 10:09:02 5.7 C 5.41 g/m*3 5.7 C 0 km/h
350 30-04-2006 10:19:02 6 C 5.37 g/m*3 6 C 0 km/h
Sensor: Nr:Datum:Temp:Abs-Feuchte:Windchill:Wind:
Aussen-T/F 351 30-04-2006 10:29:02 5.9 C 5.26 g/m*3 5.9 C 0 km/h
352 30-04-2006 10:39:02 6 C 5.23 g/m*3 6 C 0 km/h
353 30-04-2006 10:49:02 6.4 C 5.22 g/m*3 6.4 C 0 km/h
354 30-04-2006 10:59:02 7 C 4.65 g/m*3 7 C 0 km/h
355 30-04-2006 11:09:02 7.5 C 4.88 g/m*3 7.5 C 0 km/h
356 30-04-2006 11:19:02 7 C 4.49 g/m*3 7 C 0 km/h
357 30-04-2006 11:29:02 8.2 C 4.44 g/m*3 8.2 C 0 km/h
358 30-04-2006 11:39:02 8.5 C 4.1 g/m*3 8.5 C 0 km/h
359 30-04-2006 11:49:02 9.2 C 4.38 g/m*3 9.2 C 0 km/h
360 30-04-2006 11:59:03 9.9 C 4.29 g/m*3 9.9 C 0 km/h
361 30-04-2006 12:09:02 9.6 C 4.03 g/m*3 9.6 C 0 km/h
362 30-04-2006 12:19:02 10.2 C 3.9 g/m*3 10.2 C 0 km/h
363 30-04-2006 12:29:02 9.9 C 3.83 g/m*3 9.9 C 0 km/h
364 30-04-2006 12:39:02 9.9 C 4.2 g/m*3 9.9 C 0 km/h
365 30-04-2006 12:49:02 9.2 C 4.11 g/m*3 9.2 C 0 km/h
366 30-04-2006 12:59:02 9.1 C 4.17 g/m*3 9.1 C 0 km/h
367 30-04-2006 13:09:02 9.5 C 4.55 g/m*3 9.5 C 0 km/h
368 30-04-2006 13:19:02 9.1 C 4.26 g/m*3 9.1 C 0 km/h
369 30-04-2006 13:29:02 9 C 4.5 g/m*3 9 C 0 km/h
370 30-04-2006 13:39:02 10 C 4.23 g/m*3 10 C 0 km/h
371 30-04-2006 13:49:02 10.6 C 4.39 g/m*3 10.6 C 0 km/h
372 30-04-2006 13:59:02 10.3 C 4.21 g/m*3 10.3 C 0 km/h
373 30-04-2006 14:09:02 10.2 C 4.09 g/m*3 10.2 C 0 km/h
374 30-04-2006 14:19:02 10.8 C 4.05 g/m*3 10.8 C 0 km/h
375 30-04-2006 14:29:02 11.1 C 4.13 g/m*3 11.1 C 0 km/h
Sensor: Nr:Datum:Temp:Abs-Feuchte:Windchill:Wind:
Aussen-T/F 376 30-04-2006 14:39:02 11 C 4 g/m*3 11 C 0 km/h
377 30-04-2006 14:49:03 11.2 C 3.65 g/m*3 11.2 C 0 km/h
378 30-04-2006 14:59:03 11.8 C 3.89 g/m*3 11.8 C 0 km/h
379 30-04-2006 15:09:02 11.7 C 3.66 g/m*3 11.7 C 0 km/h
380 30-04-2006 15:19:02 12.1 C 3.75 g/m*3 12.1 C 0 km/h
381 30-04-2006 15:29:02 12 C 3.73 g/m*3 12 C 0 km/h
382 30-04-2006 15:39:02 11.4 C 3.59 g/m*3 11.4 C 0 km/h
383 30-04-2006 15:49:02 12.1 C 3.65 g/m*3 12.1 C 0 km/h
384 30-04-2006 15:59:02 12.4 C 3.71 g/m*3 12.4 C 0 km/h
385 30-04-2006 16:09:02 12.1 C 3.54 g/m*3 12.1 C 0 km/h
386 30-04-2006 16:19:02 11.7 C 3.66 g/m*3 11.7 C 0 km/h
387 30-04-2006 16:29:02 11.3 C 3.77 g/m*3 11.3 C 0 km/h
388 30-04-2006 16:39:02 10.9 C 3.88 g/m*3 10.9 C 0 km/h
389 30-04-2006 16:49:02 10.6 C 3.9 g/m*3 10.6 C 0 km/h
390 30-04-2006 16:59:02 10.1 C 4.26 g/m*3 10.1 C 0 km/h
391 30-04-2006 17:09:02 10.1 C 4.35 g/m*3 10.1 C 0 km/h
392 30-04-2006 17:19:02 9.7 C 4.33 g/m*3 9.7 C 0 km/h
393 30-04-2006 17:29:02 9.7 C 4.7 g/m*3 9.7 C 0 km/h
394 30-04-2006 17:39:02 9 C 4.94 g/m*3 9 C 0 km/h
395 30-04-2006 17:49:03 8.3 C 5.31 g/m*3 8.3 C 0 km/h
396 30-04-2006 17:59:03 8.1 C 5.24 g/m*3 8.1 C 0 km/h
397 30-04-2006 18:09:02 8 C 5.29 g/m*3 8 C 0 km/h
398 30-04-2006 18:19:02 7.7 C 5.43 g/m*3 7.7 C 0 km/h
399 30-04-2006 18:29:02 7.7 C 5.43 g/m*3 7.7 C 0 km/h
400 30-04-2006 18:39:02 7.8 C 5.55 g/m*3 7.8 C 0 km/h
Sensor: Nr:Datum:Temp:Abs-Feuchte:Windchill:Wind:
Aussen-T/F 401 30-04-2006 18:49:02 7.6 C 5.4 g/m*3 7.6 C 0 km/h
402 30-04-2006 18:59:02 7.4 C 5.57 g/m*3 7.4 C 0 km/h
403 30-04-2006 19:09:02 6.4 C 5.89 g/m*3 6.4 C 0 km/h
404 30-04-2006 19:19:02 6.5 C 6.22 g/m*3 6.5 C 0 km/h
405 30-04-2006 19:29:02 6.5 C 6.22 g/m*3 6.5 C 0 km/h
406 30-04-2006 19:39:02 6.5 C 6.3 g/m*3 6.5 C 0 km/h
407 30-04-2006 19:49:03 6.5 C 6.37 g/m*3 6.5 C 0 km/h
408 30-04-2006 19:59:03 6.3 C 6.37 g/m*3 6.3 C 0 km/h
409 30-04-2006 20:09:02 6.4 C 6.48 g/m*3 6.4 C 0 km/h
410 30-04-2006 20:19:02 6.3 C 6.44 g/m*3 6.3 C 0 km/h
411 30-04-2006 20:29:02 6.3 C 6.51 g/m*3 6.3 C 0 km/h
412 30-04-2006 20:39:02 6.4 C 6.63 g/m*3 6.4 C 0 km/h
413 30-04-2006 20:49:02 6.4 C 6.63 g/m*3 6.4 C 0 km/h
414 30-04-2006 20:59:02 6.4 C 6.71 g/m*3 6.4 C 0 km/h
415 30-04-2006 21:09:02 6.3 C 6.66 g/m*3 6.3 C 0 km/h
416 30-04-2006 21:19:02 6.2 C 6.62 g/m*3 6.2 C 0 km/h
417 30-04-2006 21:29:02 6.3 C 6.66 g/m*3 6.3 C 0 km/h
418 30-04-2006 21:39:02 6.2 C 6.62 g/m*3 6.2 C 0 km/h
419 30-04-2006 21:49:03 6 C 6.6 g/m*3 6 C 0 km/h
420 30-04-2006 21:59:03 5.8 C 6.52 g/m*3 5.8 C 0 km/h
421 30-04-2006 22:09:03 5.7 C 6.33 g/m*3 5.7 C 0 km/h
422 30-04-2006 22:19:03 5.7 C 6.33 g/m*3 5.7 C 0 km/h
423 30-04-2006 22:29:04 5.7 C 6.26 g/m*3 5.7 C 0 km/h
424 30-04-2006 22:39:02 5.6 C 6.15 g/m*3 5.6 C 0 km/h
425 30-04-2006 22:49:02 5.5 C 6.11 g/m*3 5.5 C 0 km/h
Sensor: Nr:Datum:Temp:Abs-Feuchte:Windchill:Wind:
Aussen-T/F 426 30-04-2006 22:59:02 5.1 C 5.88 g/m*3 5.1 C 0 km/h
427 30-04-2006 23:09:02 4.6 C 5.82 g/m*3 4.6 C 0 km/h
428 30-04-2006 23:19:02 4.3 C 5.77 g/m*3 4.3 C 0 km/h
429 30-04-2006 23:29:02 4.4 C 5.88 g/m*3 4.4 C 0 km/h
430 30-04-2006 23:39:02 4.6 C 6.02 g/m*3 4.6 C 0 km/h
431 30-04-2006 23:49:02 4.9 C 6.14 g/m*3 4.9 C 0 km/h
432 30-04-2006 23:59:02 5.1 C 6.22 g/m*3 5.1 C 0 km/h
433 01-05-2006 00:09:01 5.1 C 6.16 g/m*3 5.1 C 0 km/h
434 01-05-2006 00:19:02 4.7 C 6 g/m*3 4.7 C 0 km/h
435 01-05-2006 00:29:02 4.6 C 5.96 g/m*3 4.6 C 0 km/h
436 01-05-2006 00:39:02 4.7 C 5.93 g/m*3 4.7 C 0 km/h
437 01-05-2006 00:49:02 4.7 C 5.93 g/m*3 4.7 C 0 km/h
438 01-05-2006 00:59:02 4.6 C 5.89 g/m*3 4.6 C 0 km/h
439 01-05-2006 01:09:02 4.7 C 5.86 g/m*3 4.7 C 0 km/h
440 01-05-2006 01:19:02 4.7 C 5.86 g/m*3 4.7 C 0 km/h
441 01-05-2006 01:29:02 4.8 C 5.9 g/m*3 4.8 C 0 km/h
442 01-05-2006 01:39:02 4.8 C 5.9 g/m*3 4.8 C 0 km/h
443 01-05-2006 01:49:02 5 C 5.84 g/m*3 5 C 0 km/h
444 01-05-2006 01:59:02 4.9 C 5.87 g/m*3 4.9 C 0 km/h
445 01-05-2006 02:09:02 4.8 C 5.9 g/m*3 4.8 C 0 km/h
446 01-05-2006 02:19:02 4.8 C 5.9 g/m*3 4.8 C 0 km/h
447 01-05-2006 02:29:02 4.7 C 5.86 g/m*3 4.7 C 0 km/h
448 01-05-2006 02:39:02 4.8 C 5.9 g/m*3 4.8 C 0 km/h
449 01-05-2006 02:50:03 4.9 C 5.87 g/m*3 4.9 C 0 km/h
450 01-05-2006 03:00:03 5 C 5.84 g/m*3 5 C 0 km/h
Sensor: Nr:Datum:Temp:Abs-Feuchte:Windchill:Wind:
Aussen-T/F 451 01-05-2006 03:10:04 5.1 C 5.88 g/m*3 5.1 C 0 km/h
452 01-05-2006 03:20:04 4.9 C 5.87 g/m*3 4.9 C 0 km/h
453 01-05-2006 03:30:04 4.7 C 5.8 g/m*3 4.7 C 0 km/h
454 01-05-2006 03:40:02 4.3 C 5.64 g/m*3 4.3 C 0 km/h
455 01-05-2006 03:50:02 4.1 C 5.57 g/m*3 4.1 C 0 km/h
456 01-05-2006 04:00:02 3.8 C 5.52 g/m*3 3.8 C 0 km/h
457 01-05-2006 04:10:02 3.6 C 5.45 g/m*3 3.6 C 0 km/h
458 01-05-2006 04:20:02 3.5 C 5.41 g/m*3 3.5 C 0 km/h
459 01-05-2006 04:30:02 3.2 C 5.3 g/m*3 3.2 C 0 km/h
460 01-05-2006 04:40:02 3.1 C 5.27 g/m*3 3.1 C 0 km/h
461 01-05-2006 04:50:02 2.8 C 5.22 g/m*3 2.8 C 0 km/h
462 01-05-2006 05:00:02 2.8 C 5.22 g/m*3 2.8 C 0 km/h
463 01-05-2006 05:10:02 2.7 C 5.24 g/m*3 2.7 C 0 km/h
464 01-05-2006 05:20:02 2.7 C 5.3 g/m*3 2.7 C 0 km/h
465 01-05-2006 05:30:02 2.4 C 5.2 g/m*3 2.4 C 0 km/h
466 01-05-2006 05:40:02 2.2 C 5.13 g/m*3 2.2 C 0 km/h
467 01-05-2006 05:50:02 2.1 C 5.09 g/m*3 2.1 C 0 km/h
468 01-05-2006 06:00:02 2 C 5.06 g/m*3 2 C 0 km/h
469 01-05-2006 06:10:02 1.9 C 5.08 g/m*3 1.9 C 0 km/h
470 01-05-2006 06:20:02 1.7 C 5.06 g/m*3 1.7 C 0 km/h
471 01-05-2006 06:30:02 1.8 C 5.1 g/m*3 1.8 C 0 km/h
472 01-05-2006 06:40:03 1.8 C 5.1 g/m*3 1.8 C 0 km/h
473 01-05-2006 06:50:02 1.8 C 5.1 g/m*3 1.8 C 0 km/h
474 01-05-2006 07:00:02 1.8 C 5.1 g/m*3 1.8 C 0 km/h
475 01-05-2006 07:10:02 2 C 5.11 g/m*3 2 C 0 km/h
Sensor: Nr:Datum:Temp:Abs-Feuchte:Windchill:Wind:
Aussen-T/F 476 01-05-2006 07:20:02 2.1 C 5.2 g/m*3 2.1 C 0 km/h
477 01-05-2006 07:30:02 2.2 C 5.24 g/m*3 2.2 C 0 km/h
478 01-05-2006 07:40:02 2.5 C 5.35 g/m*3 2.5 C 0 km/h
479 01-05-2006 07:50:02 2.8 C 5.51 g/m*3 2.8 C 0 km/h
480 01-05-2006 08:00:02 3 C 5.53 g/m*3 3 C 0 km/h
481 01-05-2006 08:10:02 3.1 C 5.63 g/m*3 3.1 C 0 km/h
482 01-05-2006 08:20:01 3.4 C 5.74 g/m*3 3.4 C 0 km/h
483 01-05-2006 08:30:01 3.5 C 5.78 g/m*3 3.5 C 0 km/h
484 01-05-2006 08:40:02 3.6 C 5.82 g/m*3 3.6 C 0 km/h
485 01-05-2006 08:50:02 3.8 C 5.9 g/m*3 3.8 C 0 km/h
486 01-05-2006 09:00:02 4.1 C 5.95 g/m*3 4.1 C 0 km/h
487 01-05-2006 09:10:02 4.7 C 6.19 g/m*3 4.7 C 0 km/h
488 01-05-2006 09:20:02 5.1 C 6.29 g/m*3 5.1 C 0 km/h
489 01-05-2006 09:30:03 5.7 C 6.4 g/m*3 5.7 C 0 km/h
490 01-05-2006 09:40:02 6.7 C 6.53 g/m*3 6.7 C 0 km/h
491 01-05-2006 09:50:02 7.5 C 6.56 g/m*3 7.5 C 0 km/h
492 01-05-2006 10:00:02 7.8 C 6.28 g/m*3 7.8 C 0 km/h
493 01-05-2006 10:10:02 8 C 6.2 g/m*3 8 C 0 km/h
494 01-05-2006 10:20:02 8.5 C 6.32 g/m*3 8.5 C 0 km/h
495 01-05-2006 10:30:02 9.1 C 6.21 g/m*3 9.1 C 0 km/h
496 01-05-2006 10:40:02 9.6 C 6.14 g/m*3 9.6 C 0 km/h
497 01-05-2006 10:50:03 10.2 C 6.38 g/m*3 10.2 C 0 km/h
498 01-05-2006 11:00:03 10.7 C 6.38 g/m*3 10.7 C 0 km/h
499 01-05-2006 11:10:03 11.4 C 6.36 g/m*3 11.4 C 0 km/h
500 01-05-2006 11:20:02 11.5 C 5.99 g/m*3 11.5 C 0 km/h
Sensor: Nr:Datum:Temp:Abs-Feuchte:Windchill:Wind:
Aussen-T/F 501 01-05-2006 11:30:02 12.2 C 6.15 g/m*3 12.2 C 0 km/h
502 01-05-2006 11:40:02 12.8 C 5.71 g/m*3 12.8 C 0 km/h
503 01-05-2006 11:50:02 13.1 C 5.71 g/m*3 13.1 C 0 km/h
504 01-05-2006 12:00:03 13.6 C 5.88 g/m*3 13.6 C 0 km/h
505 01-05-2006 12:10:02 12.9 C 5.64 g/m*3 12.9 C 0 km/h
506 01-05-2006 12:20:02 12.3 C 5.54 g/m*3 12.3 C 0 km/h
507 01-05-2006 12:30:02 12.8 C 5.82 g/m*3 12.8 C 0 km/h
508 01-05-2006 12:40:01 12.5 C 5.72 g/m*3 12.5 C 0 km/h
509 01-05-2006 12:50:02 13 C 5.78 g/m*3 13 C 0 km/h
510 01-05-2006 13:00:02 12.5 C 5.83 g/m*3 12.5 C 0 km/h
511 01-05-2006 13:10:02 12.6 C 5.86 g/m*3 12.6 C 0 km/h
512 01-05-2006 13:20:02 12.4 C 5.79 g/m*3 12.4 C 0 km/h
513 01-05-2006 13:30:02 12.2 C 5.94 g/m*3 12.2 C 0 km/h
514 01-05-2006 13:40:02 12.4 C 5.9 g/m*3 12.4 C 0 km/h
515 01-05-2006 13:50:02 13 C 6.24 g/m*3 13 C 0 km/h
516 01-05-2006 14:00:02 13.5 C 5.97 g/m*3 13.5 C 0 km/h
517 01-05-2006 14:10:02 14.1 C 5.83 g/m*3 14.1 C 0 km/h
518 01-05-2006 14:20:02 14.4 C 5.81 g/m*3 14.4 C 0 km/h
519 01-05-2006 14:30:02 14.2 C 5.62 g/m*3 14.2 C 0 km/h
520 01-05-2006 14:40:03 13.5 C 6.08 g/m*3 13.5 C 0 km/h
521 01-05-2006 14:50:02 13.5 C 5.97 g/m*3 13.5 C 0 km/h
522 01-05-2006 15:00:02 13.5 C 6.2 g/m*3 13.5 C 0 km/h
523 01-05-2006 15:10:02 13.5 C 6.2 g/m*3 13.5 C 0 km/h
524 01-05-2006 15:20:02 13.1 C 6.39 g/m*3 13.1 C 0 km/h
525 01-05-2006 15:30:02 12.5 C 7.15 g/m*3 12.5 C 0 km/h
Sensor: Nr:Datum:Temp:Abs-Feuchte:Windchill:Wind:
Aussen-T/F 526 01-05-2006 15:40:03 12.4 C 7.1 g/m*3 12.4 C 0 km/h
527 01-05-2006 15:50:02 12.3 C 7.38 g/m*3 12.3 C 0 km/h
528 01-05-2006 16:00:02 12.1 C 7.4 g/m*3 12.1 C 0 km/h
529 01-05-2006 16:10:02 12.2 C 7.34 g/m*3 12.2 C 0 km/h
530 01-05-2006 16:20:03 12.8 C 7.5 g/m*3 12.8 C 0 km/h
531 01-05-2006 16:30:03 13.4 C 7.44 g/m*3 13.4 C 0 km/h
532 01-05-2006 16:40:03 13.6 C 7.3 g/m*3 13.6 C 0 km/h
533 01-05-2006 16:50:01 13.8 C 7.39 g/m*3 13.8 C 0 km/h
534 01-05-2006 17:00:01 13.7 C 7.58 g/m*3 13.7 C 0 km/h
535 01-05-2006 17:10:02 13.4 C 7.67 g/m*3 13.4 C 0 km/h
536 01-05-2006 17:20:02 12.8 C 7.62 g/m*3 12.8 C 0 km/h
537 01-05-2006 17:30:02 12.2 C 7.55 g/m*3 12.2 C 0 km/h
538 01-05-2006 17:40:02 11.7 C 8.05 g/m*3 11.7 C 0 km/h
539 01-05-2006 17:50:03 11.1 C 8.16 g/m*3 11.1 C 0 km/h
540 01-05-2006 18:00:03 11.1 C 8.36 g/m*3 11.1 C 0 km/h
541 01-05-2006 18:10:03 11.2 C 8.62 g/m*3 11.2 C 0 km/h
542 01-05-2006 18:20:02 11.3 C 8.77 g/m*3 11.3 C 0 km/h
543 01-05-2006 18:30:02 11.2 C 8.82 g/m*3 11.2 C 0 km/h
544 01-05-2006 18:40:03 11.3 C 8.77 g/m*3 11.3 C 0 km/h
545 01-05-2006 18:50:02 11.4 C 8.93 g/m*3 11.4 C 0 km/h
546 01-05-2006 19:00:02 11.3 C 8.87 g/m*3 11.3 C 0 km/h
547 01-05-2006 19:10:03 11.2 C 8.51 g/m*3 11.2 C 0 km/h
548 01-05-2006 19:20:03 11.3 C 8.67 g/m*3 11.3 C 0 km/h
549 01-05-2006 19:30:03 11.2 C 8.72 g/m*3 11.2 C 0 km/h
550 01-05-2006 19:40:02 11.1 C 8.66 g/m*3 11.1 C 0 km/h
Sensor: Nr:Datum:Temp:Abs-Feuchte:Windchill:Wind:
Aussen-T/F 551 01-05-2006 19:50:02 10.9 C 8.75 g/m*3 10.9 C 0 km/h
552 01-05-2006 20:00:02 10.8 C 8.7 g/m*3 10.8 C 0 km/h
553 01-05-2006 20:10:03 10.8 C 8.8 g/m*3 10.8 C 0 km/h
554 01-05-2006 20:20:02 10.7 C 8.64 g/m*3 10.7 C 0 km/h
555 01-05-2006 20:30:02 10.7 C 8.64 g/m*3 10.7 C 0 km/h
556 01-05-2006 20:40:03 10.5 C 8.53 g/m*3 10.5 C 0 km/h
557 01-05-2006 20:50:02 10.4 C 8.38 g/m*3 10.4 C 0 km/h
558 01-05-2006 21:00:02 10.4 C 8.38 g/m*3 10.4 C 0 km/h
559 01-05-2006 21:10:03 10.3 C 8.33 g/m*3 10.3 C 0 km/h
560 01-05-2006 21:20:02 10.3 C 8.24 g/m*3 10.3 C 0 km/h
561 01-05-2006 21:30:02 10.2 C 7.99 g/m*3 10.2 C 0 km/h
562 01-05-2006 21:40:03 10.3 C 7.85 g/m*3 10.3 C 0 km/h
563 01-05-2006 21:50:02 10.2 C 7.71 g/m*3 10.2 C 0 km/h
564 01-05-2006 22:00:02 10.3 C 7.66 g/m*3 10.3 C 0 km/h
565 01-05-2006 22:10:02 10.2 C 7.61 g/m*3 10.2 C 0 km/h
566 01-05-2006 22:20:02 10.1 C 7.56 g/m*3 10.1 C 0 km/h
567 01-05-2006 22:30:02 10 C 7.61 g/m*3 10 C 0 km/h
568 01-05-2006 22:40:03 9.8 C 7.7 g/m*3 9.8 C 0 km/h
569 01-05-2006 22:50:02 9.6 C 7.69 g/m*3 9.6 C 0 km/h
570 01-05-2006 23:00:02 9.7 C 7.74 g/m*3 9.7 C 0 km/h
571 01-05-2006 23:10:02 9.6 C 7.69 g/m*3 9.6 C 0 km/h
572 01-05-2006 23:20:02 9.6 C 7.69 g/m*3 9.6 C 0 km/h
573 01-05-2006 23:30:02 9.6 C 7.79 g/m*3 9.6 C 0 km/h
574 01-05-2006 23:40:03 9.5 C 7.83 g/m*3 9.5 C 0 km/h
575 01-05-2006 23:50:02 9.4 C 7.87 g/m*3 9.4 C 0 km/h
Sensor: Nr:Datum:Temp:Abs-Feuchte:Windchill:Wind:
Aussen-T/F 576 02-05-2006 00:00:02 9.5 C 7.92 g/m*3 9.5 C 0 km/h
577 02-05-2006 00:10:02 9.4 C 7.87 g/m*3 9.4 C 0 km/h
578 02-05-2006 00:20:02 9.5 C 7.83 g/m*3 9.5 C 0 km/h
579 02-05-2006 00:30:02 9.6 C 7.79 g/m*3 9.6 C 0 km/h
580 02-05-2006 00:40:02 9.7 C 7.65 g/m*3 9.7 C 0 km/h
581 02-05-2006 00:50:02 9.9 C 7.47 g/m*3 9.9 C 0 km/h
582 02-05-2006 01:00:03 9.8 C 7.42 g/m*3 9.8 C 0 km/h
583 02-05-2006 01:10:02 9.8 C 7.52 g/m*3 9.8 C 0 km/h
584 02-05-2006 01:20:02 9.8 C 7.42 g/m*3 9.8 C 0 km/h
585 02-05-2006 01:30:02 9.9 C 7.38 g/m*3 9.9 C 0 km/h
586 02-05-2006 01:40:02 10 C 7.24 g/m*3 10 C 0 km/h
587 02-05-2006 01:50:02 10.1 C 7.19 g/m*3 10.1 C 0 km/h
588 02-05-2006 02:00:02 10 C 7.24 g/m*3 10 C 0 km/h
589 02-05-2006 02:10:02 9.9 C 7.28 g/m*3 9.9 C 0 km/h
590 02-05-2006 02:20:02 9.9 C 7.28 g/m*3 9.9 C 0 km/h
591 02-05-2006 02:30:02 9.6 C 7.15 g/m*3 9.6 C 0 km/h
592 02-05-2006 02:40:02 9.4 C 7.15 g/m*3 9.4 C 0 km/h
593 02-05-2006 02:51:03 9.2 C 7.14 g/m*3 9.2 C 0 km/h
594 02-05-2006 03:01:03 9.2 C 7.23 g/m*3 9.2 C 0 km/h
595 02-05-2006 03:11:03 9.2 C 7.32 g/m*3 9.2 C 0 km/h
596 02-05-2006 03:21:04 9.3 C 7.28 g/m*3 9.3 C 0 km/h
597 02-05-2006 03:31:02 9.3 C 7.37 g/m*3 9.3 C 0 km/h
598 02-05-2006 03:41:02 9.3 C 7.28 g/m*3 9.3 C 0 km/h
599 02-05-2006 03:51:02 9.1 C 7.28 g/m*3 9.1 C 0 km/h
600 02-05-2006 04:01:02 8.9 C 7.27 g/m*3 8.9 C 0 km/h
Sensor: Nr:Datum:Temp:Abs-Feuchte:Windchill:Wind:
Aussen-T/F 601 02-05-2006 04:11:02 8.7 C 7.18 g/m*3 8.7 C 0 km/h
602 02-05-2006 04:21:02 8.5 C 7.17 g/m*3 8.5 C 0 km/h
603 02-05-2006 04:31:02 8.1 C 6.99 g/m*3 8.1 C 0 km/h
604 02-05-2006 04:41:02 7.9 C 7.15 g/m*3 7.9 C 0 km/h
605 02-05-2006 04:51:02 7.7 C 7.05 g/m*3 7.7 C 0 km/h
606 02-05-2006 05:01:02 7.5 C 7.04 g/m*3 7.5 C 0 km/h
607 02-05-2006 05:11:02 7.4 C 7.08 g/m*3 7.4 C 0 km/h
608 02-05-2006 05:21:02 7.4 C 7.08 g/m*3 7.4 C 0 km/h
609 02-05-2006 05:31:02 7.4 C 7.08 g/m*3 7.4 C 0 km/h
610 02-05-2006 05:41:03 7.3 C 7.11 g/m*3 7.3 C 0 km/h
611 02-05-2006 05:51:02 7.3 C 7.11 g/m*3 7.3 C 0 km/h
612 02-05-2006 06:01:02 7.3 C 7.11 g/m*3 7.3 C 0 km/h
613 02-05-2006 06:11:02 7.6 C 7.33 g/m*3 7.6 C 0 km/h
614 02-05-2006 06:21:01 7.7 C 7.38 g/m*3 7.7 C 0 km/h
615 02-05-2006 06:31:02 7.8 C 7.43 g/m*3 7.8 C 0 km/h
616 02-05-2006 06:41:02 7.9 C 7.47 g/m*3 7.9 C 0 km/h
617 02-05-2006 06:51:03 8 C 7.36 g/m*3 8 C 0 km/h
618 02-05-2006 07:01:03 7.9 C 7.39 g/m*3 7.9 C 0 km/h
619 02-05-2006 07:11:03 7.9 C 7.39 g/m*3 7.9 C 0 km/h
620 02-05-2006 07:21:02 8.1 C 7.41 g/m*3 8.1 C 0 km/h
621 02-05-2006 07:31:02 8.4 C 7.55 g/m*3 8.4 C 0 km/h
622 02-05-2006 07:41:02 8.5 C 7.43 g/m*3 8.5 C 0 km/h
623 02-05-2006 07:51:02 8.5 C 7.43 g/m*3 8.5 C 0 km/h
624 02-05-2006 08:01:02 8.5 C 7.43 g/m*3 8.5 C 0 km/h
625 02-05-2006 08:11:02 8.7 C 7.61 g/m*3 8.7 C 0 km/h
Sensor: Nr:Datum:Temp:Abs-Feuchte:Windchill:Wind:
Aussen-T/F 626 02-05-2006 08:21:02 8.7 C 7.61 g/m*3 8.7 C 0 km/h
627 02-05-2006 08:31:01 8.8 C 7.66 g/m*3 8.8 C 0 km/h
628 02-05-2006 08:41:01 9.1 C 7.72 g/m*3 9.1 C 0 km/h
629 02-05-2006 08:51:02 9.3 C 7.73 g/m*3 9.3 C 0 km/h
630 02-05-2006 09:01:02 9.9 C 8.03 g/m*3 9.9 C 0 km/h
631 02-05-2006 09:11:02 10.2 C 7.9 g/m*3 10.2 C 0 km/h
632 02-05-2006 09:21:01 11.4 C 8.42 g/m*3 11.4 C 0 km/h
633 02-05-2006 09:31:02 11.8 C 8 g/m*3 11.8 C 0 km/h
634 02-05-2006 09:41:02 12.4 C 7.87 g/m*3 12.4 C 0 km/h
635 02-05-2006 09:51:02 13.1 C 7.19 g/m*3 13.1 C 0 km/h
636 02-05-2006 10:01:01 13.5 C 7.02 g/m*3 13.5 C 0 km/h
637 02-05-2006 10:11:01 14.1 C 7.04 g/m*3 14.1 C 0 km/h
638 02-05-2006 10:21:01 14.1 C 7.04 g/m*3 14.1 C 0 km/h
639 02-05-2006 10:31:02 14.1 C 7.04 g/m*3 14.1 C 0 km/h
640 02-05-2006 10:41:02 14.3 C 7.13 g/m*3 14.3 C 0 km/h
641 02-05-2006 10:51:01 15 C 7.18 g/m*3 15 C 0 km/h
642 02-05-2006 11:01:01 15.4 C 7.23 g/m*3 15.4 C 0 km/h
643 02-05-2006 11:11:01 16.1 C 7.13 g/m*3 16.1 C 0 km/h
644 02-05-2006 11:21:01 16 C 6.95 g/m*3 16 C 0 km/h
645 02-05-2006 11:31:02 15.9 C 7.04 g/m*3 15.9 C 0 km/h
646 02-05-2006 11:41:02 15.5 C 6.87 g/m*3 15.5 C 0 km/h
647 02-05-2006 11:51:02 15.7 C 6.96 g/m*3 15.7 C 0 km/h
648 02-05-2006 12:01:02 16 C 7.08 g/m*3 16 C 0 km/h
649 02-05-2006 12:11:02 16.9 C 7.48 g/m*3 16.9 C 0 km/h
650 02-05-2006 12:21:02 17.1 C 7.28 g/m*3 17.1 C 0 km/h
Sensor: Nr:Datum:Temp:Abs-Feuchte:Windchill:Wind:
Aussen-T/F 651 02-05-2006 12:31:03 17.1 C 6.99 g/m*3 17.1 C 0 km/h
652 02-05-2006 12:41:03 17.2 C 7.18 g/m*3 17.2 C 0 km/h
653 02-05-2006 12:51:02 17 C 6.66 g/m*3 17 C 0 km/h
654 02-05-2006 13:01:02 17.6 C 6.9 g/m*3 17.6 C 0 km/h
655 02-05-2006 13:11:02 18.8 C 6.6 g/m*3 18.8 C 0 km/h
656 02-05-2006 13:21:02 19.1 C 6.39 g/m*3 19.1 C 0 km/h
657 02-05-2006 13:31:02 19.8 C 6.32 g/m*3 19.8 C 0 km/h
658 02-05-2006 13:41:02 19.2 C 5.94 g/m*3 19.2 C 0 km/h
659 02-05-2006 13:51:02 19.3 C 5.97 g/m*3 19.3 C 0 km/h
660 02-05-2006 14:01:02 20 C 6.05 g/m*3 20 C 0 km/h
661 02-05-2006 14:11:02 20.6 C 5.91 g/m*3 20.6 C 0 km/h
662 02-05-2006 14:21:01 20.5 C 6.05 g/m*3 20.5 C 0 km/h
663 02-05-2006 14:31:02 20.1 C 5.56 g/m*3 20.1 C 0 km/h
664 02-05-2006 14:41:02 21.8 C 5.76 g/m*3 21.8 C 0 km/h
665 02-05-2006 14:51:02 21.5 C 5.66 g/m*3 21.5 C 0 km/h
666 02-05-2006 15:01:02 21.8 C 5.76 g/m*3 21.8 C 0 km/h
667 02-05-2006 15:11:02 22.8 C 5.69 g/m*3 22.8 C 0 km/h
668 02-05-2006 15:21:01 22.8 C 5.89 g/m*3 22.8 C 0 km/h
669 02-05-2006 15:31:02 22.2 C 5.3 g/m*3 22.2 C 0 km/h
670 02-05-2006 15:41:02 23.8 C 5.59 g/m*3 23.8 C 0 km/h
671 02-05-2006 15:51:02 25 C 5.52 g/m*3 25 C 0 km/h
672 02-05-2006 16:01:01 24.2 C 5.06 g/m*3 24.2 C 0 km/h
673 02-05-2006 16:11:01 24.4 C 5.34 g/m*3 24.4 C 0 km/h
674 02-05-2006 16:21:01 23.8 C 5.38 g/m*3 23.8 C 0 km/h
675 02-05-2006 16:31:02 23.7 C 5.35 g/m*3 23.7 C 0 km/h
Sensor: Nr:Datum:Temp:Abs-Feuchte:Windchill:Wind:
Aussen-T/F 676 02-05-2006 16:41:02 23.9 C 5.41 g/m*3 23.9 C 0 km/h
677 02-05-2006 16:51:02 23.9 C 5.41 g/m*3 23.9 C 0 km/h
678 02-05-2006 17:01:02 24.1 C 5.47 g/m*3 24.1 C 0 km/h
679 02-05-2006 17:11:02 24.1 C 5.25 g/m*3 24.1 C 0 km/h
680 02-05-2006 17:21:02 23.8 C 5.38 g/m*3 23.8 C 0 km/h
681 02-05-2006 17:31:01 24.5 C 5.37 g/m*3 24.5 C 0 km/h
682 02-05-2006 17:41:01 24.7 C 5.43 g/m*3 24.7 C 0 km/h
683 02-05-2006 17:51:02 25.2 C 5.12 g/m*3 25.2 C 0 km/h
684 02-05-2006 18:01:02 25.3 C 5.15 g/m*3 25.3 C 0 km/h
685 02-05-2006 18:11:02 24.5 C 5.15 g/m*3 24.5 C 0 km/h
686 02-05-2006 18:21:02 24.5 C 5.6 g/m*3 24.5 C 0 km/h
687 02-05-2006 18:31:02 24.2 C 5.72 g/m*3 24.2 C 0 km/h
688 02-05-2006 18:41:02 24.4 C 5.56 g/m*3 24.4 C 0 km/h
689 02-05-2006 18:51:02 24.2 C 5.72 g/m*3 24.2 C 0 km/h
690 02-05-2006 19:01:02 23.8 C 5.81 g/m*3 23.8 C 0 km/h
691 02-05-2006 19:11:02 23.3 C 5.85 g/m*3 23.3 C 0 km/h
692 02-05-2006 19:21:02 22.4 C 5.96 g/m*3 22.4 C 0 km/h
693 02-05-2006 19:31:03 22 C 6.21 g/m*3 22 C 0 km/h
694 02-05-2006 19:41:03 22.1 C 6.64 g/m*3 22.1 C 0 km/h
695 02-05-2006 19:51:02 22.1 C 6.44 g/m*3 22.1 C 0 km/h
696 02-05-2006 20:01:03 21.6 C 6.45 g/m*3 21.6 C 0 km/h
697 02-05-2006 20:11:03 21.1 C 6.63 g/m*3 21.1 C 0 km/h
698 02-05-2006 20:21:02 20.6 C 6.98 g/m*3 20.6 C 0 km/h
699 02-05-2006 20:31:02 19.8 C 7 g/m*3 19.8 C 0 km/h
700 02-05-2006 20:41:02 19.2 C 7.09 g/m*3 19.2 C 0 km/h
Sensor: Nr:Datum:Temp:Abs-Feuchte:Windchill:Wind:
Aussen-T/F 701 02-05-2006 20:51:02 18.5 C 6.96 g/m*3 18.5 C 0 km/h
702 02-05-2006 21:01:02 17.5 C 7.01 g/m*3 17.5 C 0 km/h
703 02-05-2006 21:11:03 16.9 C 6.9 g/m*3 16.9 C 0 km/h
704 02-05-2006 21:21:02 16.7 C 6.96 g/m*3 16.7 C 0 km/h
705 02-05-2006 21:31:02 16.4 C 7.12 g/m*3 16.4 C 0 km/h
706 02-05-2006 21:41:02 16.1 C 6.99 g/m*3 16.1 C 0 km/h
707 02-05-2006 21:51:01 16 C 6.95 g/m*3 16 C 0 km/h
708 02-05-2006 22:01:02 15.8 C 7 g/m*3 15.8 C 0 km/h
709 02-05-2006 22:11:02 15.4 C 6.96 g/m*3 15.4 C 0 km/h
710 02-05-2006 22:21:02 15.3 C 7.05 g/m*3 15.3 C 0 km/h
711 02-05-2006 22:31:02 15.2 C 6.88 g/m*3 15.2 C 0 km/h
712 02-05-2006 22:41:02 14.9 C 6.88 g/m*3 14.9 C 0 km/h
713 02-05-2006 22:51:02 14.9 C 7.01 g/m*3 14.9 C 0 km/h
714 02-05-2006 23:01:02 14.7 C 6.8 g/m*3 14.7 C 0 km/h
715 02-05-2006 23:11:03 14.6 C 7.01 g/m*3 14.6 C 0 km/h
716 02-05-2006 23:21:02 14.5 C 6.84 g/m*3 14.5 C 0 km/h
717 02-05-2006 23:31:02 14.6 C 6.88 g/m*3 14.6 C 0 km/h
718 02-05-2006 23:41:02 14.9 C 6.63 g/m*3 14.9 C 0 km/h
719 02-05-2006 23:51:02 14.7 C 6.92 g/m*3 14.7 C 0 km/h
720 03-05-2006 00:01:02 14.5 C 6.72 g/m*3 14.5 C 0 km/h
721 03-05-2006 00:11:02 14.6 C 6.51 g/m*3 14.6 C 0 km/h
722 03-05-2006 00:21:02 14.4 C 6.55 g/m*3 14.4 C 0 km/h
723 03-05-2006 00:31:02 14.1 C 6.55 g/m*3 14.1 C 0 km/h
724 03-05-2006 00:41:02 13.8 C 6.79 g/m*3 13.8 C 0 km/h
725 03-05-2006 00:51:02 13.6 C 6.71 g/m*3 13.6 C 0 km/h
Sensor: Nr:Datum:Temp:Abs-Feuchte:Windchill:Wind:
Aussen-T/F 726 03-05-2006 01:01:02 13.3 C 6.82 g/m*3 13.3 C 0 km/h
727 03-05-2006 01:11:03 13.1 C 6.73 g/m*3 13.1 C 0 km/h
728 03-05-2006 01:21:02 13 C 6.69 g/m*3 13 C 0 km/h
729 03-05-2006 01:31:02 12.8 C 6.83 g/m*3 12.8 C 0 km/h
730 03-05-2006 01:41:02 12.6 C 6.75 g/m*3 12.6 C 0 km/h
731 03-05-2006 01:51:01 12.4 C 6.77 g/m*3 12.4 C 0 km/h
732 03-05-2006 02:01:02 12.2 C 6.8 g/m*3 12.2 C 0 km/h
733 03-05-2006 02:11:02 12.1 C 6.86 g/m*3 12.1 C 0 km/h
734 03-05-2006 02:21:01 12 C 6.82 g/m*3 12 C 0 km/h
735 03-05-2006 02:31:02 11.8 C 6.95 g/m*3 11.8 C 0 km/h
736 03-05-2006 02:41:02 11.6 C 6.96 g/m*3 11.6 C 0 km/h
737 03-05-2006 02:52:03 11.5 C 7.02 g/m*3 11.5 C 0 km/h
738 03-05-2006 03:02:03 11.3 C 7.04 g/m*3 11.3 C 0 km/h
739 03-05-2006 03:12:04 11 C 7.01 g/m*3 11 C 0 km/h
740 03-05-2006 03:22:05 10.8 C 7.02 g/m*3 10.8 C 0 km/h
741 03-05-2006 03:32:02 10.6 C 6.93 g/m*3 10.6 C 0 km/h
742 03-05-2006 03:42:02 10.4 C 6.94 g/m*3 10.4 C 0 km/h
743 03-05-2006 03:52:03 10.3 C 6.99 g/m*3 10.3 C 0 km/h
744 03-05-2006 04:02:02 10 C 6.86 g/m*3 10 C 0 km/h
745 03-05-2006 04:12:02 9.9 C 7 g/m*3 9.9 C 0 km/h
746 03-05-2006 04:22:03 9.8 C 6.96 g/m*3 9.8 C 0 km/h
747 03-05-2006 04:32:03 9.6 C 6.96 g/m*3 9.6 C 0 km/h
748 03-05-2006 04:42:03 9.6 C 6.96 g/m*3 9.6 C 0 km/h
749 03-05-2006 04:52:02 9.4 C 6.96 g/m*3 9.4 C 0 km/h
750 03-05-2006 05:02:02 9.3 C 7.01 g/m*3 9.3 C 0 km/h
Sensor: Nr:Datum:Temp:Abs-Feuchte:Windchill:Wind:
Aussen-T/F 751 03-05-2006 05:12:02 9.1 C 6.92 g/m*3 9.1 C 0 km/h
752 03-05-2006 05:22:02 9 C 6.96 g/m*3 9 C 0 km/h
753 03-05-2006 05:32:02 8.7 C 7.09 g/m*3 8.7 C 0 km/h
754 03-05-2006 05:42:02 8.7 C 7.09 g/m*3 8.7 C 0 km/h
755 03-05-2006 05:52:02 8.5 C 7 g/m*3 8.5 C 0 km/h
756 03-05-2006 06:02:02 8.5 C 7 g/m*3 8.5 C 0 km/h
757 03-05-2006 06:12:02 8.4 C 6.96 g/m*3 8.4 C 0 km/h
758 03-05-2006 06:22:02 8.5 C 7 g/m*3 8.5 C 0 km/h
759 03-05-2006 06:32:01 8.4 C 7.04 g/m*3 8.4 C 0 km/h
760 03-05-2006 06:42:01 8.5 C 7.09 g/m*3 8.5 C 0 km/h
761 03-05-2006 06:52:02 8.5 C 7.09 g/m*3 8.5 C 0 km/h
762 03-05-2006 07:02:03 8.6 C 7.13 g/m*3 8.6 C 0 km/h
763 03-05-2006 07:12:03 8.7 C 7.18 g/m*3 8.7 C 0 km/h
764 03-05-2006 07:22:02 8.8 C 7.22 g/m*3 8.8 C 0 km/h
765 03-05-2006 07:32:02 8.9 C 7.27 g/m*3 8.9 C 0 km/h
766 03-05-2006 07:42:02 9 C 7.23 g/m*3 9 C 0 km/h
767 03-05-2006 07:52:02 9.2 C 7.32 g/m*3 9.2 C 0 km/h
768 03-05-2006 08:02:02 9.3 C 7.37 g/m*3 9.3 C 0 km/h
769 03-05-2006 08:12:02 9.6 C 7.51 g/m*3 9.6 C 0 km/h
770 03-05-2006 08:22:02 9.8 C 7.42 g/m*3 9.8 C 0 km/h
771 03-05-2006 08:32:01 9.9 C 7.47 g/m*3 9.9 C 0 km/h
772 03-05-2006 08:42:01 10.3 C 7.47 g/m*3 10.3 C 0 km/h
773 03-05-2006 08:52:02 10.7 C 7.46 g/m*3 10.7 C 0 km/h
774 03-05-2006 09:02:02 11.1 C 7.55 g/m*3 11.1 C 0 km/h
775 03-05-2006 09:12:02 11.9 C 7.52 g/m*3 11.9 C 0 km/h
Sensor: Nr:Datum:Temp:Abs-Feuchte:Windchill:Wind:
Aussen-T/F 776 03-05-2006 09:22:01 12.4 C 7.43 g/m*3 12.4 C 0 km/h
777 03-05-2006 09:32:02 13 C 7.48 g/m*3 13 C 0 km/h
778 03-05-2006 09:42:02 13.9 C 7.55 g/m*3 13.9 C 0 km/h
779 03-05-2006 09:52:02 14.2 C 7.69 g/m*3 14.2 C 0 km/h
780 03-05-2006 10:02:02 14.8 C 8.11 g/m*3 14.8 C 0 km/h
781 03-05-2006 10:12:02 15.8 C 7.94 g/m*3 15.8 C 0 km/h
782 03-05-2006 10:22:01 16.8 C 7.86 g/m*3 16.8 C 0 km/h
783 03-05-2006 10:32:02 17 C 7.38 g/m*3 17 C 0 km/h
784 03-05-2006 10:42:02 17.7 C 7.85 g/m*3 17.7 C 0 km/h
785 03-05-2006 10:52:02 18.7 C 7.68 g/m*3 18.7 C 0 km/h
786 03-05-2006 11:02:01 19.1 C 7.21 g/m*3 19.1 C 0 km/h
787 03-05-2006 11:12:01 19.4 C 7.51 g/m*3 19.4 C 0 km/h
788 03-05-2006 11:22:01 20.3 C 7.21 g/m*3 20.3 C 0 km/h
789 03-05-2006 11:32:02 20.4 C 7.25 g/m*3 20.4 C 0 km/h
790 03-05-2006 11:42:02 21.2 C 7.41 g/m*3 21.2 C 0 km/h
791 03-05-2006 11:52:02 21.8 C 7.67 g/m*3 21.8 C 0 km/h
792 03-05-2006 12:02:02 22.4 C 7.35 g/m*3 22.4 C 0 km/h
793 03-05-2006 12:12:02 22.8 C 7.32 g/m*3 22.8 C 0 km/h
794 03-05-2006 12:22:01 23.3 C 7.32 g/m*3 23.3 C 0 km/h
795 03-05-2006 12:32:01 23.5 C 7.4 g/m*3 23.5 C 0 km/h
796 03-05-2006 12:42:01 23.5 C 6.77 g/m*3 23.5 C 0 km/h
797 03-05-2006 12:52:02 24.2 C 6.6 g/m*3 24.2 C 0 km/h
798 03-05-2006 13:02:01 25.2 C 6.52 g/m*3 25.2 C 0 km/h
799 03-05-2006 13:12:01 25.5 C 6.39 g/m*3 25.5 C 0 km/h
800 03-05-2006 13:22:01 25.6 C 6.19 g/m*3 25.6 C 0 km/h
Sensor: Nr:Datum:Temp:Abs-Feuchte:Windchill:Wind:
Aussen-T/F 801 03-05-2006 13:32:02 26.1 C 6.37 g/m*3 26.1 C 0 km/h
802 03-05-2006 13:42:02 26.4 C 6.47 g/m*3 26.4 C 0 km/h
803 03-05-2006 13:52:02 26.4 C 6.22 g/m*3 26.4 C 0 km/h
804 03-05-2006 14:02:02 26.6 C 6.8 g/m*3 26.6 C 0 km/h
805 03-05-2006 14:12:02 27.4 C 6.58 g/m*3 27.4 C 0 km/h
806 03-05-2006 14:22:02 28.3 C 6.91 g/m*3 28.3 C 0 km/h
807 03-05-2006 14:32:03 28.6 C 6.46 g/m*3 28.6 C 0 km/h
808 03-05-2006 14:42:03 28.7 C 6.5 g/m*3 28.7 C 0 km/h
809 03-05-2006 14:52:02 28.8 C 6.82 g/m*3 28.8 C 0 km/h
810 03-05-2006 15:02:02 28.9 C 7.14 g/m*3 28.9 C 0 km/h
811 03-05-2006 15:12:02 29.3 C 6.42 g/m*3 29.3 C 0 km/h
812 03-05-2006 15:22:02 29.7 C 6.56 g/m*3 29.7 C 0 km/h
813 03-05-2006 15:32:02 29.7 C 7.16 g/m*3 29.7 C 0 km/h
814 03-05-2006 15:42:02 29.8 C 7.2 g/m*3 29.8 C 0 km/h
815 03-05-2006 15:52:02 29.5 C 7.08 g/m*3 29.5 C 0 km/h
816 03-05-2006 16:02:02 28.8 C 7.1 g/m*3 28.8 C 0 km/h
817 03-05-2006 16:12:02 28.9 C 7.14 g/m*3 28.9 C 0 km/h
818 03-05-2006 16:22:02 29 C 6.89 g/m*3 29 C 0 km/h
819 03-05-2006 16:32:01 28.9 C 7.14 g/m*3 28.9 C 0 km/h
820 03-05-2006 16:42:01 28.6 C 7.03 g/m*3 28.6 C 0 km/h
821 03-05-2006 16:52:02 29 C 6.89 g/m*3 29 C 0 km/h
822 03-05-2006 17:02:02 29.3 C 6.72 g/m*3 29.3 C 0 km/h
823 03-05-2006 17:12:02 29.1 C 6.64 g/m*3 29.1 C 0 km/h
824 03-05-2006 17:22:01 29.2 C 6.68 g/m*3 29.2 C 0 km/h
825 03-05-2006 17:32:02 29.2 C 6.1 g/m*3 29.2 C 0 km/h
Sensor: Nr:Datum:Temp:Abs-Feuchte:Windchill:Wind:
Aussen-T/F 826 03-05-2006 17:42:02 29.2 C 6.39 g/m*3 29.2 C 0 km/h
827 03-05-2006 17:52:02 29.1 C 6.93 g/m*3 29.1 C 0 km/h
828 03-05-2006 18:02:03 28.8 C 7.1 g/m*3 28.8 C 0 km/h
829 03-05-2006 18:12:03 28.8 C 7.1 g/m*3 28.8 C 0 km/h
830 03-05-2006 18:22:03 28.2 C 7.15 g/m*3 28.2 C 0 km/h
831 03-05-2006 18:32:02 28.1 C 7.38 g/m*3 28.1 C 0 km/h
832 03-05-2006 18:42:02 27.4 C 7.1 g/m*3 27.4 C 0 km/h
833 03-05-2006 18:52:02 27.2 C 7.81 g/m*3 27.2 C 0 km/h
834 03-05-2006 19:02:02 26.6 C 7.8 g/m*3 26.6 C 0 km/h
835 03-05-2006 19:12:02 26.5 C 8.76 g/m*3 26.5 C 0 km/h
836 03-05-2006 19:22:01 25.9 C 8.96 g/m*3 25.9 C 0 km/h
837 03-05-2006 19:32:02 25 C 8.98 g/m*3 25 C 0 km/h
838 03-05-2006 19:42:02 24.6 C 9 g/m*3 24.6 C 0 km/h
839 03-05-2006 19:52:02 24 C 9.14 g/m*3 24 C 0 km/h
840 03-05-2006 20:02:01 23.6 C 9.15 g/m*3 23.6 C 0 km/h
841 03-05-2006 20:12:01 23.1 C 9.1 g/m*3 23.1 C 0 km/h
842 03-05-2006 20:22:01 22.7 C 8.89 g/m*3 22.7 C 0 km/h
843 03-05-2006 20:32:02 22.3 C 8.69 g/m*3 22.3 C 0 km/h
844 03-05-2006 20:42:02 21.7 C 8.58 g/m*3 21.7 C 0 km/h
845 03-05-2006 20:52:02 21.4 C 8.62 g/m*3 21.4 C 0 km/h
846 03-05-2006 21:02:01 21 C 8.43 g/m*3 21 C 0 km/h
847 03-05-2006 21:12:01 20.6 C 8.59 g/m*3 20.6 C 0 km/h
848 03-05-2006 21:22:01 20.3 C 8.79 g/m*3 20.3 C 0 km/h
849 03-05-2006 21:32:01 20.2 C 8.74 g/m*3 20.2 C 0 km/h
850 03-05-2006 21:42:01 19.8 C 8.88 g/m*3 19.8 C 0 km/h
Sensor: Nr:Datum:Temp:Abs-Feuchte:Windchill:Wind:
Aussen-T/F 851 03-05-2006 21:52:02 19.6 C 8.78 g/m*3 19.6 C 0 km/h
852 03-05-2006 22:02:01 19.3 C 8.79 g/m*3 19.3 C 0 km/h
853 03-05-2006 22:12:01 19.1 C 8.69 g/m*3 19.1 C 0 km/h
854 03-05-2006 22:22:01 19 C 8.64 g/m*3 19 C 0 km/h
855 03-05-2006 22:32:02 18.7 C 8.65 g/m*3 18.7 C 0 km/h
856 03-05-2006 22:42:02 18.5 C 8.7 g/m*3 18.5 C 0 km/h
857 03-05-2006 22:52:02 18.3 C 8.6 g/m*3 18.3 C 0 km/h
858 03-05-2006 23:02:01 18.2 C 8.7 g/m*3 18.2 C 0 km/h
859 03-05-2006 23:12:01 17.9 C 8.86 g/m*3 17.9 C 0 km/h
860 03-05-2006 23:22:01 17.7 C 8.75 g/m*3 17.7 C 0 km/h
861 03-05-2006 23:32:02 17.4 C 8.74 g/m*3 17.4 C 0 km/h
862 03-05-2006 23:42:02 17.2 C 8.79 g/m*3 17.2 C 0 km/h
863 03-05-2006 23:52:02 17 C 8.83 g/m*3 17 C 0 km/h
864 04-05-2006 00:02:02 16.7 C 8.95 g/m*3 16.7 C 0 km/h
865 04-05-2006 00:12:03 16.5 C 8.99 g/m*3 16.5 C 0 km/h
866 04-05-2006 00:22:02 16.3 C 9.02 g/m*3 16.3 C 0 km/h
867 04-05-2006 00:32:02 16.2 C 9.1 g/m*3 16.2 C 0 km/h
868 04-05-2006 00:42:03 16 C 8.99 g/m*3 16 C 0 km/h
869 04-05-2006 00:52:03 15.8 C 9.02 g/m*3 15.8 C 0 km/h
870 04-05-2006 01:02:03 15.7 C 8.96 g/m*3 15.7 C 0 km/h
871 04-05-2006 01:12:03 15.7 C 9.1 g/m*3 15.7 C 0 km/h
872 04-05-2006 01:22:03 15.5 C 8.99 g/m*3 15.5 C 0 km/h
873 04-05-2006 01:32:03 15.2 C 8.96 g/m*3 15.2 C 0 km/h
874 04-05-2006 01:42:03 15.1 C 9.03 g/m*3 15.1 C 0 km/h
875 04-05-2006 01:52:03 14.9 C 9.05 g/m*3 14.9 C 0 km/h
Sensor: Nr:Datum:Temp:Abs-Feuchte:Windchill:Wind:
Aussen-T/F 876 04-05-2006 02:02:02 14.8 C 8.99 g/m*3 14.8 C 0 km/h
877 04-05-2006 02:12:02 14.7 C 9.07 g/m*3 14.7 C 0 km/h
878 04-05-2006 02:22:03 14.6 C 9.01 g/m*3 14.6 C 0 km/h
879 04-05-2006 02:32:02 14.4 C 9.02 g/m*3 14.4 C 0 km/h
880 04-05-2006 02:42:02 14.1 C 8.86 g/m*3 14.1 C 0 km/h
881 04-05-2006 02:53:04 14.1 C 8.86 g/m*3 14.1 C 0 km/h
882 04-05-2006 03:03:04 14 C 8.81 g/m*3 14 C 0 km/h
883 04-05-2006 03:13:03 13.7 C 8.76 g/m*3 13.7 C 0 km/h
884 04-05-2006 03:23:03 13.5 C 8.77 g/m*3 13.5 C 0 km/h
885 04-05-2006 03:33:02 13.4 C 8.72 g/m*3 13.4 C 0 km/h
886 04-05-2006 03:43:03 13.3 C 8.78 g/m*3 13.3 C 0 km/h
887 04-05-2006 03:53:03 13.1 C 8.67 g/m*3 13.1 C 0 km/h
888 04-05-2006 04:03:02 13 C 8.62 g/m*3 13 C 0 km/h
889 04-05-2006 04:13:02 13 C 8.62 g/m*3 13 C 0 km/h
890 04-05-2006 04:23:03 12.8 C 8.62 g/m*3 12.8 C 0 km/h
891 04-05-2006 04:33:03 12.6 C 8.52 g/m*3 12.6 C 0 km/h
892 04-05-2006 04:43:03 12.5 C 8.58 g/m*3 12.5 C 0 km/h
893 04-05-2006 04:53:02 12.4 C 8.52 g/m*3 12.4 C 0 km/h
894 04-05-2006 05:03:02 12.3 C 8.58 g/m*3 12.3 C 0 km/h
895 04-05-2006 05:13:02 12.1 C 8.58 g/m*3 12.1 C 0 km/h
896 04-05-2006 05:23:02 12 C 8.63 g/m*3 12 C 0 km/h
897 04-05-2006 05:33:02 11.7 C 8.47 g/m*3 11.7 C 0 km/h
898 04-05-2006 05:43:02 11.6 C 8.42 g/m*3 11.6 C 0 km/h
899 04-05-2006 05:53:02 11.5 C 8.47 g/m*3 11.5 C 0 km/h
900 04-05-2006 06:03:02 11.4 C 8.52 g/m*3 11.4 C 0 km/h
Sensor: Nr:Datum:Temp:Abs-Feuchte:Windchill:Wind:
Aussen-T/F 901 04-05-2006 06:13:02 11.3 C 8.47 g/m*3 11.3 C 0 km/h
902 04-05-2006 06:23:01 11.3 C 8.47 g/m*3 11.3 C 0 km/h
903 04-05-2006 06:33:02 11.4 C 8.52 g/m*3 11.4 C 0 km/h
904 04-05-2006 06:43:02 11.3 C 8.47 g/m*3 11.3 C 0 km/h
905 04-05-2006 06:53:02 11.4 C 8.52 g/m*3 11.4 C 0 km/h
906 04-05-2006 07:03:02 11.4 C 8.62 g/m*3 11.4 C 0 km/h
907 04-05-2006 07:13:02 11.5 C 8.68 g/m*3 11.5 C 0 km/h
908 04-05-2006 07:23:01 11.7 C 8.79 g/m*3 11.7 C 0 km/h
909 04-05-2006 07:33:01 12 C 8.85 g/m*3 12 C 0 km/h
910 04-05-2006 07:43:01 12.3 C 8.9 g/m*3 12.3 C 0 km/h
911 04-05-2006 07:53:02 12.5 C 8.91 g/m*3 12.5 C 0 km/h
912 04-05-2006 08:03:01 12.7 C 8.91 g/m*3 12.7 C 0 km/h
913 04-05-2006 08:13:01 12.9 C 9.02 g/m*3 12.9 C 0 km/h
914 04-05-2006 08:23:01 13 C 8.85 g/m*3 13 C 0 km/h
915 04-05-2006 08:33:02 13.2 C 8.84 g/m*3 13.2 C 0 km/h
916 04-05-2006 08:43:02 13.5 C 8.89 g/m*3 13.5 C 0 km/h
917 04-05-2006 08:53:02 13.9 C 9.23 g/m*3 13.9 C 0 km/h
918 04-05-2006 09:03:01 14.5 C 9.33 g/m*3 14.5 C 0 km/h
919 04-05-2006 09:13:01 15 C 9.36 g/m*3 15 C 0 km/h
920 04-05-2006 09:23:01 15.5 C 9.52 g/m*3 15.5 C 0 km/h
921 04-05-2006 09:33:02 16.3 C 9.43 g/m*3 16.3 C 0 km/h
922 04-05-2006 09:43:02 17.1 C 8.88 g/m*3 17.1 C 0 km/h
923 04-05-2006 09:53:02 17.8 C 8.8 g/m*3 17.8 C 0 km/h
924 04-05-2006 10:03:02 18.3 C 7.97 g/m*3 18.3 C 0 km/h
925 04-05-2006 10:13:02 18.9 C 7.29 g/m*3 18.9 C 0 km/h
Sensor: Nr:Datum:Temp:Abs-Feuchte:Windchill:Wind:
Aussen-T/F 926 04-05-2006 10:23:02 19.5 C 7.05 g/m*3 19.5 C 0 km/h
927 04-05-2006 10:33:03 19.8 C 7.17 g/m*3 19.8 C 0 km/h
928 04-05-2006 10:43:03 20.5 C 7.3 g/m*3 20.5 C 0 km/h
929 04-05-2006 10:53:02 20.7 C 7.38 g/m*3 20.7 C 0 km/h
930 04-05-2006 11:03:02 21.1 C 7.19 g/m*3 21.1 C 0 km/h
931 04-05-2006 11:13:02 21.5 C 6.79 g/m*3 21.5 C 0 km/h
932 04-05-2006 11:23:02 22 C 6.99 g/m*3 22 C 0 km/h
933 04-05-2006 11:33:02 22.5 C 6.99 g/m*3 22.5 C 0 km/h
934 04-05-2006 11:43:02 22.5 C 6.59 g/m*3 22.5 C 0 km/h
935 04-05-2006 11:53:02 22.5 C 6.59 g/m*3 22.5 C 0 km/h
936 04-05-2006 12:03:02 23 C 6.37 g/m*3 23 C 0 km/h
937 04-05-2006 12:13:02 23.4 C 6.31 g/m*3 23.4 C 0 km/h
938 04-05-2006 12:23:01 23.3 C 6.27 g/m*3 23.3 C 0 km/h
939 04-05-2006 12:33:02 23.9 C 6.27 g/m*3 23.9 C 0 km/h
940 04-05-2006 12:43:02 24.3 C 6.2 g/m*3 24.3 C 0 km/h
941 04-05-2006 12:53:02 24.6 C 6.3 g/m*3 24.6 C 0 km/h
942 04-05-2006 13:03:01 25.1 C 6.25 g/m*3 25.1 C 0 km/h
943 04-05-2006 13:13:01 25.4 C 5.89 g/m*3 25.4 C 0 km/h
944 04-05-2006 13:23:01 25.7 C 5.99 g/m*3 25.7 C 0 km/h
945 04-05-2006 13:33:02 26 C 5.6 g/m*3 26 C 0 km/h
946 04-05-2006 13:43:02 26 C 5.36 g/m*3 26 C 0 km/h
947 04-05-2006 13:53:02 26.2 C 5.17 g/m*3 26.2 C 0 km/h
948 04-05-2006 14:03:01 26.2 C 5.17 g/m*3 26.2 C 0 km/h
949 04-05-2006 14:13:01 26.6 C 5.29 g/m*3 26.6 C 0 km/h
950 04-05-2006 14:23:01 26.5 C 5.01 g/m*3 26.5 C 0 km/h
Sensor: Nr:Datum:Temp:Abs-Feuchte:Windchill:Wind:
Aussen-T/F 951 04-05-2006 14:33:02 27 C 5.15 g/m*3 27 C 0 km/h
952 04-05-2006 14:43:02 27.2 C 5.2 g/m*3 27.2 C 0 km/h
953 04-05-2006 14:53:02 27.4 C 5.26 g/m*3 27.4 C 0 km/h
954 04-05-2006 15:03:02 27.6 C 5.32 g/m*3 27.6 C 0 km/h
955 04-05-2006 15:13:02 27.9 C 5.41 g/m*3 27.9 C 0 km/h
956 04-05-2006 15:23:02 27.9 C 5.41 g/m*3 27.9 C 0 km/h
957 04-05-2006 15:33:03 28.1 C 5.47 g/m*3 28.1 C 0 km/h
958 04-05-2006 15:43:03 28.1 C 5.47 g/m*3 28.1 C 0 km/h
959 04-05-2006 15:53:02 28.2 C 5.5 g/m*3 28.2 C 0 km/h
960 04-05-2006 16:03:02 28.3 C 5.53 g/m*3 28.3 C 0 km/h
961 04-05-2006 16:13:02 28.6 C 5.62 g/m*3 28.6 C 0 km/h
962 04-05-2006 16:23:02 28.4 C 5.56 g/m*3 28.4 C 0 km/h
963 04-05-2006 16:33:02 28.4 C 5.56 g/m*3 28.4 C 0 km/h
964 04-05-2006 16:43:02 28.1 C 5.47 g/m*3 28.1 C 0 km/h
965 04-05-2006 16:53:02 28.1 C 5.47 g/m*3 28.1 C 0 km/h
966 04-05-2006 17:03:02 27.8 C 5.38 g/m*3 27.8 C 0 km/h
967 04-05-2006 17:13:02 27.7 C 5.35 g/m*3 27.7 C 0 km/h
968 04-05-2006 17:23:02 27.7 C 5.35 g/m*3 27.7 C 0 km/h
969 04-05-2006 17:33:02 27.6 C 5.32 g/m*3 27.6 C 0 km/h
970 04-05-2006 17:43:02 27.4 C 5.26 g/m*3 27.4 C 0 km/h
971 04-05-2006 17:53:02 27.2 C 5.2 g/m*3 27.2 C 0 km/h
972 04-05-2006 18:03:02 26.9 C 5.12 g/m*3 26.9 C 0 km/h
973 04-05-2006 18:13:02 27 C 5.15 g/m*3 27 C 0 km/h
974 04-05-2006 18:23:02 26.9 C 5.12 g/m*3 26.9 C 0 km/h
975 04-05-2006 18:33:02 26.9 C 5.12 g/m*3 26.9 C 0 km/h
Sensor: Nr:Datum:Temp:Abs-Feuchte:Windchill:Wind:
Aussen-T/F 976 04-05-2006 18:43:02 26.9 C 6.4 g/m*3 26.9 C 0 km/h
977 04-05-2006 18:53:02 26.5 C 6.51 g/m*3 26.5 C 0 km/h
978 04-05-2006 19:03:01 26.2 C 6.4 g/m*3 26.2 C 0 km/h
979 04-05-2006 19:13:01 25.7 C 6.46 g/m*3 25.7 C 0 km/h
980 04-05-2006 19:23:01 25.1 C 6.25 g/m*3 25.1 C 0 km/h
981 04-05-2006 19:33:02 24.5 C 6.27 g/m*3 24.5 C 0 km/h
982 04-05-2006 19:43:02 23.8 C 6.24 g/m*3 23.8 C 0 km/h
983 04-05-2006 19:53:02 23.3 C 6.27 g/m*3 23.3 C 0 km/h
984 04-05-2006 20:03:01 22.8 C 6.3 g/m*3 22.8 C 0 km/h
985 04-05-2006 20:13:01 22.1 C 6.25 g/m*3 22.1 C 0 km/h
986 04-05-2006 20:23:01 21.8 C 6.33 g/m*3 21.8 C 0 km/h
987 04-05-2006 20:33:02 21.2 C 6.12 g/m*3 21.2 C 0 km/h
988 04-05-2006 20:43:02 20.7 C 6.3 g/m*3 20.7 C 0 km/h
989 04-05-2006 20:53:02 20.3 C 6.16 g/m*3 20.3 C 0 km/h
990 04-05-2006 21:03:02 19.9 C 6.19 g/m*3 19.9 C 0 km/h
991 04-05-2006 21:13:02 19.5 C 6.04 g/m*3 19.5 C 0 km/h
992 04-05-2006 21:23:02 19.3 C 5.97 g/m*3 19.3 C 0 km/h
993 04-05-2006 21:33:03 19.2 C 5.94 g/m*3 19.2 C 0 km/h
994 04-05-2006 21:43:03 19.1 C 5.9 g/m*3 19.1 C 0 km/h
995 04-05-2006 21:53:02 18.7 C 6.24 g/m*3 18.7 C 0 km/h
996 04-05-2006 22:03:02 18.6 C 6.37 g/m*3 18.6 C 0 km/h
997 04-05-2006 22:13:02 18.3 C 6.25 g/m*3 18.3 C 0 km/h
998 04-05-2006 22:23:02 18 C 6.3 g/m*3 18 C 0 km/h
999 04-05-2006 22:33:03 17.8 C 6.37 g/m*3 17.8 C 0 km/h
1000 04-05-2006 22:43:03 17.7 C 6.49 g/m*3 17.7 C 0 km/h
Sensor: Nr:Datum:Temp:Abs-Feuchte:Windchill:Wind:
Aussen-T/F 1001 04-05-2006 22:53:02 17.6 C 6.75 g/m*3 17.6 C 0 km/h
1002 04-05-2006 23:03:02 17.4 C 6.82 g/m*3 17.4 C 0 km/h
1003 04-05-2006 23:13:02 17 C 6.51 g/m*3 17 C 0 km/h
1004 04-05-2006 23:23:02 16.9 C 6.62 g/m*3 16.9 C 0 km/h
1005 04-05-2006 23:33:02 16.7 C 6.54 g/m*3 16.7 C 0 km/h
1006 04-05-2006 23:43:02 16.6 C 6.5 g/m*3 16.6 C 0 km/h
1007 04-05-2006 23:53:02 16.7 C 6.4 g/m*3 16.7 C 0 km/h
1008 05-05-2006 00:03:02 16.7 C 6.25 g/m*3 16.7 C 0 km/h
1009 05-05-2006 00:13:02 16.7 C 6.4 g/m*3 16.7 C 0 km/h
1010 05-05-2006 00:23:03 16.7 C 6.4 g/m*3 16.7 C 0 km/h
1011 05-05-2006 00:33:02 16.7 C 6.25 g/m*3 16.7 C 0 km/h
1012 05-05-2006 00:43:02 16.6 C 6.5 g/m*3 16.6 C 0 km/h
1013 05-05-2006 00:53:02 16.6 C 6.22 g/m*3 16.6 C 0 km/h
1014 05-05-2006 01:03:02 16.6 C 6.22 g/m*3 16.6 C 0 km/h
1015 05-05-2006 01:13:02 16.5 C 6.18 g/m*3 16.5 C 0 km/h
1016 05-05-2006 01:23:02 16.4 C 6.14 g/m*3 16.4 C 0 km/h
1017 05-05-2006 01:33:01 16.4 C 6 g/m*3 16.4 C 0 km/h
1018 05-05-2006 01:43:01 16.4 C 5.86 g/m*3 16.4 C 0 km/h
1019 05-05-2006 01:53:02 16.8 C 6 g/m*3 16.8 C 0 km/h
1020 05-05-2006 02:03:03 16.8 C 6 g/m*3 16.8 C 0 km/h
1021 05-05-2006 02:13:03 16.5 C 5.9 g/m*3 16.5 C 0 km/h
1022 05-05-2006 02:23:02 16.3 C 5.97 g/m*3 16.3 C 0 km/h
1023 05-05-2006 02:33:02 16 C 6.13 g/m*3 16 C 0 km/h
1024 05-05-2006 02:43:02 15.6 C 6.25 g/m*3 15.6 C 0 km/h
1025 05-05-2006 02:54:03 15.5 C 6.21 g/m*3 15.5 C 0 km/h
Sensor: Nr:Datum:Temp:Abs-Feuchte:Windchill:Wind:
Aussen-T/F 1026 05-05-2006 03:04:03 15.5 C 6.21 g/m*3 15.5 C 0 km/h
1027 05-05-2006 03:14:04 15.1 C 6.19 g/m*3 15.1 C 0 km/h
1028 05-05-2006 03:24:04 14.8 C 6.21 g/m*3 14.8 C 0 km/h
1029 05-05-2006 03:34:03 14.7 C 6.3 g/m*3 14.7 C 0 km/h
1030 05-05-2006 03:44:03 14.3 C 6.27 g/m*3 14.3 C 0 km/h
1031 05-05-2006 03:54:03 14.1 C 6.43 g/m*3 14.1 C 0 km/h
1032 05-05-2006 04:04:03 14.1 C 6.43 g/m*3 14.1 C 0 km/h
1033 05-05-2006 04:14:03 13.9 C 6.59 g/m*3 13.9 C 0 km/h
1034 05-05-2006 04:24:02 13.7 C 6.63 g/m*3 13.7 C 0 km/h
1035 05-05-2006 04:34:03 13.5 C 6.67 g/m*3 13.5 C 0 km/h
1036 05-05-2006 04:44:03 13.4 C 6.97 g/m*3 13.4 C 0 km/h
1037 05-05-2006 04:54:02 13.1 C 6.73 g/m*3 13.1 C 0 km/h
1038 05-05-2006 05:04:02 12.8 C 6.83 g/m*3 12.8 C 0 km/h
1039 05-05-2006 05:14:02 12.6 C 6.86 g/m*3 12.6 C 0 km/h
1040 05-05-2006 05:24:02 12.4 C 7.1 g/m*3 12.4 C 0 km/h
1041 05-05-2006 05:34:02 12.2 C 7.01 g/m*3 12.2 C 0 km/h
1042 05-05-2006 05:44:02 12.1 C 7.08 g/m*3 12.1 C 0 km/h
1043 05-05-2006 05:54:02 12 C 7.14 g/m*3 12 C 0 km/h
1044 05-05-2006 06:04:02 11.8 C 7.37 g/m*3 11.8 C 0 km/h
1045 05-05-2006 06:14:02 11.7 C 7.22 g/m*3 11.7 C 0 km/h
1046 05-05-2006 06:24:02 11.6 C 7.38 g/m*3 11.6 C 0 km/h
1047 05-05-2006 06:34:03 11.5 C 7.44 g/m*3 11.5 C 0 km/h
1048 05-05-2006 06:44:03 11.6 C 7.48 g/m*3 11.6 C 0 km/h
1049 05-05-2006 06:54:03 11.8 C 7.58 g/m*3 11.8 C 0 km/h
1050 05-05-2006 07:04:02 11.9 C 7.52 g/m*3 11.9 C 0 km/h
Sensor: Nr:Datum:Temp:Abs-Feuchte:Windchill:Wind:
Aussen-T/F 1051 05-05-2006 07:14:02 12.3 C 7.6 g/m*3 12.3 C 0 km/h
1052 05-05-2006 07:24:02 12.6 C 7.63 g/m*3 12.6 C 0 km/h
1053 05-05-2006 07:34:02 13.2 C 7.69 g/m*3 13.2 C 0 km/h
1054 05-05-2006 07:44:02 13.5 C 7.72 g/m*3 13.5 C 0 km/h
1055 05-05-2006 07:54:02 13.7 C 7.58 g/m*3 13.7 C 0 km/h
1056 05-05-2006 08:04:01 14.2 C 7.45 g/m*3 14.2 C 0 km/h
1057 05-05-2006 08:14:01 14.5 C 7.46 g/m*3 14.5 C 0 km/h
1058 05-05-2006 08:24:01 14.7 C 7.3 g/m*3 14.7 C 0 km/h
1059 05-05-2006 08:34:02 14.9 C 7.26 g/m*3 14.9 C 0 km/h
1060 05-05-2006 08:44:02 15.2 C 7.4 g/m*3 15.2 C 0 km/h
1061 05-05-2006 08:54:01 15.9 C 7.45 g/m*3 15.9 C 0 km/h
1062 05-05-2006 09:04:01 16.3 C 6.8 g/m*3 16.3 C 0 km/h
1063 05-05-2006 09:14:01 16.7 C 6.68 g/m*3 16.7 C 0 km/h
1064 05-05-2006 09:24:01 17 C 6.66 g/m*3 17 C 0 km/h
1065 05-05-2006 09:34:02 17.2 C 6.59 g/m*3 17.2 C 0 km/h
1066 05-05-2006 09:44:02 17.7 C 6.94 g/m*3 17.7 C 0 km/h
1067 05-05-2006 09:54:02 17.8 C 6.83 g/m*3 17.8 C 0 km/h
1068 05-05-2006 10:04:02 17.9 C 6.87 g/m*3 17.9 C 0 km/h
1069 05-05-2006 10:14:02 18.1 C 6.95 g/m*3 18.1 C 0 km/h
1070 05-05-2006 10:24:02 18.5 C 6.8 g/m*3 18.5 C 0 km/h
1071 05-05-2006 10:34:03 18.9 C 6.97 g/m*3 18.9 C 0 km/h
1072 05-05-2006 10:44:03 19.2 C 7.09 g/m*3 19.2 C 0 km/h
1073 05-05-2006 10:54:02 19.5 C 6.88 g/m*3 19.5 C 0 km/h
1074 05-05-2006 11:04:02 19.9 C 7.04 g/m*3 19.9 C 0 km/h
1075 05-05-2006 11:14:02 20.1 C 6.78 g/m*3 20.1 C 0 km/h
Sensor: Nr:Datum:Temp:Abs-Feuchte:Windchill:Wind:
Aussen-T/F 1076 05-05-2006 11:24:02 20.8 C 7.24 g/m*3 20.8 C 0 km/h
1077 05-05-2006 11:34:02 20.9 C 7.1 g/m*3 20.9 C 0 km/h
1078 05-05-2006 11:44:02 21.3 C 6.9 g/m*3 21.3 C 0 km/h
1079 05-05-2006 11:54:02 22 C 7.18 g/m*3 22 C 0 km/h
1080 05-05-2006 12:04:02 22.5 C 6.99 g/m*3 22.5 C 0 km/h
1081 05-05-2006 12:14:02 23.1 C 6.82 g/m*3 23.1 C 0 km/h
1082 05-05-2006 12:24:01 23.3 C 6.9 g/m*3 23.3 C 0 km/h
1083 05-05-2006 12:34:02 23.3 C 6.9 g/m*3 23.3 C 0 km/h
1084 05-05-2006 12:44:02 23.7 C 6.84 g/m*3 23.7 C 0 km/h
1085 05-05-2006 12:54:02 24.1 C 6.56 g/m*3 24.1 C 0 km/h
1086 05-05-2006 13:04:02 24.9 C 6.64 g/m*3 24.9 C 0 km/h
1087 05-05-2006 13:14:02 25 C 5.99 g/m*3 25 C 0 km/h
1088 05-05-2006 13:24:02 25.5 C 6.16 g/m*3 25.5 C 0 km/h
1089 05-05-2006 13:34:02 26.2 C 6.15 g/m*3 26.2 C 0 km/h
1090 05-05-2006 13:44:02 26.2 C 5.91 g/m*3 26.2 C 0 km/h
1091 05-05-2006 13:54:02 26.9 C 6.4 g/m*3 26.9 C 0 km/h
1092 05-05-2006 14:04:02 27.1 C 6.47 g/m*3 27.1 C 0 km/h
1093 05-05-2006 14:14:02 27.3 C 6.54 g/m*3 27.3 C 0 km/h
1094 05-05-2006 14:24:02 27.5 C 6.35 g/m*3 27.5 C 0 km/h
1095 05-05-2006 14:34:01 27.8 C 6.19 g/m*3 27.8 C 0 km/h
1096 05-05-2006 14:44:01 28 C 5.71 g/m*3 28 C 0 km/h
1097 05-05-2006 14:54:02 28.1 C 5.74 g/m*3 28.1 C 0 km/h
1098 05-05-2006 15:04:02 28.3 C 6.08 g/m*3 28.3 C 0 km/h
1099 05-05-2006 15:14:02 27.7 C 6.15 g/m*3 27.7 C 0 km/h
1100 05-05-2006 15:24:02 27.9 C 6.22 g/m*3 27.9 C 0 km/h
Sensor: Nr:Datum:Temp:Abs-Feuchte:Windchill:Wind:
Aussen-T/F 1101 05-05-2006 15:34:01 28.2 C 6.05 g/m*3 28.2 C 0 km/h
1102 05-05-2006 15:44:01 28.2 C 5.5 g/m*3 28.2 C 0 km/h
1103 05-05-2006 15:54:02 28.7 C 5.93 g/m*3 28.7 C 0 km/h
1104 05-05-2006 16:04:02 29.7 C 5.97 g/m*3 29.7 C 0 km/h
1105 05-05-2006 16:14:02 30 C 6.06 g/m*3 30 C 0 km/h
1106 05-05-2006 16:24:02 30.1 C 6.1 g/m*3 30.1 C 0 km/h
1107 05-05-2006 16:34:02 30.2 C 6.13 g/m*3 30.2 C 0 km/h
1108 05-05-2006 16:44:02 30.4 C 6.2 g/m*3 30.4 C 0 km/h
1109 05-05-2006 16:54:02 30.5 C 6.23 g/m*3 30.5 C 0 km/h
1110 05-05-2006 17:04:01 30.7 C 6.3 g/m*3 30.7 C 0 km/h
1111 05-05-2006 17:14:01 30.6 C 6.26 g/m*3 30.6 C 0 km/h
1112 05-05-2006 17:24:01 30.7 C 6.3 g/m*3 30.7 C 0 km/h
1113 05-05-2006 17:34:02 30.1 C 6.1 g/m*3 30.1 C 0 km/h
1114 05-05-2006 17:44:02 29.4 C 5.87 g/m*3 29.4 C 0 km/h
1115 05-05-2006 17:54:02 28.3 C 5.53 g/m*3 28.3 C 0 km/h
1116 05-05-2006 18:04:01 28 C 5.44 g/m*3 28 C 0 km/h
1117 05-05-2006 18:14:01 27.6 C 5.32 g/m*3 27.6 C 0 km/h
1118 05-05-2006 18:24:01 28.1 C 5.47 g/m*3 28.1 C 0 km/h
1119 05-05-2006 18:34:02 28.5 C 5.59 g/m*3 28.5 C 0 km/h
1120 05-05-2006 18:44:02 28.4 C 5.56 g/m*3 28.4 C 0 km/h
1121 05-05-2006 18:54:02 28 C 5.44 g/m*3 28 C 0 km/h
1122 05-05-2006 19:04:02 28.2 C 5.5 g/m*3 28.2 C 0 km/h
1123 05-05-2006 19:14:02 28.2 C 5.5 g/m*3 28.2 C 0 km/h
1124 05-05-2006 19:24:02 27.9 C 5.41 g/m*3 27.9 C 0 km/h
1125 05-05-2006 19:34:03 27.4 C 5.26 g/m*3 27.4 C 0 km/h
Sensor: Nr:Datum:Temp:Abs-Feuchte:Windchill:Wind:
Aussen-T/F 1126 05-05-2006 19:44:03 27 C 5.4 g/m*3 27 C 0 km/h
1127 05-05-2006 19:54:02 26.7 C 5.32 g/m*3 26.7 C 0 km/h
1128 05-05-2006 20:04:02 25.8 C 6.02 g/m*3 25.8 C 0 km/h
1129 05-05-2006 20:14:02 24.6 C 5.85 g/m*3 24.6 C 0 km/h
1130 05-05-2006 20:24:02 23.7 C 6.2 g/m*3 23.7 C 0 km/h
1131 05-05-2006 20:34:02 22.9 C 6.34 g/m*3 22.9 C 0 km/h
1132 05-05-2006 20:44:02 22.3 C 6.12 g/m*3 22.3 C 0 km/h
1133 05-05-2006 20:54:02 21.4 C 6.19 g/m*3 21.4 C 0 km/h
1134 05-05-2006 21:04:02 20.9 C 6.37 g/m*3 20.9 C 0 km/h
1135 05-05-2006 21:14:02 20.2 C 6.12 g/m*3 20.2 C 0 km/h
1136 05-05-2006 21:24:02 19.8 C 6.15 g/m*3 19.8 C 0 km/h
1137 05-05-2006 21:34:02 19.3 C 6.14 g/m*3 19.3 C 0 km/h
1138 05-05-2006 21:44:02 19.1 C 6.23 g/m*3 19.1 C 0 km/h
1139 05-05-2006 21:54:02 18.8 C 6.28 g/m*3 18.8 C 0 km/h
1140 05-05-2006 22:04:02 18.5 C 6.33 g/m*3 18.5 C 0 km/h
1141 05-05-2006 22:14:02 18.3 C 6.25 g/m*3 18.3 C 0 km/h
1142 05-05-2006 22:24:02 18 C 6.3 g/m*3 18 C 0 km/h
1143 05-05-2006 22:34:01 17.9 C 6.41 g/m*3 17.9 C 0 km/h
1144 05-05-2006 22:44:01 17.9 C 6.57 g/m*3 17.9 C 0 km/h
1145 05-05-2006 22:54:01 17.9 C 6.72 g/m*3 17.9 C 0 km/h
1146 05-05-2006 23:04:02 17.7 C 6.79 g/m*3 17.7 C 0 km/h
1147 05-05-2006 23:14:02 17.5 C 6.71 g/m*3 17.5 C 0 km/h
1148 05-05-2006 23:24:02 17.1 C 6.84 g/m*3 17.1 C 0 km/h
1149 05-05-2006 23:34:02 17 C 6.8 g/m*3 17 C 0 km/h
1150 05-05-2006 23:44:02 16.9 C 6.9 g/m*3 16.9 C 0 km/h
Sensor: Nr:Datum:Temp:Abs-Feuchte:Windchill:Wind:
Aussen-T/F 1151 05-05-2006 23:54:02 16.6 C 6.92 g/m*3 16.6 C 0 km/h
1152 06-05-2006 00:04:02 16.2 C 6.9 g/m*3 16.2 C 0 km/h
1153 06-05-2006 00:14:02 15.6 C 7.05 g/m*3 15.6 C 0 km/h
1154 06-05-2006 00:24:03 15.6 C 7.05 g/m*3 15.6 C 0 km/h
1155 06-05-2006 00:34:03 15.4 C 6.83 g/m*3 15.4 C 0 km/h
1156 06-05-2006 00:44:03 15.4 C 6.96 g/m*3 15.4 C 0 km/h
1157 06-05-2006 00:54:02 15.1 C 7.1 g/m*3 15.1 C 0 km/h
1158 06-05-2006 01:04:01 14.9 C 7.01 g/m*3 14.9 C 0 km/h
1159 06-05-2006 01:14:01 14.7 C 7.05 g/m*3 14.7 C 0 km/h
1160 06-05-2006 01:24:02 14.7 C 7.18 g/m*3 14.7 C 0 km/h
1161 06-05-2006 01:34:02 14.2 C 7.08 g/m*3 14.2 C 0 km/h
1162 06-05-2006 01:44:02 14.2 C 7.08 g/m*3 14.2 C 0 km/h
1163 06-05-2006 01:54:03 14 C 7 g/m*3 14 C 0 km/h
1164 06-05-2006 02:04:03 13.8 C 7.15 g/m*3 13.8 C 0 km/h
1165 06-05-2006 02:14:03 13.8 C 7.15 g/m*3 13.8 C 0 km/h
1166 06-05-2006 02:24:03 13.5 C 7.02 g/m*3 13.5 C 0 km/h
1167 06-05-2006 02:34:03 13.4 C 7.09 g/m*3 13.4 C 0 km/h
1168 06-05-2006 02:44:03 13.2 C 7.12 g/m*3 13.2 C 0 km/h
1169 06-05-2006 02:55:03 12.9 C 7.1 g/m*3 12.9 C 0 km/h
1170 06-05-2006 03:05:03 12.8 C 7.17 g/m*3 12.8 C 0 km/h
1171 06-05-2006 03:15:03 12.7 C 7.12 g/m*3 12.7 C 0 km/h
1172 06-05-2006 03:25:03 12.4 C 6.99 g/m*3 12.4 C 0 km/h
1173 06-05-2006 03:35:02 12.2 C 7.12 g/m*3 12.2 C 0 km/h
1174 06-05-2006 03:45:02 12 C 7.03 g/m*3 12 C 0 km/h
1175 06-05-2006 03:55:02 11.9 C 7.2 g/m*3 11.9 C 0 km/h
Sensor: Nr:Datum:Temp:Abs-Feuchte:Windchill:Wind:
Aussen-T/F 1176 06-05-2006 04:05:02 11.8 C 7.26 g/m*3 11.8 C 0 km/h
1177 06-05-2006 04:15:03 11.6 C 7.28 g/m*3 11.6 C 0 km/h
1178 06-05-2006 04:25:03 11.4 C 7.19 g/m*3 11.4 C 0 km/h
1179 06-05-2006 04:35:02 11.3 C 7.24 g/m*3 11.3 C 0 km/h
1180 06-05-2006 04:45:02 11.2 C 7.3 g/m*3 11.2 C 0 km/h
1181 06-05-2006 04:55:02 11.1 C 7.25 g/m*3 11.1 C 0 km/h
1182 06-05-2006 05:05:02 11 C 7.21 g/m*3 11 C 0 km/h
1183 06-05-2006 05:15:02 10.7 C 7.27 g/m*3 10.7 C 0 km/h
1184 06-05-2006 05:25:02 10.7 C 7.37 g/m*3 10.7 C 0 km/h
1185 06-05-2006 05:35:02 10.6 C 7.32 g/m*3 10.6 C 0 km/h
1186 06-05-2006 05:45:03 10.4 C 7.23 g/m*3 10.4 C 0 km/h
1187 06-05-2006 05:55:03 10.3 C 7.28 g/m*3 10.3 C 0 km/h
1188 06-05-2006 06:05:03 10.2 C 7.23 g/m*3 10.2 C 0 km/h
1189 06-05-2006 06:15:02 10.1 C 7.19 g/m*3 10.1 C 0 km/h
1190 06-05-2006 06:25:02 10.1 C 7.19 g/m*3 10.1 C 0 km/h
1191 06-05-2006 06:35:02 10.1 C 7.28 g/m*3 10.1 C 0 km/h
1192 06-05-2006 06:45:02 10.2 C 7.33 g/m*3 10.2 C 0 km/h
1193 06-05-2006 06:55:03 10.3 C 7.37 g/m*3 10.3 C 0 km/h
1194 06-05-2006 07:05:01 10.5 C 7.57 g/m*3 10.5 C 0 km/h
1195 06-05-2006 07:15:01 10.7 C 7.56 g/m*3 10.7 C 0 km/h
1196 06-05-2006 07:25:01 11.3 C 7.75 g/m*3 11.3 C 0 km/h
1197 06-05-2006 07:35:02 11.5 C 7.64 g/m*3 11.5 C 0 km/h
1198 06-05-2006 07:45:02 11.8 C 7.79 g/m*3 11.8 C 0 km/h
1199 06-05-2006 07:55:02 12.3 C 7.82 g/m*3 12.3 C 0 km/h
1200 06-05-2006 08:05:02 12.7 C 7.68 g/m*3 12.7 C 0 km/h
Sensor: Nr:Datum:Temp:Abs-Feuchte:Windchill:Wind:
Aussen-T/F 1201 06-05-2006 08:15:02 13.2 C 7.46 g/m*3 13.2 C 0 km/h
1202 06-05-2006 08:25:02 13.6 C 7.3 g/m*3 13.6 C 0 km/h
1203 06-05-2006 08:35:03 13.8 C 7.03 g/m*3 13.8 C 0 km/h
1204 06-05-2006 08:45:02 14.1 C 6.92 g/m*3 14.1 C 0 km/h
1205 06-05-2006 08:55:02 14.2 C 6.72 g/m*3 14.2 C 0 km/h
1206 06-05-2006 09:05:02 15.4 C 6.57 g/m*3 15.4 C 0 km/h
1207 06-05-2006 09:15:02 15.9 C 6.23 g/m*3 15.9 C 0 km/h
1208 06-05-2006 09:25:02 16.5 C 5.76 g/m*3 16.5 C 0 km/h
1209 06-05-2006 09:35:02 16.9 C 5.75 g/m*3 16.9 C 0 km/h
1210 06-05-2006 09:45:02 17.2 C 5.71 g/m*3 17.2 C 0 km/h
1211 06-05-2006 09:55:02 17.8 C 5.77 g/m*3 17.8 C 0 km/h
1212 06-05-2006 10:05:03 18.1 C 5.56 g/m*3 18.1 C 0 km/h
1213 06-05-2006 10:15:02 18.5 C 5.54 g/m*3 18.5 C 0 km/h
1214 06-05-2006 10:25:02 18.8 C 5.64 g/m*3 18.8 C 0 km/h
1215 06-05-2006 10:35:02 19.1 C 5.57 g/m*3 19.1 C 0 km/h
1216 06-05-2006 10:45:02 19.5 C 5.71 g/m*3 19.5 C 0 km/h
1217 06-05-2006 10:55:02 19.9 C 5.67 g/m*3 19.9 C 0 km/h
1218 06-05-2006 11:05:02 20.3 C 5.63 g/m*3 20.3 C 0 km/h
1219 06-05-2006 11:15:01 20.8 C 5.43 g/m*3 20.8 C 0 km/h
1220 06-05-2006 11:25:01 21.2 C 5.56 g/m*3 21.2 C 0 km/h
1221 06-05-2006 11:35:01 21.6 C 5.31 g/m*3 21.6 C 0 km/h
1222 06-05-2006 11:45:02 22 C 4.46 g/m*3 22 C 0 km/h
1223 06-05-2006 11:55:02 22.2 C 3.93 g/m*3 22.2 C 0 km/h
1224 06-05-2006 12:05:01 22.7 C 4.04 g/m*3 22.7 C 0 km/h
1225 06-05-2006 12:15:01 23.3 C 4.18 g/m*3 23.3 C 0 km/h
Sensor: Nr:Datum:Temp:Abs-Feuchte:Windchill:Wind:
Aussen-T/F 1226 06-05-2006 12:25:01 23.2 C 4.16 g/m*3 23.2 C 0 km/h
1227 06-05-2006 12:35:02 23.9 C 4.33 g/m*3 23.9 C 0 km/h
1228 06-05-2006 12:45:02 23.6 C 4.25 g/m*3 23.6 C 0 km/h
1229 06-05-2006 12:55:02 24.4 C 4.45 g/m*3 24.4 C 0 km/h
1230 06-05-2006 13:05:03 25 C 4.6 g/m*3 25 C 0 km/h
1231 06-05-2006 13:15:02 25.3 C 4.68 g/m*3 25.3 C 0 km/h
1232 06-05-2006 13:25:02 25.5 C 4.73 g/m*3 25.5 C 0 km/h
1233 06-05-2006 13:35:02 25.5 C 4.73 g/m*3 25.5 C 0 km/h
1234 06-05-2006 13:45:02 25.3 C 4.68 g/m*3 25.3 C 0 km/h
1235 06-05-2006 13:55:02 25.5 C 4.73 g/m*3 25.5 C 0 km/h
1236 06-05-2006 14:05:03 25.2 C 4.66 g/m*3 25.2 C 0 km/h
1237 06-05-2006 14:15:02 25.9 C 4.84 g/m*3 25.9 C 0 km/h
1238 06-05-2006 14:25:02 26.3 C 4.95 g/m*3 26.3 C 0 km/h
1239 06-05-2006 14:35:01 26.6 C 5.03 g/m*3 26.6 C 0 km/h
1240 06-05-2006 14:45:03 26.4 C 4.98 g/m*3 26.4 C 0 km/h
1241 06-05-2006 14:55:03 27 C 5.15 g/m*3 27 C 0 km/h
1242 06-05-2006 15:05:02 27.4 C 5.26 g/m*3 27.4 C 0 km/h
1243 06-05-2006 15:15:03 27.1 C 5.18 g/m*3 27.1 C 0 km/h
1244 06-05-2006 15:25:03 26.8 C 5.09 g/m*3 26.8 C 0 km/h
1245 06-05-2006 15:35:02 26.9 C 5.12 g/m*3 26.9 C 0 km/h
1246 06-05-2006 15:45:02 27.1 C 5.18 g/m*3 27.1 C 0 km/h
1247 06-05-2006 15:55:02 27.7 C 5.35 g/m*3 27.7 C 0 km/h
1248 06-05-2006 16:05:02 28.2 C 5.5 g/m*3 28.2 C 0 km/h
1249 06-05-2006 16:15:02 28.6 C 5.62 g/m*3 28.6 C 0 km/h
1250 06-05-2006 16:25:02 28.9 C 5.71 g/m*3 28.9 C 0 km/h
Sensor: Nr:Datum:Temp:Abs-Feuchte:Windchill:Wind:
Aussen-T/F 1251 06-05-2006 16:35:03 28.9 C 5.71 g/m*3 28.9 C 0 km/h
1252 06-05-2006 16:45:02 28.9 C 5.71 g/m*3 28.9 C 0 km/h
1253 06-05-2006 16:55:03 28.7 C 5.65 g/m*3 28.7 C 0 km/h
1254 06-05-2006 17:05:02 28.6 C 5.62 g/m*3 28.6 C 0 km/h
1255 06-05-2006 17:15:02 28.6 C 5.62 g/m*3 28.6 C 0 km/h
1256 06-05-2006 17:25:02 28.4 C 5.56 g/m*3 28.4 C 0 km/h
1257 06-05-2006 17:35:02 28.1 C 5.47 g/m*3 28.1 C 0 km/h
1258 06-05-2006 17:45:02 28.4 C 5.56 g/m*3 28.4 C 0 km/h
1259 06-05-2006 17:55:03 28.3 C 5.53 g/m*3 28.3 C 0 km/h
1260 06-05-2006 18:05:02 28 C 5.44 g/m*3 28 C 0 km/h
1261 06-05-2006 18:15:01 27.8 C 5.38 g/m*3 27.8 C 0 km/h
1262 06-05-2006 18:25:01 27.4 C 5.26 g/m*3 27.4 C 0 km/h
1263 06-05-2006 18:35:02 26.6 C 5.03 g/m*3 26.6 C 0 km/h
1264 06-05-2006 18:45:02 26.6 C 5.03 g/m*3 26.6 C 0 km/h
1265 06-05-2006 18:55:02 26.4 C 4.98 g/m*3 26.4 C 0 km/h
1266 06-05-2006 19:05:01 26.2 C 4.92 g/m*3 26.2 C 0 km/h
1267 06-05-2006 19:15:02 25.7 C 4.79 g/m*3 25.7 C 0 km/h
1268 06-05-2006 19:25:02 25.2 C 4.66 g/m*3 25.2 C 0 km/h
1269 06-05-2006 19:35:02 24.4 C 4.45 g/m*3 24.4 C 0 km/h
1270 06-05-2006 19:45:01 23.7 C 4.28 g/m*3 23.7 C 0 km/h
1271 06-05-2006 19:55:01 23.4 C 4.21 g/m*3 23.4 C 0 km/h
1272 06-05-2006 20:05:01 22.9 C 4.09 g/m*3 22.9 C 0 km/h
1273 06-05-2006 20:15:01 22.1 C 3.9 g/m*3 22.1 C 0 km/h
1274 06-05-2006 20:25:01 21.6 C 3.79 g/m*3 21.6 C 0 km/h
1275 06-05-2006 20:35:02 20.7 C 3.6 g/m*3 20.7 C 0 km/h
Sensor: Nr:Datum:Temp:Abs-Feuchte:Windchill:Wind:
Aussen-T/F 1276 06-05-2006 20:45:02 20.2 C 3.5 g/m*3 20.2 C 0 km/h
1277 06-05-2006 20:55:02 19.6 C 3.55 g/m*3 19.6 C 0 km/h
1278 06-05-2006 21:05:02 19.1 C 3.44 g/m*3 19.1 C 0 km/h
1279 06-05-2006 21:15:03 18.7 C 3.84 g/m*3 18.7 C 0 km/h
1280 06-05-2006 21:25:03 18.4 C 3.93 g/m*3 18.4 C 0 km/h
1281 06-05-2006 21:35:03 18.2 C 3.89 g/m*3 18.2 C 0 km/h
1282 06-05-2006 21:45:02 17.9 C 3.82 g/m*3 17.9 C 0 km/h
1283 06-05-2006 21:55:02 17.7 C 3.92 g/m*3 17.7 C 0 km/h
1284 06-05-2006 22:05:02 17.5 C 4.32 g/m*3 17.5 C 0 km/h
1285 06-05-2006 22:15:02 17.2 C 4.25 g/m*3 17.2 C 0 km/h
1286 06-05-2006 22:25:02 17 C 4.34 g/m*3 17 C 0 km/h
1287 06-05-2006 22:35:02 16.8 C 4.29 g/m*3 16.8 C 0 km/h
1288 06-05-2006 22:45:02 16.5 C 4.21 g/m*3 16.5 C 0 km/h
1289 06-05-2006 22:55:02 16.3 C 4.44 g/m*3 16.3 C 0 km/h
1290 06-05-2006 23:05:02 16.3 C 4.44 g/m*3 16.3 C 0 km/h
1291 06-05-2006 23:15:01 16.1 C 4.25 g/m*3 16.1 C 0 km/h
1292 06-05-2006 23:25:01 16.1 C 4.11 g/m*3 16.1 C 0 km/h
1293 06-05-2006 23:35:01 16.2 C 4.14 g/m*3 16.2 C 0 km/h
1294 06-05-2006 23:45:02 16.1 C 4.25 g/m*3 16.1 C 0 km/h
1295 06-05-2006 23:55:02 15.8 C 4.44 g/m*3 15.8 C 0 km/h
1296 07-05-2006 00:05:02 15.4 C 4.34 g/m*3 15.4 C 0 km/h
1297 07-05-2006 00:15:02 15.2 C 4.28 g/m*3 15.2 C 0 km/h
1298 07-05-2006 00:25:02 14.9 C 4.46 g/m*3 14.9 C 0 km/h
1299 07-05-2006 00:35:02 15.1 C 4.13 g/m*3 15.1 C 0 km/h
1300 07-05-2006 00:45:02 15 C 4.23 g/m*3 15 C 0 km/h
Sensor: Nr:Datum:Temp:Abs-Feuchte:Windchill:Wind:
Aussen-T/F 1301 07-05-2006 00:55:02 14.8 C 4.31 g/m*3 14.8 C 0 km/h
1302 07-05-2006 01:05:02 14.4 C 4.45 g/m*3 14.4 C 0 km/h
1303 07-05-2006 01:15:02 14.4 C 4.45 g/m*3 14.4 C 0 km/h
1304 07-05-2006 01:25:02 14.2 C 4.27 g/m*3 14.2 C 0 km/h
1305 07-05-2006 01:35:02 14 C 4.34 g/m*3 14 C 0 km/h
1306 07-05-2006 01:45:02 13.8 C 4.41 g/m*3 13.8 C 0 km/h
1307 07-05-2006 01:55:03 13.7 C 4.26 g/m*3 13.7 C 0 km/h
1308 07-05-2006 02:05:02 13.5 C 4.44 g/m*3 13.5 C 0 km/h
1309 07-05-2006 02:15:02 13.4 C 4.42 g/m*3 13.4 C 0 km/h
1310 07-05-2006 02:25:02 13.4 C 4.3 g/m*3 13.4 C 0 km/h
1311 07-05-2006 02:35:02 13.4 C 4.3 g/m*3 13.4 C 0 km/h
1312 07-05-2006 02:46:03 13.2 C 4.48 g/m*3 13.2 C 0 km/h
1313 07-05-2006 02:56:03 13.2 C 4.36 g/m*3 13.2 C 0 km/h
1314 07-05-2006 03:06:03 13.1 C 4.34 g/m*3 13.1 C 0 km/h
1315 07-05-2006 03:16:04 13 C 4.42 g/m*3 13 C 0 km/h
1316 07-05-2006 03:26:04 12.8 C 4.59 g/m*3 12.8 C 0 km/h
1317 07-05-2006 03:36:02 12.7 C 4.56 g/m*3 12.7 C 0 km/h
1318 07-05-2006 03:46:02 12.6 C 4.43 g/m*3 12.6 C 0 km/h
1319 07-05-2006 03:56:02 12.5 C 4.51 g/m*3 12.5 C 0 km/h
1320 07-05-2006 04:06:02 12.3 C 4.56 g/m*3 12.3 C 0 km/h
1321 07-05-2006 04:16:02 12.4 C 4.59 g/m*3 12.4 C 0 km/h
1322 07-05-2006 04:26:02 12.2 C 4.53 g/m*3 12.2 C 0 km/h
1323 07-05-2006 04:36:01 12 C 4.58 g/m*3 12 C 0 km/h
1324 07-05-2006 04:46:02 11.9 C 4.77 g/m*3 11.9 C 0 km/h
1325 07-05-2006 04:56:03 11.8 C 4.74 g/m*3 11.8 C 0 km/h
Sensor: Nr:Datum:Temp:Abs-Feuchte:Windchill:Wind:
Aussen-T/F 1326 07-05-2006 05:06:02 11.7 C 4.71 g/m*3 11.7 C 0 km/h
1327 07-05-2006 05:16:03 11.6 C 4.78 g/m*3 11.6 C 0 km/h
1328 07-05-2006 05:26:03 11.7 C 4.81 g/m*3 11.7 C 0 km/h
1329 07-05-2006 05:36:02 11.6 C 4.89 g/m*3 11.6 C 0 km/h
1330 07-05-2006 05:46:02 11.6 C 4.89 g/m*3 11.6 C 0 km/h
1331 07-05-2006 05:56:02 11.6 C 4.78 g/m*3 11.6 C 0 km/h
1332 07-05-2006 06:06:02 11.6 C 4.78 g/m*3 11.6 C 0 km/h
1333 07-05-2006 06:16:02 11.6 C 4.78 g/m*3 11.6 C 0 km/h
1334 07-05-2006 06:26:02 11.8 C 4.84 g/m*3 11.8 C 0 km/h
1335 07-05-2006 06:36:02 11.8 C 4.84 g/m*3 11.8 C 0 km/h
1336 07-05-2006 06:46:02 11.8 C 4.84 g/m*3 11.8 C 0 km/h
1337 07-05-2006 06:56:03 12 C 4.8 g/m*3 12 C 0 km/h
1338 07-05-2006 07:06:02 12.2 C 4.86 g/m*3 12.2 C 0 km/h
1339 07-05-2006 07:16:02 12.1 C 5.04 g/m*3 12.1 C 0 km/h
1340 07-05-2006 07:26:02 12.1 C 5.25 g/m*3 12.1 C 0 km/h
1341 07-05-2006 07:36:03 12.2 C 5.61 g/m*3 12.2 C 0 km/h
1342 07-05-2006 07:46:02 12.4 C 5.79 g/m*3 12.4 C 0 km/h
1343 07-05-2006 07:56:03 12.4 C 5.57 g/m*3 12.4 C 0 km/h
1344 07-05-2006 08:06:02 12.7 C 5.68 g/m*3 12.7 C 0 km/h
1345 07-05-2006 08:16:02 13 C 5.67 g/m*3 13 C 0 km/h
1346 07-05-2006 08:26:02 13.4 C 5.58 g/m*3 13.4 C 0 km/h
1347 07-05-2006 08:36:03 13.7 C 5.68 g/m*3 13.7 C 0 km/h
1348 07-05-2006 08:46:02 13.9 C 5.51 g/m*3 13.9 C 0 km/h
1349 07-05-2006 08:56:02 14.5 C 5.6 g/m*3 14.5 C 0 km/h
1350 07-05-2006 09:06:02 15.1 C 5.29 g/m*3 15.1 C 0 km/h
Sensor: Nr:Datum:Temp:Abs-Feuchte:Windchill:Wind:
Aussen-T/F 1351 07-05-2006 09:16:02 15.4 C 5.26 g/m*3 15.4 C 0 km/h
1352 07-05-2006 09:26:02 15.9 C 5.28 g/m*3 15.9 C 0 km/h
1353 07-05-2006 09:36:02 16.3 C 5.27 g/m*3 16.3 C 0 km/h
1354 07-05-2006 09:46:02 16.8 C 5.29 g/m*3 16.8 C 0 km/h
1355 07-05-2006 09:56:03 17.2 C 5.13 g/m*3 17.2 C 0 km/h
1356 07-05-2006 10:06:02 17.5 C 5.37 g/m*3 17.5 C 0 km/h
1357 07-05-2006 10:16:03 18.1 C 5.41 g/m*3 18.1 C 0 km/h
1358 07-05-2006 10:26:03 18.5 C 5.54 g/m*3 18.5 C 0 km/h
1359 07-05-2006 10:36:02 18.9 C 5.51 g/m*3 18.9 C 0 km/h
1360 07-05-2006 10:46:02 19.3 C 5.47 g/m*3 19.3 C 0 km/h
1361 07-05-2006 10:56:03 19.8 C 5.64 g/m*3 19.8 C 0 km/h
1362 07-05-2006 11:06:02 20.2 C 5.77 g/m*3 20.2 C 0 km/h
1363 07-05-2006 11:16:02 20.3 C 5.63 g/m*3 20.3 C 0 km/h
1364 07-05-2006 11:26:02 20.8 C 5.61 g/m*3 20.8 C 0 km/h
1365 07-05-2006 11:36:02 21.2 C 5.56 g/m*3 21.2 C 0 km/h
1366 07-05-2006 11:46:02 21.6 C 5.69 g/m*3 21.6 C 0 km/h
1367 07-05-2006 11:56:02 22 C 5.05 g/m*3 22 C 0 km/h
1368 07-05-2006 12:06:02 22.5 C 5.19 g/m*3 22.5 C 0 km/h
1369 07-05-2006 12:16:02 22.7 C 5.25 g/m*3 22.7 C 0 km/h
1370 07-05-2006 12:26:02 23 C 5.14 g/m*3 23 C 0 km/h
1371 07-05-2006 12:36:03 23.4 C 5.26 g/m*3 23.4 C 0 km/h
1372 07-05-2006 12:46:02 23.5 C 4.86 g/m*3 23.5 C 0 km/h
1373 07-05-2006 12:56:03 24.3 C 5.31 g/m*3 24.3 C 0 km/h
1374 07-05-2006 13:06:02 24.7 C 4.75 g/m*3 24.7 C 0 km/h
1375 07-05-2006 13:16:02 24.8 C 4.55 g/m*3 24.8 C 0 km/h
Sensor: Nr:Datum:Temp:Abs-Feuchte:Windchill:Wind:
Aussen-T/F 1376 07-05-2006 13:26:02 25 C 4.6 g/m*3 25 C 0 km/h
1377 07-05-2006 13:36:03 25.4 C 4.71 g/m*3 25.4 C 0 km/h
1378 07-05-2006 13:46:02 25.4 C 4.71 g/m*3 25.4 C 0 km/h
1379 07-05-2006 13:56:02 25.1 C 4.63 g/m*3 25.1 C 0 km/h
1380 07-05-2006 14:06:02 25.1 C 4.63 g/m*3 25.1 C 0 km/h
1381 07-05-2006 14:16:02 25 C 4.6 g/m*3 25 C 0 km/h
1382 07-05-2006 14:26:02 25.5 C 4.73 g/m*3 25.5 C 0 km/h
1383 07-05-2006 14:36:02 25.8 C 4.82 g/m*3 25.8 C 0 km/h
1384 07-05-2006 14:46:03 26.2 C 4.92 g/m*3 26.2 C 0 km/h
1385 07-05-2006 14:56:03 26.5 C 5.01 g/m*3 26.5 C 0 km/h
1386 07-05-2006 15:06:02 26.2 C 4.92 g/m*3 26.2 C 0 km/h
1387 07-05-2006 15:16:03 26.8 C 5.09 g/m*3 26.8 C 0 km/h
1388 07-05-2006 15:26:03 27.8 C 5.38 g/m*3 27.8 C 0 km/h
1389 07-05-2006 15:36:03 28 C 5.44 g/m*3 28 C 0 km/h
1390 07-05-2006 15:46:02 27.4 C 5.26 g/m*3 27.4 C 0 km/h
1391 07-05-2006 15:56:02 28.1 C 5.47 g/m*3 28.1 C 0 km/h
1392 07-05-2006 16:06:02 28.9 C 5.71 g/m*3 28.9 C 0 km/h
1393 07-05-2006 16:16:02 29.1 C 5.78 g/m*3 29.1 C 0 km/h
1394 07-05-2006 16:26:02 28.8 C 5.68 g/m*3 28.8 C 0 km/h
1395 07-05-2006 16:36:03 29.4 C 5.87 g/m*3 29.4 C 0 km/h
1396 07-05-2006 16:46:02 29.4 C 5.87 g/m*3 29.4 C 0 km/h
1397 07-05-2006 16:56:02 29.6 C 5.94 g/m*3 29.6 C 0 km/h
1398 07-05-2006 17:06:02 29.1 C 5.78 g/m*3 29.1 C 0 km/h
1399 07-05-2006 17:16:02 28.8 C 5.68 g/m*3 28.8 C 0 km/h
1400 07-05-2006 17:26:02 28 C 5.44 g/m*3 28 C 0 km/h
Sensor: Nr:Datum:Temp:Abs-Feuchte:Windchill:Wind:
Aussen-T/F 1401 07-05-2006 17:36:03 28.3 C 5.53 g/m*3 28.3 C 0 km/h
1402 07-05-2006 17:46:02 28.7 C 5.65 g/m*3 28.7 C 0 km/h
1403 07-05-2006 17:56:02 28.4 C 5.56 g/m*3 28.4 C 0 km/h
1404 07-05-2006 18:06:02 28.4 C 5.56 g/m*3 28.4 C 0 km/h
1405 07-05-2006 18:16:02 28.5 C 5.59 g/m*3 28.5 C 0 km/h
1406 07-05-2006 18:26:02 28.6 C 5.62 g/m*3 28.6 C 0 km/h
1407 07-05-2006 18:36:02 28.2 C 5.5 g/m*3 28.2 C 0 km/h
1408 07-05-2006 18:46:03 28.7 C 5.65 g/m*3 28.7 C 0 km/h
1409 07-05-2006 18:56:03 28.6 C 5.62 g/m*3 28.6 C 0 km/h
1410 07-05-2006 19:06:03 27.5 C 5.29 g/m*3 27.5 C 0 km/h
1411 07-05-2006 19:16:02 27.5 C 5.29 g/m*3 27.5 C 0 km/h
1412 07-05-2006 19:26:02 27.3 C 5.23 g/m*3 27.3 C 0 km/h
1413 07-05-2006 19:36:02 26.8 C 5.09 g/m*3 26.8 C 0 km/h
1414 07-05-2006 19:46:02 26.6 C 5.03 g/m*3 26.6 C 0 km/h
1415 07-05-2006 19:56:02 26.1 C 4.9 g/m*3 26.1 C 0 km/h
1416 07-05-2006 20:06:02 25.7 C 4.79 g/m*3 25.7 C 0 km/h
1417 07-05-2006 20:16:01 24.7 C 4.98 g/m*3 24.7 C 0 km/h
1418 07-05-2006 20:26:01 24 C 5.22 g/m*3 24 C 0 km/h
1419 07-05-2006 20:36:02 23.6 C 5.53 g/m*3 23.6 C 0 km/h
1420 07-05-2006 20:46:01 22.7 C 5.66 g/m*3 22.7 C 0 km/h
1421 07-05-2006 20:56:01 21.7 C 5.91 g/m*3 21.7 C 0 km/h
1422 07-05-2006 21:06:02 21.1 C 5.71 g/m*3 21.1 C 0 km/h
1423 07-05-2006 21:16:02 20.6 C 5.91 g/m*3 20.6 C 0 km/h
1424 07-05-2006 21:26:02 20.2 C 6.12 g/m*3 20.2 C 0 km/h
1425 07-05-2006 21:36:02 19.9 C 6.01 g/m*3 19.9 C 0 km/h
Sensor: Nr:Datum:Temp:Abs-Feuchte:Windchill:Wind:
Aussen-T/F 1426 07-05-2006 21:46:02 19.5 C 6.04 g/m*3 19.5 C 0 km/h
1427 07-05-2006 21:56:02 19.3 C 5.97 g/m*3 19.3 C 0 km/h
1428 07-05-2006 22:06:02 19.2 C 6.1 g/m*3 19.2 C 0 km/h
1429 07-05-2006 22:16:02 18.9 C 5.99 g/m*3 18.9 C 0 km/h
1430 07-05-2006 22:26:02 18.7 C 5.92 g/m*3 18.7 C 0 km/h
1431 07-05-2006 22:36:03 18.5 C 6.01 g/m*3 18.5 C 0 km/h
1432 07-05-2006 22:46:02 18.3 C 6.1 g/m*3 18.3 C 0 km/h
1433 07-05-2006 22:56:02 18 C 5.99 g/m*3 18 C 0 km/h
1434 07-05-2006 23:06:02 18 C 6.14 g/m*3 18 C 0 km/h
1435 07-05-2006 23:16:02 17.8 C 6.07 g/m*3 17.8 C 0 km/h
1436 07-05-2006 23:26:02 17.6 C 6 g/m*3 17.6 C 0 km/h
1437 07-05-2006 23:36:03 17.5 C 6.11 g/m*3 17.5 C 0 km/h
1438 07-05-2006 23:46:02 17.3 C 6.04 g/m*3 17.3 C 0 km/h
1439 07-05-2006 23:56:02 17 C 6.08 g/m*3 17 C 0 km/h
1440 08-05-2006 00:06:02 16.9 C 6.04 g/m*3 16.9 C 0 km/h
1441 08-05-2006 00:16:03 16.6 C 6.22 g/m*3 16.6 C 0 km/h
1442 08-05-2006 00:26:03 16.5 C 6.18 g/m*3 16.5 C 0 km/h
1443 08-05-2006 00:36:03 16.3 C 5.97 g/m*3 16.3 C 0 km/h
1444 08-05-2006 00:46:02 16 C 6.13 g/m*3 16 C 0 km/h
1445 08-05-2006 00:56:02 16 C 5.99 g/m*3 16 C 0 km/h
1446 08-05-2006 01:06:02 15.8 C 6.19 g/m*3 15.8 C 0 km/h
1447 08-05-2006 01:16:02 15.5 C 6.08 g/m*3 15.5 C 0 km/h
1448 08-05-2006 01:26:02 15.3 C 5.88 g/m*3 15.3 C 0 km/h
1449 08-05-2006 01:36:02 15.4 C 5.91 g/m*3 15.4 C 0 km/h
1450 08-05-2006 01:46:02 15.1 C 5.81 g/m*3 15.1 C 0 km/h
Sensor: Nr:Datum:Temp:Abs-Feuchte:Windchill:Wind:
Aussen-T/F 1451 08-05-2006 01:56:02 14.9 C 5.99 g/m*3 14.9 C 0 km/h
1452 08-05-2006 02:06:02 14.7 C 5.92 g/m*3 14.7 C 0 km/h
1453 08-05-2006 02:16:02 14.4 C 5.81 g/m*3 14.4 C 0 km/h
1454 08-05-2006 02:26:02 14.3 C 5.9 g/m*3 14.3 C 0 km/h
1455 08-05-2006 02:36:02 14.1 C 5.83 g/m*3 14.1 C 0 km/h
1456 08-05-2006 02:47:04 14 C 5.79 g/m*3 14 C 0 km/h
1457 08-05-2006 02:57:04 13.6 C 5.77 g/m*3 13.6 C 0 km/h
1458 08-05-2006 03:07:04 13.6 C 5.65 g/m*3 13.6 C 0 km/h
1459 08-05-2006 03:17:03 13.5 C 5.85 g/m*3 13.5 C 0 km/h
1460 08-05-2006 03:27:03 13.3 C 5.78 g/m*3 13.3 C 0 km/h
1461 08-05-2006 03:37:02 13 C 5.67 g/m*3 13 C 0 km/h
1462 08-05-2006 03:47:02 12.8 C 5.71 g/m*3 12.8 C 0 km/h
1463 08-05-2006 03:57:02 12.8 C 5.82 g/m*3 12.8 C 0 km/h
1464 08-05-2006 04:07:02 12.6 C 5.86 g/m*3 12.6 C 0 km/h
1465 08-05-2006 04:17:02 12.3 C 5.65 g/m*3 12.3 C 0 km/h
1466 08-05-2006 04:27:03 12.2 C 5.61 g/m*3 12.2 C 0 km/h
1467 08-05-2006 04:37:02 12.1 C 5.68 g/m*3 12.1 C 0 km/h
1468 08-05-2006 04:47:02 12 C 5.65 g/m*3 12 C 0 km/h
1469 08-05-2006 04:57:02 11.9 C 5.72 g/m*3 11.9 C 0 km/h
1470 08-05-2006 05:07:02 11.8 C 5.68 g/m*3 11.8 C 0 km/h
1471 08-05-2006 05:17:02 11.7 C 5.75 g/m*3 11.7 C 0 km/h
1472 08-05-2006 05:27:02 11.5 C 5.78 g/m*3 11.5 C 0 km/h
1473 08-05-2006 05:37:02 11.3 C 5.71 g/m*3 11.3 C 0 km/h
1474 08-05-2006 05:47:03 11.2 C 5.78 g/m*3 11.2 C 0 km/h
1475 08-05-2006 05:57:03 11.1 C 5.74 g/m*3 11.1 C 0 km/h
Sensor: Nr:Datum:Temp:Abs-Feuchte:Windchill:Wind:
Aussen-T/F 1476 08-05-2006 06:07:03 11 C 5.71 g/m*3 11 C 0 km/h
1477 08-05-2006 06:17:02 11.1 C 5.74 g/m*3 11.1 C 0 km/h
1478 08-05-2006 06:27:02 11 C 5.91 g/m*3 11 C 0 km/h
1479 08-05-2006 06:37:02 11.1 C 5.84 g/m*3 11.1 C 0 km/h
1480 08-05-2006 06:47:02 11.1 C 5.94 g/m*3 11.1 C 0 km/h
1481 08-05-2006 06:57:02 11.1 C 5.94 g/m*3 11.1 C 0 km/h
1482 08-05-2006 07:07:02 11.2 C 6.18 g/m*3 11.2 C 0 km/h
1483 08-05-2006 07:17:02 11.4 C 6.26 g/m*3 11.4 C 0 km/h
1484 08-05-2006 07:27:03 11.4 C 6.36 g/m*3 11.4 C 0 km/h
1485 08-05-2006 07:37:02 11.7 C 6.28 g/m*3 11.7 C 0 km/h
1486 08-05-2006 07:47:02 11.8 C 6.42 g/m*3 11.8 C 0 km/h
1487 08-05-2006 07:57:02 12 C 6.39 g/m*3 12 C 0 km/h
1488 08-05-2006 08:07:02 12.2 C 6.37 g/m*3 12.2 C 0 km/h
1489 08-05-2006 08:17:02 12.5 C 6.49 g/m*3 12.5 C 0 km/h
1490 08-05-2006 08:27:02 12.8 C 6.38 g/m*3 12.8 C 0 km/h
1491 08-05-2006 08:37:02 13 C 6.24 g/m*3 13 C 0 km/h
1492 08-05-2006 08:47:02 13.4 C 6.39 g/m*3 13.4 C 0 km/h
1493 08-05-2006 08:57:02 13.7 C 6.39 g/m*3 13.7 C 0 km/h
1494 08-05-2006 09:07:02 14.4 C 6.55 g/m*3 14.4 C 0 km/h
1495 08-05-2006 09:17:02 15 C 6.54 g/m*3 15 C 0 km/h
1496 08-05-2006 09:27:02 15.6 C 5.98 g/m*3 15.6 C 0 km/h
1497 08-05-2006 09:37:02 16.4 C 6.42 g/m*3 16.4 C 0 km/h
1498 08-05-2006 09:47:02 16.8 C 6.58 g/m*3 16.8 C 0 km/h
1499 08-05-2006 09:57:02 17.3 C 6.19 g/m*3 17.3 C 0 km/h
1500 08-05-2006 10:07:02 18 C 6.14 g/m*3 18 C 0 km/h
Sensor: Nr:Datum:Temp:Abs-Feuchte:Windchill:Wind:
Aussen-T/F 1501 08-05-2006 10:17:02 18.6 C 5.73 g/m*3 18.6 C 0 km/h
1502 08-05-2006 10:27:02 19.6 C 4.9 g/m*3 19.6 C 0 km/h
1503 08-05-2006 10:37:03 20 C 4.67 g/m*3 20 C 0 km/h
1504 08-05-2006 10:47:02 20.3 C 4.22 g/m*3 20.3 C 0 km/h
1505 08-05-2006 10:57:02 20.8 C 4.53 g/m*3 20.8 C 0 km/h
1506 08-05-2006 11:07:02 21.2 C 4.08 g/m*3 21.2 C 0 km/h
1507 08-05-2006 11:17:02 21.8 C 4.6 g/m*3 21.8 C 0 km/h
1508 08-05-2006 11:27:02 21.8 C 4.03 g/m*3 21.8 C 0 km/h
1509 08-05-2006 11:37:02 21.7 C 3.82 g/m*3 21.7 C 0 km/h
1510 08-05-2006 11:47:02 22.1 C 3.9 g/m*3 22.1 C 0 km/h
1511 08-05-2006 11:57:02 22.3 C 3.95 g/m*3 22.3 C 0 km/h
1512 08-05-2006 12:07:02 22.6 C 4.02 g/m*3 22.6 C 0 km/h
1513 08-05-2006 12:17:02 22.7 C 4.04 g/m*3 22.7 C 0 km/h
1514 08-05-2006 12:27:02 22.8 C 4.06 g/m*3 22.8 C 0 km/h
1515 08-05-2006 12:37:02 23.5 C 4.23 g/m*3 23.5 C 0 km/h
1516 08-05-2006 12:47:02 23.7 C 4.28 g/m*3 23.7 C 0 km/h
1517 08-05-2006 12:57:02 24.2 C 4.4 g/m*3 24.2 C 0 km/h
1518 08-05-2006 13:07:02 24.8 C 4.55 g/m*3 24.8 C 0 km/h
1519 08-05-2006 13:17:02 24.9 C 4.58 g/m*3 24.9 C 0 km/h
1520 08-05-2006 13:27:02 25.9 C 4.84 g/m*3 25.9 C 0 km/h
1521 08-05-2006 13:37:02 25.2 C 4.66 g/m*3 25.2 C 0 km/h
1522 08-05-2006 13:47:02 25.9 C 4.84 g/m*3 25.9 C 0 km/h
1523 08-05-2006 13:57:02 25.9 C 4.84 g/m*3 25.9 C 0 km/h
1524 08-05-2006 14:07:02 26.2 C 4.92 g/m*3 26.2 C 0 km/h
1525 08-05-2006 14:17:01 26.1 C 4.9 g/m*3 26.1 C 0 km/h
Sensor: Nr:Datum:Temp:Abs-Feuchte:Windchill:Wind:
Aussen-T/F 1526 08-05-2006 14:27:01 25.6 C 4.76 g/m*3 25.6 C 0 km/h
1527 08-05-2006 14:37:01 25.3 C 4.68 g/m*3 25.3 C 0 km/h
1528 08-05-2006 14:47:02 24.8 C 4.55 g/m*3 24.8 C 0 km/h
1529 08-05-2006 14:57:02 24.3 C 4.43 g/m*3 24.3 C 0 km/h
1530 08-05-2006 15:07:01 23.9 C 4.33 g/m*3 23.9 C 0 km/h
1531 08-05-2006 15:17:01 24.3 C 4.43 g/m*3 24.3 C 0 km/h
1532 08-05-2006 15:27:01 24.8 C 4.55 g/m*3 24.8 C 0 km/h
1533 08-05-2006 15:37:01 25.5 C 4.73 g/m*3 25.5 C 0 km/h
1534 08-05-2006 15:47:02 25.7 C 4.79 g/m*3 25.7 C 0 km/h
1535 08-05-2006 15:57:03 27.4 C 5.26 g/m*3 27.4 C 0 km/h
1536 08-05-2006 16:07:01 27.7 C 5.35 g/m*3 27.7 C 0 km/h
1537 08-05-2006 16:17:01 27.3 C 5.23 g/m*3 27.3 C 0 km/h
1538 08-05-2006 16:27:01 26.9 C 5.12 g/m*3 26.9 C 0 km/h
1539 08-05-2006 16:37:02 26.5 C 5.01 g/m*3 26.5 C 0 km/h
1540 08-05-2006 16:47:02 25.6 C 4.76 g/m*3 25.6 C 0 km/h
1541 08-05-2006 16:57:02 26.2 C 4.92 g/m*3 26.2 C 0 km/h
1542 08-05-2006 17:07:03 26.3 C 4.95 g/m*3 26.3 C 0 km/h
1543 08-05-2006 17:17:03 25.7 C 4.79 g/m*3 25.7 C 0 km/h
1544 08-05-2006 17:27:03 25.7 C 4.79 g/m*3 25.7 C 0 km/h
1545 08-05-2006 17:37:04 25.5 C 4.73 g/m*3 25.5 C 0 km/h
1546 08-05-2006 17:47:02 25.4 C 4.71 g/m*3 25.4 C 0 km/h
1547 08-05-2006 17:57:02 25.2 C 4.66 g/m*3 25.2 C 0 km/h
1548 08-05-2006 18:07:03 25 C 4.6 g/m*3 25 C 0 km/h
1549 08-05-2006 18:17:02 25.1 C 4.63 g/m*3 25.1 C 0 km/h
1550 08-05-2006 18:27:02 25 C 4.6 g/m*3 25 C 0 km/h
Sensor: Nr:Datum:Temp:Abs-Feuchte:Windchill:Wind:
Aussen-T/F 1551 08-05-2006 18:37:03 24.9 C 4.58 g/m*3 24.9 C 0 km/h
1552 08-05-2006 18:47:02 24.5 C 5.6 g/m*3 24.5 C 0 km/h
1553 08-05-2006 18:57:02 24.2 C 4.84 g/m*3 24.2 C 0 km/h
1554 08-05-2006 19:07:02 23.8 C 4.3 g/m*3 23.8 C 0 km/h
1555 08-05-2006 19:17:02 23.5 C 5.29 g/m*3 23.5 C 0 km/h
1556 08-05-2006 19:27:02 23.1 C 5.17 g/m*3 23.1 C 0 km/h
1557 08-05-2006 19:37:01 22.6 C 5.22 g/m*3 22.6 C 0 km/h
1558 08-05-2006 19:47:02 22.2 C 5.3 g/m*3 22.2 C 0 km/h
1559 08-05-2006 19:57:02 21.6 C 5.31 g/m*3 21.6 C 0 km/h
1560 08-05-2006 20:07:02 21.3 C 5.03 g/m*3 21.3 C 0 km/h
1561 08-05-2006 20:17:01 20.9 C 4.92 g/m*3 20.9 C 0 km/h
1562 08-05-2006 20:27:01 20.4 C 4.95 g/m*3 20.4 C 0 km/h
1563 08-05-2006 20:37:02 20 C 6.22 g/m*3 20 C 0 km/h
1564 08-05-2006 20:47:02 19.2 C 7.59 g/m*3 19.2 C 0 km/h
1565 08-05-2006 20:57:02 18.7 C 7.84 g/m*3 18.7 C 0 km/h
1566 08-05-2006 21:07:02 18.5 C 7.91 g/m*3 18.5 C 0 km/h
1567 08-05-2006 21:17:01 18.4 C 8.02 g/m*3 18.4 C 0 km/h
1568 08-05-2006 21:27:01 18.2 C 7.77 g/m*3 18.2 C 0 km/h
1569 08-05-2006 21:37:01 18 C 7.99 g/m*3 18 C 0 km/h
1570 08-05-2006 21:47:02 18 C 7.99 g/m*3 18 C 0 km/h
1571 08-05-2006 21:57:02 17.7 C 8.15 g/m*3 17.7 C 0 km/h
1572 08-05-2006 22:07:02 17.6 C 8.25 g/m*3 17.6 C 0 km/h
1573 08-05-2006 22:17:01 17.5 C 8.2 g/m*3 17.5 C 0 km/h
1574 08-05-2006 22:27:01 17.4 C 8.3 g/m*3 17.4 C 0 km/h
1575 08-05-2006 22:37:01 17.2 C 8.35 g/m*3 17.2 C 0 km/h
Sensor: Nr:Datum:Temp:Abs-Feuchte:Windchill:Wind:
Aussen-T/F 1576 08-05-2006 22:47:02 17.1 C 8.3 g/m*3 17.1 C 0 km/h
1577 08-05-2006 22:57:03 16.9 C 8.05 g/m*3 16.9 C 0 km/h
1578 08-05-2006 23:07:01 16.7 C 7.39 g/m*3 16.7 C 0 km/h
1579 08-05-2006 23:17:01 16.6 C 6.78 g/m*3 16.6 C 0 km/h
1580 08-05-2006 23:27:01 16.5 C 6.6 g/m*3 16.5 C 0 km/h
1581 08-05-2006 23:37:02 16.5 C 7.02 g/m*3 16.5 C 0 km/h
1582 08-05-2006 23:47:02 16.3 C 7.35 g/m*3 16.3 C 0 km/h
1583 08-05-2006 23:57:03 16.4 C 7.82 g/m*3 16.4 C 0 km/h
1584 09-05-2006 00:07:02 16.2 C 7.86 g/m*3 16.2 C 0 km/h
1585 09-05-2006 00:17:02 16 C 7.77 g/m*3 16 C 0 km/h
1586 09-05-2006 00:27:02 15.8 C 7.67 g/m*3 15.8 C 0 km/h
1587 09-05-2006 00:37:02 15.7 C 8.16 g/m*3 15.7 C 0 km/h
1588 09-05-2006 00:47:02 15.6 C 7.98 g/m*3 15.6 C 0 km/h
1589 09-05-2006 00:57:02 15.4 C 7.88 g/m*3 15.4 C 0 km/h
1590 09-05-2006 01:07:03 15.3 C 7.31 g/m*3 15.3 C 0 km/h
1591 09-05-2006 01:17:03 15.2 C 7.4 g/m*3 15.2 C 0 km/h
1592 09-05-2006 01:27:03 15 C 7.05 g/m*3 15 C 0 km/h
1593 09-05-2006 01:37:02 14.8 C 6.84 g/m*3 14.8 C 0 km/h
1594 09-05-2006 01:47:02 14.7 C 6.17 g/m*3 14.7 C 0 km/h
1595 09-05-2006 01:57:02 14.4 C 5.69 g/m*3 14.4 C 0 km/h
1596 09-05-2006 02:07:02 14.2 C 5.25 g/m*3 14.2 C 0 km/h
1597 09-05-2006 02:17:03 14.1 C 5.22 g/m*3 14.1 C 0 km/h
1598 09-05-2006 02:27:03 14 C 5.43 g/m*3 14 C 0 km/h
1599 09-05-2006 02:37:02 13.8 C 5.36 g/m*3 13.8 C 0 km/h
1600 09-05-2006 02:48:03 13.8 C 5.48 g/m*3 13.8 C 0 km/h
Sensor: Nr:Datum:Temp:Abs-Feuchte:Windchill:Wind:
Aussen-T/F 1601 09-05-2006 02:58:03 13.7 C 5.57 g/m*3 13.7 C 0 km/h
1602 09-05-2006 03:08:03 13.6 C 5.65 g/m*3 13.6 C 0 km/h
1603 09-05-2006 03:18:04 13.5 C 5.5 g/m*3 13.5 C 0 km/h
1604 09-05-2006 03:28:04 13.4 C 5.35 g/m*3 13.4 C 0 km/h
1605 09-05-2006 03:38:03 13.3 C 5.31 g/m*3 13.3 C 0 km/h
1606 09-05-2006 03:48:03 13.1 C 5.25 g/m*3 13.1 C 0 km/h
1607 09-05-2006 03:58:03 13 C 5.22 g/m*3 13 C 0 km/h
1608 09-05-2006 04:08:03 12.7 C 5.57 g/m*3 12.7 C 0 km/h
1609 09-05-2006 04:18:02 12.4 C 5.57 g/m*3 12.4 C 0 km/h
1610 09-05-2006 04:28:02 12.2 C 5.61 g/m*3 12.2 C 0 km/h
1611 09-05-2006 04:38:02 12.3 C 5.75 g/m*3 12.3 C 0 km/h
1612 09-05-2006 04:48:02 11.9 C 5.82 g/m*3 11.9 C 0 km/h
1613 09-05-2006 04:58:02 11.8 C 5.68 g/m*3 11.8 C 0 km/h
1614 09-05-2006 05:08:03 11.6 C 5.61 g/m*3 11.6 C 0 km/h
1615 09-05-2006 05:18:02 11.6 C 5.61 g/m*3 11.6 C 0 km/h
1616 09-05-2006 05:28:02 11.4 C 5.54 g/m*3 11.4 C 0 km/h
1617 09-05-2006 05:38:02 11.2 C 5.57 g/m*3 11.2 C 0 km/h
1618 09-05-2006 05:48:02 11.2 C 5.57 g/m*3 11.2 C 0 km/h
1619 09-05-2006 05:58:02 11 C 5.51 g/m*3 11 C 0 km/h
1620 09-05-2006 06:08:02 11.1 C 5.54 g/m*3 11.1 C 0 km/h
1621 09-05-2006 06:18:02 11.1 C 5.64 g/m*3 11.1 C 0 km/h
1622 09-05-2006 06:28:02 11.1 C 5.74 g/m*3 11.1 C 0 km/h
1623 09-05-2006 06:38:02 11.1 C 5.84 g/m*3 11.1 C 0 km/h
1624 09-05-2006 06:48:02 11 C 5.91 g/m*3 11 C 0 km/h
1625 09-05-2006 06:58:02 11 C 5.91 g/m*3 11 C 0 km/h
Sensor: Nr:Datum:Temp:Abs-Feuchte:Windchill:Wind:
Aussen-T/F 1626 09-05-2006 07:08:01 11 C 6.01 g/m*3 11 C 0 km/h
1627 09-05-2006 07:18:01 11.3 C 6.22 g/m*3 11.3 C 0 km/h
1628 09-05-2006 07:28:01 11.4 C 6.26 g/m*3 11.4 C 0 km/h
1629 09-05-2006 07:38:02 11.7 C 6.38 g/m*3 11.7 C 0 km/h
1630 09-05-2006 07:48:02 12.1 C 6.33 g/m*3 12.1 C 0 km/h
1631 09-05-2006 07:58:03 12.5 C 6.6 g/m*3 12.5 C 0 km/h
1632 09-05-2006 08:08:02 12.7 C 6.57 g/m*3 12.7 C 0 km/h
1633 09-05-2006 08:18:02 12.9 C 6.76 g/m*3 12.9 C 0 km/h
1634 09-05-2006 08:28:02 13 C 6.69 g/m*3 13 C 0 km/h
1635 09-05-2006 08:38:03 13.4 C 6.74 g/m*3 13.4 C 0 km/h
1636 09-05-2006 08:48:02 13.7 C 6.63 g/m*3 13.7 C 0 km/h
1637 09-05-2006 08:58:02 14.5 C 6.34 g/m*3 14.5 C 0 km/h
1638 09-05-2006 09:08:02 14.8 C 6.71 g/m*3 14.8 C 0 km/h
1639 09-05-2006 09:18:02 15.2 C 6.88 g/m*3 15.2 C 0 km/h
1640 09-05-2006 09:28:02 15.8 C 6.87 g/m*3 15.8 C 0 km/h
1641 09-05-2006 09:38:02 16.4 C 6 g/m*3 16.4 C 0 km/h
1642 09-05-2006 09:48:02 17.2 C 6 g/m*3 17.2 C 0 km/h
1643 09-05-2006 09:58:03 17.6 C 5.85 g/m*3 17.6 C 0 km/h
1644 09-05-2006 10:08:02 18 C 5.84 g/m*3 18 C 0 km/h
1645 09-05-2006 10:18:01 18.5 C 5.85 g/m*3 18.5 C 0 km/h
1646 09-05-2006 10:28:01 18.9 C 5.67 g/m*3 18.9 C 0 km/h
1647 09-05-2006 10:38:02 19.3 C 5.81 g/m*3 19.3 C 0 km/h
1648 09-05-2006 10:48:02 19.8 C 5.64 g/m*3 19.8 C 0 km/h
1649 09-05-2006 10:58:02 20 C 5.53 g/m*3 20 C 0 km/h
1650 09-05-2006 11:08:01 20.3 C 5.8 g/m*3 20.3 C 0 km/h
Sensor: Nr:Datum:Temp:Abs-Feuchte:Windchill:Wind:
Aussen-T/F 1651 09-05-2006 11:18:01 20.9 C 5.65 g/m*3 20.9 C 0 km/h
1652 09-05-2006 11:28:01 21.2 C 5.56 g/m*3 21.2 C 0 km/h
1653 09-05-2006 11:38:02 21.4 C 5.81 g/m*3 21.4 C 0 km/h
1654 09-05-2006 11:48:02 22 C 5.63 g/m*3 22 C 0 km/h
1655 09-05-2006 11:58:02 22.3 C 5.53 g/m*3 22.3 C 0 km/h
1656 09-05-2006 12:08:01 22.5 C 5.19 g/m*3 22.5 C 0 km/h
1657 09-05-2006 12:18:01 22.8 C 5.28 g/m*3 22.8 C 0 km/h
1658 09-05-2006 12:28:01 23.3 C 5.23 g/m*3 23.3 C 0 km/h
1659 09-05-2006 12:38:02 23.9 C 5.41 g/m*3 23.9 C 0 km/h
1660 09-05-2006 12:48:02 24.3 C 5.09 g/m*3 24.3 C 0 km/h
1661 09-05-2006 12:58:02 24.3 C 4.87 g/m*3 24.3 C 0 km/h
1662 09-05-2006 13:08:02 25.1 C 4.86 g/m*3 25.1 C 0 km/h
1663 09-05-2006 13:18:02 26.5 C 5.01 g/m*3 26.5 C 0 km/h
1664 09-05-2006 13:28:02 25.4 C 4.71 g/m*3 25.4 C 0 km/h
1665 09-05-2006 13:38:03 23.9 C 5.19 g/m*3 23.9 C 0 km/h
1666 09-05-2006 13:48:02 25.1 C 5.09 g/m*3 25.1 C 0 km/h
1667 09-05-2006 13:58:02 25.2 C 4.66 g/m*3 25.2 C 0 km/h
1668 09-05-2006 14:08:02 25.1 C 4.86 g/m*3 25.1 C 0 km/h
1669 09-05-2006 14:18:02 25.6 C 4.76 g/m*3 25.6 C 0 km/h
1670 09-05-2006 14:28:02 25.2 C 5.12 g/m*3 25.2 C 0 km/h
1671 09-05-2006 14:38:03 25.4 C 4.94 g/m*3 25.4 C 0 km/h
1672 09-05-2006 14:48:02 24.9 C 5.04 g/m*3 24.9 C 0 km/h
1673 09-05-2006 14:58:03 24.6 C 5.18 g/m*3 24.6 C 0 km/h
1674 09-05-2006 15:08:02 25.8 C 4.82 g/m*3 25.8 C 0 km/h
1675 09-05-2006 15:18:02 26.6 C 5.03 g/m*3 26.6 C 0 km/h
Sensor: Nr:Datum:Temp:Abs-Feuchte:Windchill:Wind:
Aussen-T/F 1676 09-05-2006 15:28:02 27.7 C 5.35 g/m*3 27.7 C 0 km/h
1677 09-05-2006 15:38:02 27.2 C 5.2 g/m*3 27.2 C 0 km/h
1678 09-05-2006 15:48:02 27.5 C 5.29 g/m*3 27.5 C 0 km/h
1679 09-05-2006 15:58:03 28.5 C 5.59 g/m*3 28.5 C 0 km/h
1680 09-05-2006 16:08:02 28.8 C 5.68 g/m*3 28.8 C 0 km/h
1681 09-05-2006 16:18:02 29.2 C 5.81 g/m*3 29.2 C 0 km/h
1682 09-05-2006 16:28:02 29.5 C 5.9 g/m*3 29.5 C 0 km/h
1683 09-05-2006 16:38:02 29.2 C 5.81 g/m*3 29.2 C 0 km/h
1684 09-05-2006 16:48:02 28.7 C 5.65 g/m*3 28.7 C 0 km/h
1685 09-05-2006 16:58:02 29.2 C 5.81 g/m*3 29.2 C 0 km/h
1686 09-05-2006 17:08:02 29.8 C 6 g/m*3 29.8 C 0 km/h
1687 09-05-2006 17:18:01 28.7 C 5.65 g/m*3 28.7 C 0 km/h
1688 09-05-2006 17:28:01 27.7 C 5.35 g/m*3 27.7 C 0 km/h
1689 09-05-2006 17:38:02 19 C 3.26 g/m*3 19 C 0 km/h
1690 09-05-2006 17:48:42 19.4 C 9.18 g/m*3 19.4 C 0 km/h
1691 09-05-2006 17:58:02 21 C 10.26 g/m*3 21 C 0 km/h
1692 09-05-2006 18:08:02 23.1 C 9.3 g/m*3 23.1 C 0 km/h
1693 09-05-2006 18:18:02 24.6 C 6.98 g/m*3 24.6 C 0 km/h
1694 09-05-2006 18:28:02 26.6 C 6.04 g/m*3 26.6 C 0 km/h
1695 09-05-2006 18:38:02 25.2 C 6.05 g/m*3 25.2 C 0 km/h
1696 09-05-2006 18:48:02 24.1 C 5.69 g/m*3 24.1 C 0 km/h
1697 09-05-2006 18:58:02 23.8 C 5.81 g/m*3 23.8 C 0 km/h
1698 09-05-2006 19:08:02 22.8 C 5.69 g/m*3 22.8 C 0 km/h
1699 09-05-2006 19:18:01 21.7 C 5.91 g/m*3 21.7 C 0 km/h
1700 09-05-2006 19:28:01 20.7 C 7.02 g/m*3 20.7 C 0 km/h
Sensor: Nr:Datum:Temp:Abs-Feuchte:Windchill:Wind:
Aussen-T/F 1701 09-05-2006 19:38:02 18.3 C 6.72 g/m*3 18.3 C 0 km/h
1702 09-05-2006 19:48:02 18.3 C 6.57 g/m*3 18.3 C 0 km/h
1703 09-05-2006 19:58:02 18.7 C 6.56 g/m*3 18.7 C 0 km/h
1704 09-05-2006 20:08:01 18.9 C 6.32 g/m*3 18.9 C 0 km/h
1705 09-05-2006 20:18:01 19 C 6.52 g/m*3 19 C 0 km/h
1706 09-05-2006 20:28:01 18.9 C 6.8 g/m*3 18.9 C 0 km/h
1707 09-05-2006 20:38:02 18.2 C 6.68 g/m*3 18.2 C 0 km/h
1708 09-05-2006 20:48:01 18.1 C 6.64 g/m*3 18.1 C 0 km/h
1709 09-05-2006 20:58:01 18 C 6.3 g/m*3 18 C 0 km/h
1710 09-05-2006 21:08:02 17.7 C 6.64 g/m*3 17.7 C 0 km/h
1711 09-05-2006 21:18:02 17.6 C 6.75 g/m*3 17.6 C 0 km/h
1712 09-05-2006 21:28:02 17.1 C 6.84 g/m*3 17.1 C 0 km/h
1713 09-05-2006 21:38:02 16.8 C 7.01 g/m*3 16.8 C 0 km/h
1714 09-05-2006 21:48:02 16.6 C 6.92 g/m*3 16.6 C 0 km/h
1715 09-05-2006 21:58:02 16.6 C 7.06 g/m*3 16.6 C 0 km/h
1716 09-05-2006 22:08:02 16.7 C 7.11 g/m*3 16.7 C 0 km/h
1717 09-05-2006 22:19:03 16.8 C 7.43 g/m*3 16.8 C 0 km/h
1718 09-05-2006 22:29:03 16.8 C 7.43 g/m*3 16.8 C 0 km/h
1719 09-05-2006 22:39:03 15.5 C 8.99 g/m*3 15.5 C 0 km/h
1720 09-05-2006 22:49:03 14.5 C 9.58 g/m*3 14.5 C 0 km/h
1721 09-05-2006 22:59:03 14 C 9.53 g/m*3 14 C 0 km/h
1722 09-05-2006 23:09:03 14.1 C 9.59 g/m*3 14.1 C 0 km/h
1723 09-05-2006 23:19:03 14.5 C 9.58 g/m*3 14.5 C 0 km/h
1724 09-05-2006 23:29:03 14.5 C 9.58 g/m*3 14.5 C 0 km/h
1725 09-05-2006 23:39:03 14.1 C 9.83 g/m*3 14.1 C 0 km/h
Sensor: Nr:Datum:Temp:Abs-Feuchte:Windchill:Wind:
Aussen-T/F 1726 09-05-2006 23:49:03 13.6 C 9.77 g/m*3 13.6 C 0 km/h
1727 09-05-2006 23:59:03 13.3 C 9.7 g/m*3 13.3 C 0 km/h
1728 10-05-2006 00:09:03 13.3 C 9.82 g/m*3 13.3 C 0 km/h
1729 10-05-2006 00:19:04 13.3 C 9.94 g/m*3 13.3 C 0 km/h
1730 10-05-2006 00:29:04 13.1 C 9.7 g/m*3 13.1 C 0 km/h
1731 10-05-2006 00:39:04 12.9 C 9.69 g/m*3 12.9 C 0 km/h
1732 10-05-2006 00:49:04 12.7 C 9.57 g/m*3 12.7 C 0 km/h
1733 10-05-2006 00:59:04 12.8 C 9.63 g/m*3 12.8 C 0 km/h
1734 10-05-2006 01:09:04 12.9 C 9.69 g/m*3 12.9 C 0 km/h
1735 10-05-2006 01:19:04 12.9 C 9.69 g/m*3 12.9 C 0 km/h
1736 10-05-2006 01:29:04 12.8 C 9.63 g/m*3 12.8 C 0 km/h
1737 10-05-2006 01:39:04 12.5 C 9.46 g/m*3 12.5 C 0 km/h
1738 10-05-2006 01:49:04 12.5 C 9.46 g/m*3 12.5 C 0 km/h
1739 10-05-2006 01:59:04 12.6 C 9.51 g/m*3 12.6 C 0 km/h
1740 10-05-2006 02:09:04 12.5 C 9.46 g/m*3 12.5 C 0 km/h
1741 10-05-2006 02:19:04 12.5 C 9.57 g/m*3 12.5 C 0 km/h
1742 10-05-2006 02:29:04 12.4 C 9.51 g/m*3 12.4 C 0 km/h
1743 10-05-2006 02:39:04 12.4 C 9.51 g/m*3 12.4 C 0 km/h
1744 10-05-2006 02:49:04 12.4 C 9.4 g/m*3 12.4 C 0 km/h
1745 10-05-2006 02:59:05 12.5 C 9.46 g/m*3 12.5 C 0 km/h
1746 10-05-2006 03:09:05 12.2 C 9.28 g/m*3 12.2 C 0 km/h
1747 10-05-2006 03:19:05 12.2 C 9.28 g/m*3 12.2 C 0 km/h
1748 10-05-2006 03:29:05 12.2 C 9.28 g/m*3 12.2 C 0 km/h
1749 10-05-2006 03:39:05 12.1 C 9.22 g/m*3 12.1 C 0 km/h
1750 10-05-2006 03:49:05 12 C 9.17 g/m*3 12 C 0 km/h
Sensor: Nr:Datum:Temp:Abs-Feuchte:Windchill:Wind:
Aussen-T/F 1751 10-05-2006 03:59:05 11.9 C 9.21 g/m*3 11.9 C 0 km/h
1752 10-05-2006 04:09:05 11.8 C 9.16 g/m*3 11.8 C 0 km/h
1753 10-05-2006 04:19:05 11.6 C 9.04 g/m*3 11.6 C 0 km/h
1754 10-05-2006 04:29:05 11.4 C 8.93 g/m*3 11.4 C 0 km/h
1755 10-05-2006 04:39:05 11.2 C 8.72 g/m*3 11.2 C 0 km/h
1756 10-05-2006 04:49:05 11.1 C 8.66 g/m*3 11.1 C 0 km/h
1757 10-05-2006 04:59:05 11 C 8.71 g/m*3 11 C 0 km/h
1758 10-05-2006 05:09:05 11 C 8.71 g/m*3 11 C 0 km/h
1759 10-05-2006 05:19:05 11.1 C 8.76 g/m*3 11.1 C 0 km/h
1760 10-05-2006 05:29:05 11.1 C 8.76 g/m*3 11.1 C 0 km/h
1761 10-05-2006 05:39:06 11.2 C 8.82 g/m*3 11.2 C 0 km/h
1762 10-05-2006 05:49:06 11.3 C 8.87 g/m*3 11.3 C 0 km/h
1763 10-05-2006 05:59:06 11.3 C 8.77 g/m*3 11.3 C 0 km/h
1764 10-05-2006 06:09:06 11.3 C 8.67 g/m*3 11.3 C 0 km/h
1765 10-05-2006 06:19:06 11.5 C 8.78 g/m*3 11.5 C 0 km/h
1766 10-05-2006 06:29:06 11.6 C 8.83 g/m*3 11.6 C 0 km/h
1767 10-05-2006 06:39:06 11.8 C 8.84 g/m*3 11.8 C 0 km/h
1768 10-05-2006 06:49:06 11.9 C 8.79 g/m*3 11.9 C 0 km/h
1769 10-05-2006 06:59:06 11.9 C 8.79 g/m*3 11.9 C 0 km/h
1770 10-05-2006 07:09:06 12.1 C 8.79 g/m*3 12.1 C 0 km/h
1771 10-05-2006 07:19:02 12.3 C 8.8 g/m*3 12.3 C 0 km/h
1772 10-05-2006 07:29:02 12.7 C 8.91 g/m*3 12.7 C 0 km/h
1773 10-05-2006 07:39:02 12.5 C 8.8 g/m*3 12.5 C 0 km/h
1774 10-05-2006 07:49:02 12.7 C 8.79 g/m*3 12.7 C 0 km/h
1775 10-05-2006 07:59:02 12.8 C 8.85 g/m*3 12.8 C 0 km/h
Sensor: Nr:Datum:Temp:Abs-Feuchte:Windchill:Wind:
Aussen-T/F 1776 10-05-2006 08:09:03 13 C 8.85 g/m*3 13 C 0 km/h
1777 10-05-2006 08:19:03 13.4 C 8.83 g/m*3 13.4 C 0 km/h
1778 10-05-2006 08:29:03 13.2 C 8.73 g/m*3 13.2 C 0 km/h
1779 10-05-2006 08:39:02 13.5 C 8.89 g/m*3 13.5 C 0 km/h
1780 10-05-2006 08:49:02 13.9 C 8.87 g/m*3 13.9 C 0 km/h
1781 10-05-2006 08:59:02 14.3 C 8.85 g/m*3 14.3 C 0 km/h
1782 10-05-2006 09:09:02 14.5 C 8.71 g/m*3 14.5 C 0 km/h
1783 10-05-2006 09:19:02 14.8 C 8.87 g/m*3 14.8 C 0 km/h
1784 10-05-2006 09:29:02 14.7 C 8.69 g/m*3 14.7 C 0 km/h
1785 10-05-2006 09:39:01 14.7 C 8.69 g/m*3 14.7 C 0 km/h
1786 10-05-2006 09:49:02 15 C 8.72 g/m*3 15 C 0 km/h
1787 10-05-2006 09:59:02 15 C 8.59 g/m*3 15 C 0 km/h
1788 10-05-2006 10:09:02 15.5 C 8.99 g/m*3 15.5 C 0 km/h
1789 10-05-2006 10:19:01 15.9 C 9.07 g/m*3 15.9 C 0 km/h
1790 10-05-2006 10:29:01 16.2 C 8.96 g/m*3 16.2 C 0 km/h
1791 10-05-2006 10:39:01 16.6 C 9.04 g/m*3 16.6 C 0 km/h
1792 10-05-2006 10:49:02 17 C 8.83 g/m*3 17 C 0 km/h
1793 10-05-2006 10:59:02 17.3 C 8.54 g/m*3 17.3 C 0 km/h
1794 10-05-2006 11:09:01 17.5 C 8.65 g/m*3 17.5 C 0 km/h
1795 10-05-2006 11:19:01 17.7 C 8.45 g/m*3 17.7 C 0 km/h
1796 10-05-2006 11:29:01 17.8 C 8.35 g/m*3 17.8 C 0 km/h
1797 10-05-2006 11:39:01 18.4 C 8.18 g/m*3 18.4 C 0 km/h
1798 10-05-2006 11:49:02 18.7 C 8.17 g/m*3 18.7 C 0 km/h
1799 10-05-2006 11:59:02 19.1 C 7.87 g/m*3 19.1 C 0 km/h
1800 10-05-2006 12:09:02 19.4 C 7.84 g/m*3 19.4 C 0 km/h
Sensor: Nr:Datum:Temp:Abs-Feuchte:Windchill:Wind:
Aussen-T/F 1801 10-05-2006 12:19:01 20.4 C 7.78 g/m*3 20.4 C 0 km/h
1802 10-05-2006 12:29:01 21.1 C 7.55 g/m*3 21.1 C 0 km/h
1803 10-05-2006 12:39:01 21.3 C 7.27 g/m*3 21.3 C 0 km/h
1804 10-05-2006 12:49:02 22 C 6.79 g/m*3 22 C 0 km/h
1805 10-05-2006 12:59:03 22.4 C 6.55 g/m*3 22.4 C 0 km/h
1806 10-05-2006 13:09:01 23.3 C 6.48 g/m*3 23.3 C 0 km/h
1807 10-05-2006 13:19:01 23.9 C 6.06 g/m*3 23.9 C 0 km/h
1808 10-05-2006 13:29:01 24.1 C 5.47 g/m*3 24.1 C 0 km/h
1809 10-05-2006 13:39:02 24.5 C 5.37 g/m*3 24.5 C 0 km/h
1810 10-05-2006 13:49:02 24.5 C 4.7 g/m*3 24.5 C 0 km/h
1811 10-05-2006 13:59:03 24.5 C 4.7 g/m*3 24.5 C 0 km/h
1812 10-05-2006 14:09:01 24.4 C 4.67 g/m*3 24.4 C 0 km/h
1813 10-05-2006 14:19:01 24.7 C 4.75 g/m*3 24.7 C 0 km/h
1814 10-05-2006 14:29:01 24.6 C 4.5 g/m*3 24.6 C 0 km/h
1815 10-05-2006 14:39:02 25.3 C 4.92 g/m*3 25.3 C 0 km/h
1816 10-05-2006 14:49:02 26.1 C 4.9 g/m*3 26.1 C 0 km/h
1817 10-05-2006 14:59:02 26.7 C 5.32 g/m*3 26.7 C 0 km/h
1818 10-05-2006 15:09:02 26.8 C 5.09 g/m*3 26.8 C 0 km/h
1819 10-05-2006 15:19:02 26.9 C 5.12 g/m*3 26.9 C 0 km/h
1820 10-05-2006 15:29:02 27.3 C 5.23 g/m*3 27.3 C 0 km/h
1821 10-05-2006 15:39:03 28 C 5.44 g/m*3 28 C 0 km/h
1822 10-05-2006 15:49:02 28.1 C 5.47 g/m*3 28.1 C 0 km/h
1823 10-05-2006 15:59:02 28.5 C 5.59 g/m*3 28.5 C 0 km/h
1824 10-05-2006 16:09:02 28.7 C 5.65 g/m*3 28.7 C 0 km/h
1825 10-05-2006 16:19:02 28.7 C 5.65 g/m*3 28.7 C 0 km/h
Sensor: Nr:Datum:Temp:Abs-Feuchte:Windchill:Wind:
Aussen-T/F 1826 10-05-2006 16:29:02 28.8 C 5.68 g/m*3 28.8 C 0 km/h
1827 10-05-2006 16:39:03 28.8 C 5.68 g/m*3 28.8 C 0 km/h
1828 10-05-2006 16:49:02 29.2 C 5.81 g/m*3 29.2 C 0 km/h
1829 10-05-2006 16:59:03 29.5 C 5.9 g/m*3 29.5 C 0 km/h
1830 10-05-2006 17:09:02 29.8 C 6 g/m*3 29.8 C 0 km/h
1831 10-05-2006 17:19:02 29.6 C 5.94 g/m*3 29.6 C 0 km/h
1832 10-05-2006 17:29:02 29.8 C 6 g/m*3 29.8 C 0 km/h
1833 10-05-2006 17:39:03 30.1 C 6.1 g/m*3 30.1 C 0 km/h
1834 10-05-2006 17:49:02 30.1 C 6.1 g/m*3 30.1 C 0 km/h
1835 10-05-2006 17:59:02 30.1 C 6.1 g/m*3 30.1 C 0 km/h
1836 10-05-2006 18:09:02 30.1 C 6.1 g/m*3 30.1 C 0 km/h
1837 10-05-2006 18:19:02 30 C 6.06 g/m*3 30 C 0 km/h
1838 10-05-2006 18:29:02 30.1 C 6.1 g/m*3 30.1 C 0 km/h
1839 10-05-2006 18:39:02 30.4 C 6.2 g/m*3 30.4 C 0 km/h
1840 10-05-2006 18:49:02 30.2 C 6.13 g/m*3 30.2 C 0 km/h
1841 10-05-2006 18:59:02 29.4 C 5.87 g/m*3 29.4 C 0 km/h
1842 10-05-2006 19:09:02 29 C 5.74 g/m*3 29 C 0 km/h
1843 10-05-2006 19:19:01 29.2 C 5.81 g/m*3 29.2 C 0 km/h
1844 10-05-2006 19:29:01 28.7 C 5.65 g/m*3 28.7 C 0 km/h
1845 10-05-2006 19:39:02 28.5 C 5.59 g/m*3 28.5 C 0 km/h
1846 10-05-2006 19:49:02 27.5 C 5.29 g/m*3 27.5 C 0 km/h
1847 10-05-2006 19:59:02 26.9 C 5.12 g/m*3 26.9 C 0 km/h
1848 10-05-2006 20:09:01 26.1 C 4.9 g/m*3 26.1 C 0 km/h
1849 10-05-2006 20:19:02 25.3 C 4.68 g/m*3 25.3 C 0 km/h
1850 10-05-2006 20:29:02 24.5 C 4.48 g/m*3 24.5 C 0 km/h
Sensor: Nr:Datum:Temp:Abs-Feuchte:Windchill:Wind:
Aussen-T/F 1851 10-05-2006 20:39:02 23.5 C 4.65 g/m*3 23.5 C 0 km/h
1852 10-05-2006 20:49:03 22.3 C 4.54 g/m*3 22.3 C 0 km/h
1853 10-05-2006 20:59:03 21.2 C 4.82 g/m*3 21.2 C 0 km/h
1854 10-05-2006 21:09:03 20.6 C 5.01 g/m*3 20.6 C 0 km/h
1855 10-05-2006 21:19:02 20.2 C 4.9 g/m*3 20.2 C 0 km/h
1856 10-05-2006 21:29:03 19.7 C 5.09 g/m*3 19.7 C 0 km/h
1857 10-05-2006 21:39:02 19.3 C 5.14 g/m*3 19.3 C 0 km/h
1858 10-05-2006 21:49:02 19 C 5.05 g/m*3 19 C 0 km/h
1859 10-05-2006 21:59:03 18.8 C 5.15 g/m*3 18.8 C 0 km/h
1860 10-05-2006 22:09:01 18.3 C 5 g/m*3 18.3 C 0 km/h
1861 10-05-2006 22:19:01 18.1 C 5.1 g/m*3 18.1 C 0 km/h
1862 10-05-2006 22:29:01 17.8 C 5.16 g/m*3 17.8 C 0 km/h
1863 10-05-2006 22:39:02 17.6 C 5.25 g/m*3 17.6 C 0 km/h
1864 10-05-2006 22:49:02 17.2 C 5.42 g/m*3 17.2 C 0 km/h
1865 10-05-2006 22:59:02 16.6 C 5.65 g/m*3 16.6 C 0 km/h
1866 10-05-2006 23:09:02 16.5 C 5.76 g/m*3 16.5 C 0 km/h
1867 10-05-2006 23:19:01 16 C 5.59 g/m*3 16 C 0 km/h
1868 10-05-2006 23:29:01 15.8 C 5.79 g/m*3 15.8 C 0 km/h
1869 10-05-2006 23:39:02 15.6 C 5.85 g/m*3 15.6 C 0 km/h
1870 10-05-2006 23:49:02 15.2 C 5.84 g/m*3 15.2 C 0 km/h
1871 10-05-2006 23:59:03 15.1 C 5.68 g/m*3 15.1 C 0 km/h
1872 11-05-2006 00:09:02 14.8 C 5.83 g/m*3 14.8 C 0 km/h
1873 11-05-2006 00:19:02 14.4 C 5.69 g/m*3 14.4 C 0 km/h
1874 11-05-2006 00:29:03 14.5 C 5.72 g/m*3 14.5 C 0 km/h
1875 11-05-2006 00:39:02 13.9 C 5.87 g/m*3 13.9 C 0 km/h
Sensor: Nr:Datum:Temp:Abs-Feuchte:Windchill:Wind:
Aussen-T/F 1876 11-05-2006 00:49:02 13.4 C 5.81 g/m*3 13.4 C 0 km/h
1877 11-05-2006 00:59:02 13.4 C 5.93 g/m*3 13.4 C 0 km/h
1878 11-05-2006 01:09:02 13.3 C 5.89 g/m*3 13.3 C 0 km/h
1879 11-05-2006 01:19:02 13.4 C 6.16 g/m*3 13.4 C 0 km/h
1880 11-05-2006 01:29:03 13.2 C 6.09 g/m*3 13.2 C 0 km/h
1881 11-05-2006 01:39:02 13 C 6.12 g/m*3 13 C 0 km/h
1882 11-05-2006 01:49:02 12.9 C 6.31 g/m*3 12.9 C 0 km/h
1883 11-05-2006 01:59:02 12.4 C 6.23 g/m*3 12.4 C 0 km/h
1884 11-05-2006 02:09:02 12.4 C 6.34 g/m*3 12.4 C 0 km/h
1885 11-05-2006 02:19:02 12.1 C 6.33 g/m*3 12.1 C 0 km/h
1886 11-05-2006 02:29:02 11.8 C 6.42 g/m*3 11.8 C 0 km/h
1887 11-05-2006 02:39:02 11.6 C 6.44 g/m*3 11.6 C 0 km/h
1888 11-05-2006 02:50:04 11.2 C 6.49 g/m*3 11.2 C 0 km/h
1889 11-05-2006 03:00:04 11.1 C 6.55 g/m*3 11.1 C 0 km/h
1890 11-05-2006 03:10:03 10.8 C 6.62 g/m*3 10.8 C 0 km/h
1891 11-05-2006 03:20:03 10.6 C 6.54 g/m*3 10.6 C 0 km/h
1892 11-05-2006 03:30:03 10.7 C 6.58 g/m*3 10.7 C 0 km/h
1893 11-05-2006 03:40:02 10.7 C 6.48 g/m*3 10.7 C 0 km/h
1894 11-05-2006 03:50:02 10.5 C 6.4 g/m*3 10.5 C 0 km/h
1895 11-05-2006 04:00:02 10.4 C 6.46 g/m*3 10.4 C 0 km/h
1896 11-05-2006 04:10:02 10.3 C 6.42 g/m*3 10.3 C 0 km/h
1897 11-05-2006 04:20:02 10.1 C 6.43 g/m*3 10.1 C 0 km/h
1898 11-05-2006 04:30:02 10.1 C 6.52 g/m*3 10.1 C 0 km/h
1899 11-05-2006 04:40:02 9.9 C 6.44 g/m*3 9.9 C 0 km/h
1900 11-05-2006 04:50:02 9.8 C 6.49 g/m*3 9.8 C 0 km/h
Sensor: Nr:Datum:Temp:Abs-Feuchte:Windchill:Wind:
Aussen-T/F 1901 11-05-2006 05:00:02 9.6 C 6.41 g/m*3 9.6 C 0 km/h
1902 11-05-2006 05:10:02 9.5 C 6.46 g/m*3 9.5 C 0 km/h
1903 11-05-2006 05:20:02 9.3 C 6.47 g/m*3 9.3 C 0 km/h
1904 11-05-2006 05:30:02 9.2 C 6.43 g/m*3 9.2 C 0 km/h
1905 11-05-2006 05:40:02 9.1 C 6.39 g/m*3 9.1 C 0 km/h
1906 11-05-2006 05:50:02 9 C 6.44 g/m*3 9 C 0 km/h
1907 11-05-2006 06:00:03 8.9 C 6.57 g/m*3 8.9 C 0 km/h
1908 11-05-2006 06:10:02 8.9 C 6.66 g/m*3 8.9 C 0 km/h
1909 11-05-2006 06:20:02 8.7 C 6.57 g/m*3 8.7 C 0 km/h
1910 11-05-2006 06:30:02 8.5 C 6.57 g/m*3 8.5 C 0 km/h
1911 11-05-2006 06:40:02 8.7 C 6.75 g/m*3 8.7 C 0 km/h
1912 11-05-2006 06:50:02 8.7 C 6.66 g/m*3 8.7 C 0 km/h
1913 11-05-2006 07:00:02 8.6 C 6.62 g/m*3 8.6 C 0 km/h
1914 11-05-2006 07:10:02 8.7 C 6.66 g/m*3 8.7 C 0 km/h
1915 11-05-2006 07:20:02 8.7 C 6.75 g/m*3 8.7 C 0 km/h
1916 11-05-2006 07:30:03 8.9 C 6.66 g/m*3 8.9 C 0 km/h
1917 11-05-2006 07:40:02 9.1 C 6.57 g/m*3 9.1 C 0 km/h
1918 11-05-2006 07:50:02 9.2 C 6.61 g/m*3 9.2 C 0 km/h
1919 11-05-2006 08:00:02 9.4 C 6.69 g/m*3 9.4 C 0 km/h
1920 11-05-2006 08:10:02 9.8 C 6.87 g/m*3 9.8 C 0 km/h
1921 11-05-2006 08:20:02 10 C 6.77 g/m*3 10 C 0 km/h
1922 11-05-2006 08:30:02 10.3 C 6.7 g/m*3 10.3 C 0 km/h
1923 11-05-2006 08:40:02 10.7 C 6.78 g/m*3 10.7 C 0 km/h
1924 11-05-2006 08:50:02 11.1 C 6.65 g/m*3 11.1 C 0 km/h
1925 11-05-2006 09:00:02 11.6 C 6.65 g/m*3 11.6 C 0 km/h
Sensor: Nr:Datum:Temp:Abs-Feuchte:Windchill:Wind:
Aussen-T/F 1926 11-05-2006 09:10:02 12 C 6.61 g/m*3 12 C 0 km/h
1927 11-05-2006 09:20:02 12.7 C 7.01 g/m*3 12.7 C 0 km/h
1928 11-05-2006 09:30:02 13.2 C 6.89 g/m*3 13.2 C 0 km/h
1929 11-05-2006 09:40:03 13.6 C 6.94 g/m*3 13.6 C 0 km/h
1930 11-05-2006 09:50:02 14.1 C 7.04 g/m*3 14.1 C 0 km/h
1931 11-05-2006 10:00:02 14.9 C 7.39 g/m*3 14.9 C 0 km/h
1932 11-05-2006 10:10:02 15.5 C 7.14 g/m*3 15.5 C 0 km/h
1933 11-05-2006 10:20:02 16.3 C 7.35 g/m*3 16.3 C 0 km/h
1934 11-05-2006 10:30:02 17.1 C 7.28 g/m*3 17.1 C 0 km/h
1935 11-05-2006 10:40:03 17.6 C 7.2 g/m*3 17.6 C 0 km/h
1936 11-05-2006 10:50:02 18.3 C 6.88 g/m*3 18.3 C 0 km/h
1937 11-05-2006 11:00:03 19 C 6.84 g/m*3 19 C 0 km/h
1938 11-05-2006 11:10:02 19.7 C 6.79 g/m*3 19.7 C 0 km/h
1939 11-05-2006 11:20:02 20.1 C 6.61 g/m*3 20.1 C 0 km/h
1940 11-05-2006 11:30:02 20.7 C 7.02 g/m*3 20.7 C 0 km/h
1941 11-05-2006 11:40:02 21.2 C 6.67 g/m*3 21.2 C 0 km/h
1942 11-05-2006 11:50:02 21.8 C 6.52 g/m*3 21.8 C 0 km/h
1943 11-05-2006 12:00:03 22.3 C 5.33 g/m*3 22.3 C 0 km/h
1944 11-05-2006 12:10:02 22.6 C 5.22 g/m*3 22.6 C 0 km/h
1945 11-05-2006 12:20:02 23.4 C 5.26 g/m*3 23.4 C 0 km/h
1946 11-05-2006 12:30:02 23.1 C 4.34 g/m*3 23.1 C 0 km/h
1947 11-05-2006 12:40:02 23.1 C 4.34 g/m*3 23.1 C 0 km/h
1948 11-05-2006 12:50:02 23.7 C 4.28 g/m*3 23.7 C 0 km/h
1949 11-05-2006 13:00:03 24.9 C 4.58 g/m*3 24.9 C 0 km/h
1950 11-05-2006 13:10:02 25.4 C 4.71 g/m*3 25.4 C 0 km/h
Sensor: Nr:Datum:Temp:Abs-Feuchte:Windchill:Wind:
Aussen-T/F 1951 11-05-2006 13:20:01 25.6 C 4.76 g/m*3 25.6 C 0 km/h
1952 11-05-2006 13:30:01 25.9 C 4.84 g/m*3 25.9 C 0 km/h
1953 11-05-2006 13:40:02 25.4 C 4.71 g/m*3 25.4 C 0 km/h
1954 11-05-2006 13:50:01 25.4 C 4.71 g/m*3 25.4 C 0 km/h
1955 11-05-2006 14:00:01 25.7 C 4.79 g/m*3 25.7 C 0 km/h
1956 11-05-2006 14:10:01 26.1 C 4.9 g/m*3 26.1 C 0 km/h
1957 11-05-2006 14:20:02 26.8 C 5.09 g/m*3 26.8 C 0 km/h
1958 11-05-2006 14:30:02 27.6 C 5.32 g/m*3 27.6 C 0 km/h
1959 11-05-2006 14:40:02 28.1 C 5.47 g/m*3 28.1 C 0 km/h
1960 11-05-2006 14:50:02 28.7 C 5.65 g/m*3 28.7 C 0 km/h
1961 11-05-2006 15:00:03 29.1 C 5.78 g/m*3 29.1 C 0 km/h
1962 11-05-2006 15:10:02 29.3 C 5.84 g/m*3 29.3 C 0 km/h
1963 11-05-2006 15:20:02 29.7 C 5.97 g/m*3 29.7 C 0 km/h
1964 11-05-2006 15:30:02 29.6 C 5.94 g/m*3 29.6 C 0 km/h
1965 11-05-2006 15:40:03 30 C 6.06 g/m*3 30 C 0 km/h
1966 11-05-2006 15:50:02 30.4 C 6.2 g/m*3 30.4 C 0 km/h
1967 11-05-2006 16:00:02 30.8 C 6.33 g/m*3 30.8 C 0 km/h
1968 11-05-2006 16:10:02 30.3 C 6.16 g/m*3 30.3 C 0 km/h
1969 11-05-2006 16:20:02 30.7 C 6.3 g/m*3 30.7 C 0 km/h
1970 11-05-2006 16:30:02 30.7 C 6.3 g/m*3 30.7 C 0 km/h
1971 11-05-2006 16:40:02 30.9 C 6.37 g/m*3 30.9 C 0 km/h
1972 11-05-2006 16:50:02 31.3 C 6.5 g/m*3 31.3 C 0 km/h
1973 11-05-2006 17:00:02 31.2 C 6.47 g/m*3 31.2 C 0 km/h
1974 11-05-2006 17:10:02 31.2 C 6.47 g/m*3 31.2 C 0 km/h
1975 11-05-2006 17:20:02 30.7 C 6.3 g/m*3 30.7 C 0 km/h
Sensor: Nr:Datum:Temp:Abs-Feuchte:Windchill:Wind:
Aussen-T/F 1976 11-05-2006 17:30:02 31 C 6.4 g/m*3 31 C 0 km/h
1977 11-05-2006 17:40:02 31.4 C 6.54 g/m*3 31.4 C 0 km/h
1978 11-05-2006 17:50:02 31.6 C 6.61 g/m*3 31.6 C 0 km/h
1979 11-05-2006 18:00:02 31.5 C 6.57 g/m*3 31.5 C 0 km/h
1980 11-05-2006 18:10:02 31.4 C 6.54 g/m*3 31.4 C 0 km/h
1981 11-05-2006 18:20:02 31.3 C 6.5 g/m*3 31.3 C 0 km/h
1982 11-05-2006 18:30:02 31.3 C 6.5 g/m*3 31.3 C 0 km/h
1983 11-05-2006 18:40:02 31.2 C 6.47 g/m*3 31.2 C 0 km/h
1984 11-05-2006 18:50:03 31.2 C 6.47 g/m*3 31.2 C 0 km/h
1985 11-05-2006 19:00:03 31 C 6.4 g/m*3 31 C 0 km/h
1986 11-05-2006 19:10:03 30.7 C 6.3 g/m*3 30.7 C 0 km/h
1987 11-05-2006 19:20:02 30.6 C 6.26 g/m*3 30.6 C 0 km/h
1988 11-05-2006 19:30:03 30.5 C 6.23 g/m*3 30.5 C 0 km/h
1989 11-05-2006 19:40:02 30.3 C 6.16 g/m*3 30.3 C 0 km/h
1990 11-05-2006 19:50:02 29.5 C 5.9 g/m*3 29.5 C 0 km/h
1991 11-05-2006 20:00:03 28.8 C 5.68 g/m*3 28.8 C 0 km/h
1992 11-05-2006 20:10:01 27.4 C 5.26 g/m*3 27.4 C 0 km/h
1993 11-05-2006 20:20:01 26.5 C 5.01 g/m*3 26.5 C 0 km/h
1994 11-05-2006 20:30:01 25.5 C 4.73 g/m*3 25.5 C 0 km/h
1995 11-05-2006 20:40:02 24.1 C 4.38 g/m*3 24.1 C 0 km/h
1996 11-05-2006 20:50:01 23.1 C 4.13 g/m*3 23.1 C 0 km/h
1997 11-05-2006 21:00:02 22 C 3.88 g/m*3 22 C 0 km/h
1998 11-05-2006 21:10:01 21 C 3.85 g/m*3 21 C 0 km/h
1999 11-05-2006 21:20:01 20.5 C 3.91 g/m*3 20.5 C 0 km/h
2000 11-05-2006 21:30:01 20.3 C 3.52 g/m*3 20.3 C 0 km/h
Sensor: Nr:Datum:Temp:Abs-Feuchte:Windchill:Wind:
Aussen-T/F 2001 11-05-2006 21:40:01 20 C 3.63 g/m*3 20 C 0 km/h
2002 11-05-2006 21:50:01 19.5 C 3.52 g/m*3 19.5 C 0 km/h
2003 11-05-2006 22:00:02 19.1 C 3.61 g/m*3 19.1 C 0 km/h
2004 11-05-2006 22:10:01 19.1 C 3.77 g/m*3 19.1 C 0 km/h
2005 11-05-2006 22:20:01 18.6 C 3.66 g/m*3 18.6 C 0 km/h
2006 11-05-2006 22:30:02 18.5 C 3.96 g/m*3 18.5 C 0 km/h
2007 11-05-2006 22:40:02 18.2 C 3.89 g/m*3 18.2 C 0 km/h
2008 11-05-2006 22:50:02 17.8 C 3.95 g/m*3 17.8 C 0 km/h
2009 11-05-2006 23:00:02 17.5 C 4.17 g/m*3 17.5 C 0 km/h
2010 11-05-2006 23:10:02 17.2 C 4.39 g/m*3 17.2 C 0 km/h
2011 11-05-2006 23:20:02 16.5 C 4.77 g/m*3 16.5 C 0 km/h
2012 11-05-2006 23:30:02 16.4 C 4.61 g/m*3 16.4 C 0 km/h
2013 11-05-2006 23:40:02 16 C 4.63 g/m*3 16 C 0 km/h
2014 11-05-2006 23:50:02 15.7 C 4.42 g/m*3 15.7 C 0 km/h
2015 12-05-2006 00:00:02 15.5 C 4.63 g/m*3 15.5 C 0 km/h
2016 12-05-2006 00:10:02 15.3 C 4.7 g/m*3 15.3 C 0 km/h
2017 12-05-2006 00:20:02 15.1 C 4.77 g/m*3 15.1 C 0 km/h
2018 12-05-2006 00:30:02 14.9 C 4.84 g/m*3 14.9 C 0 km/h
2019 12-05-2006 00:40:03 14.8 C 4.94 g/m*3 14.8 C 0 km/h
2020 12-05-2006 00:50:03 14.4 C 4.82 g/m*3 14.4 C 0 km/h
2021 12-05-2006 01:00:03 14.3 C 5.04 g/m*3 14.3 C 0 km/h
2022 12-05-2006 01:10:03 13.7 C 5.21 g/m*3 13.7 C 0 km/h
2023 12-05-2006 01:20:03 13.6 C 5.18 g/m*3 13.6 C 0 km/h
2024 12-05-2006 01:30:03 13.4 C 5 g/m*3 13.4 C 0 km/h
2025 12-05-2006 01:40:03 13.3 C 4.85 g/m*3 13.3 C 0 km/h
Sensor: Nr:Datum:Temp:Abs-Feuchte:Windchill:Wind:
Aussen-T/F 2026 12-05-2006 01:50:02 13 C 4.99 g/m*3 13 C 0 km/h
2027 12-05-2006 02:00:02 12.8 C 5.15 g/m*3 12.8 C 0 km/h
2028 12-05-2006 02:10:02 12.5 C 5.28 g/m*3 12.5 C 0 km/h
2029 12-05-2006 02:20:02 12.5 C 5.39 g/m*3 12.5 C 0 km/h
2030 12-05-2006 02:30:02 12.4 C 5.35 g/m*3 12.4 C 0 km/h
2031 12-05-2006 02:40:02 12.3 C 5.43 g/m*3 12.3 C 0 km/h
2032 12-05-2006 02:51:04 12 C 5.33 g/m*3 12 C 0 km/h
2033 12-05-2006 03:01:04 11.8 C 5.47 g/m*3 11.8 C 0 km/h
2034 12-05-2006 03:11:03 11.5 C 5.47 g/m*3 11.5 C 0 km/h
2035 12-05-2006 03:21:03 11.2 C 5.78 g/m*3 11.2 C 0 km/h
2036 12-05-2006 03:31:02 11 C 5.71 g/m*3 11 C 0 km/h
2037 12-05-2006 03:41:02 10.8 C 5.83 g/m*3 10.8 C 0 km/h
2038 12-05-2006 03:51:03 10.8 C 5.73 g/m*3 10.8 C 0 km/h
2039 12-05-2006 04:01:02 10.7 C 5.8 g/m*3 10.7 C 0 km/h
2040 12-05-2006 04:11:02 10.4 C 5.88 g/m*3 10.4 C 0 km/h
2041 12-05-2006 04:21:02 10.1 C 5.86 g/m*3 10.1 C 0 km/h
2042 12-05-2006 04:31:02 9.8 C 5.94 g/m*3 9.8 C 0 km/h
2043 12-05-2006 04:41:02 9.6 C 5.86 g/m*3 9.6 C 0 km/h
2044 12-05-2006 04:51:02 9.6 C 5.86 g/m*3 9.6 C 0 km/h
2045 12-05-2006 05:01:02 9.4 C 5.79 g/m*3 9.4 C 0 km/h
2046 12-05-2006 05:11:02 9.3 C 5.84 g/m*3 9.3 C 0 km/h
2047 12-05-2006 05:21:02 9.3 C 5.84 g/m*3 9.3 C 0 km/h
2048 12-05-2006 05:31:02 9.1 C 5.86 g/m*3 9.1 C 0 km/h
2049 12-05-2006 05:41:02 9 C 5.91 g/m*3 9 C 0 km/h
2050 12-05-2006 05:51:01 8.9 C 5.96 g/m*3 8.9 C 0 km/h
Sensor: Nr:Datum:Temp:Abs-Feuchte:Windchill:Wind:
Aussen-T/F 2051 12-05-2006 06:01:02 8.8 C 5.92 g/m*3 8.8 C 0 km/h
2052 12-05-2006 06:11:02 8.9 C 6.04 g/m*3 8.9 C 0 km/h
2053 12-05-2006 06:21:02 8.8 C 6.09 g/m*3 8.8 C 0 km/h
2054 12-05-2006 06:31:02 8.8 C 6.09 g/m*3 8.8 C 0 km/h
2055 12-05-2006 06:41:02 8.8 C 6.18 g/m*3 8.8 C 0 km/h
2056 12-05-2006 06:51:02 8.9 C 6.22 g/m*3 8.9 C 0 km/h
2057 12-05-2006 07:01:02 9 C 6.26 g/m*3 9 C 0 km/h
2058 12-05-2006 07:11:02 9.3 C 6.38 g/m*3 9.3 C 0 km/h
2059 12-05-2006 07:21:02 9.5 C 6.37 g/m*3 9.5 C 0 km/h
2060 12-05-2006 07:31:02 9.5 C 6.28 g/m*3 9.5 C 0 km/h
2061 12-05-2006 07:41:02 9.6 C 6.32 g/m*3 9.6 C 0 km/h
2062 12-05-2006 07:51:02 9.7 C 6.36 g/m*3 9.7 C 0 km/h
2063 12-05-2006 08:01:02 9.9 C 6.35 g/m*3 9.9 C 0 km/h
2064 12-05-2006 08:11:02 10.2 C 6.38 g/m*3 10.2 C 0 km/h
2065 12-05-2006 08:21:02 10.4 C 6.46 g/m*3 10.4 C 0 km/h
2066 12-05-2006 08:31:03 10.6 C 6.44 g/m*3 10.6 C 0 km/h
2067 12-05-2006 08:41:03 11 C 6.31 g/m*3 11 C 0 km/h
2068 12-05-2006 08:51:02 11.5 C 6.3 g/m*3 11.5 C 0 km/h
2069 12-05-2006 09:01:02 11.9 C 6.25 g/m*3 11.9 C 0 km/h
2070 12-05-2006 09:11:02 12.4 C 6.23 g/m*3 12.4 C 0 km/h
2071 12-05-2006 09:21:02 12.9 C 6.09 g/m*3 12.9 C 0 km/h
2072 12-05-2006 09:31:02 13.3 C 5.78 g/m*3 13.3 C 0 km/h
2073 12-05-2006 09:41:02 14.1 C 5.95 g/m*3 14.1 C 0 km/h
2074 12-05-2006 09:51:02 14.6 C 5.88 g/m*3 14.6 C 0 km/h
2075 12-05-2006 10:01:02 15.5 C 6.21 g/m*3 15.5 C 0 km/h
Sensor: Nr:Datum:Temp:Abs-Feuchte:Windchill:Wind:
Aussen-T/F 2076 12-05-2006 10:11:02 16.4 C 6.56 g/m*3 16.4 C 0 km/h
2077 12-05-2006 10:21:02 16.9 C 6.62 g/m*3 16.9 C 0 km/h
2078 12-05-2006 10:31:02 17.5 C 6.71 g/m*3 17.5 C 0 km/h
2079 12-05-2006 10:41:02 18.4 C 7.08 g/m*3 18.4 C 0 km/h
2080 12-05-2006 10:51:02 19.1 C 7.05 g/m*3 19.1 C 0 km/h
2081 12-05-2006 11:01:02 19.8 C 7 g/m*3 19.8 C 0 km/h
2082 12-05-2006 11:11:02 20.4 C 7.25 g/m*3 20.4 C 0 km/h
2083 12-05-2006 11:21:01 21.1 C 7.19 g/m*3 21.1 C 0 km/h
2084 12-05-2006 11:31:02 21.8 C 7.29 g/m*3 21.8 C 0 km/h
2085 12-05-2006 11:41:02 22.6 C 7.63 g/m*3 22.6 C 0 km/h
2086 12-05-2006 11:51:02 23.4 C 7.36 g/m*3 23.4 C 0 km/h
2087 12-05-2006 12:01:01 23.5 C 7.4 g/m*3 23.5 C 0 km/h
2088 12-05-2006 12:11:01 22.3 C 7.9 g/m*3 22.3 C 0 km/h
2089 12-05-2006 12:21:01 21.3 C 8.2 g/m*3 21.3 C 0 km/h
2090 12-05-2006 12:31:02 22.2 C 8.25 g/m*3 22.2 C 0 km/h
2091 12-05-2006 12:41:02 24.4 C 6.9 g/m*3 24.4 C 0 km/h
2092 12-05-2006 12:51:02 24.6 C 5.63 g/m*3 24.6 C 0 km/h
2093 12-05-2006 13:01:01 24.5 C 4.92 g/m*3 24.5 C 0 km/h
2094 12-05-2006 13:11:01 25.4 C 6.12 g/m*3 25.4 C 0 km/h
2095 12-05-2006 13:21:01 26.2 C 5.91 g/m*3 26.2 C 0 km/h
2096 12-05-2006 13:31:02 26.5 C 5.01 g/m*3 26.5 C 0 km/h
2097 12-05-2006 13:41:02 26 C 4.87 g/m*3 26 C 0 km/h
2098 12-05-2006 13:51:02 26.2 C 4.92 g/m*3 26.2 C 0 km/h
2099 12-05-2006 14:01:02 24.5 C 4.92 g/m*3 24.5 C 0 km/h
2100 12-05-2006 14:11:02 25 C 6.22 g/m*3 25 C 0 km/h
Sensor: Nr:Datum:Temp:Abs-Feuchte:Windchill:Wind:
Aussen-T/F 2101 12-05-2006 14:21:02 26.1 C 5.14 g/m*3 26.1 C 0 km/h
2102 12-05-2006 14:31:02 26.3 C 4.95 g/m*3 26.3 C 0 km/h
2103 12-05-2006 14:41:02 26.7 C 5.06 g/m*3 26.7 C 0 km/h
2104 12-05-2006 14:51:03 27.3 C 5.23 g/m*3 27.3 C 0 km/h
2105 12-05-2006 15:01:03 27.1 C 5.18 g/m*3 27.1 C 0 km/h
2106 12-05-2006 15:11:03 26.9 C 5.12 g/m*3 26.9 C 0 km/h
2107 12-05-2006 15:21:02 27.3 C 5.23 g/m*3 27.3 C 0 km/h
2108 12-05-2006 15:31:02 27.6 C 5.32 g/m*3 27.6 C 0 km/h
2109 12-05-2006 15:41:02 28.4 C 5.56 g/m*3 28.4 C 0 km/h
2110 12-05-2006 15:51:01 27.9 C 5.41 g/m*3 27.9 C 0 km/h
2111 12-05-2006 16:01:01 28 C 5.44 g/m*3 28 C 0 km/h
2112 12-05-2006 16:11:01 28.6 C 5.62 g/m*3 28.6 C 0 km/h
2113 12-05-2006 16:21:02 28.6 C 5.62 g/m*3 28.6 C 0 km/h
2114 12-05-2006 16:31:02 27.5 C 5.29 g/m*3 27.5 C 0 km/h
2115 12-05-2006 16:41:02 26 C 4.87 g/m*3 26 C 0 km/h
2116 12-05-2006 16:51:02 27.2 C 5.2 g/m*3 27.2 C 0 km/h
2117 12-05-2006 17:01:02 27 C 5.4 g/m*3 27 C 0 km/h
2118 12-05-2006 17:11:02 27.6 C 5.32 g/m*3 27.6 C 0 km/h
2119 12-05-2006 17:21:02 28.4 C 5.56 g/m*3 28.4 C 0 km/h
2120 12-05-2006 17:31:03 28.4 C 5.56 g/m*3 28.4 C 0 km/h
2121 12-05-2006 17:41:03 29.1 C 5.78 g/m*3 29.1 C 0 km/h
2122 12-05-2006 17:51:02 28.4 C 5.56 g/m*3 28.4 C 0 km/h
2123 12-05-2006 18:01:02 29.3 C 5.84 g/m*3 29.3 C 0 km/h
2124 12-05-2006 18:11:02 29.3 C 5.84 g/m*3 29.3 C 0 km/h
2125 12-05-2006 18:21:03 28.6 C 5.62 g/m*3 28.6 C 0 km/h
Sensor: Nr:Datum:Temp:Abs-Feuchte:Windchill:Wind:
Aussen-T/F 2126 12-05-2006 18:31:02 29.3 C 5.84 g/m*3 29.3 C 0 km/h
2127 12-05-2006 18:41:02 29.4 C 5.87 g/m*3 29.4 C 0 km/h
2128 12-05-2006 18:51:02 29.5 C 5.9 g/m*3 29.5 C 0 km/h
2129 12-05-2006 19:01:02 29.1 C 5.78 g/m*3 29.1 C 0 km/h
2130 12-05-2006 19:11:02 29 C 5.74 g/m*3 29 C 0 km/h
2131 12-05-2006 19:21:01 29 C 5.74 g/m*3 29 C 0 km/h
2132 12-05-2006 19:31:02 28.9 C 5.71 g/m*3 28.9 C 0 km/h
2133 12-05-2006 19:41:02 28.1 C 5.74 g/m*3 28.1 C 0 km/h
2134 12-05-2006 19:51:02 26.7 C 5.82 g/m*3 26.7 C 0 km/h
2135 12-05-2006 20:01:01 25.4 C 6.36 g/m*3 25.4 C 0 km/h
2136 12-05-2006 20:11:01 24.5 C 6.04 g/m*3 24.5 C 0 km/h
2137 12-05-2006 20:21:01 24.1 C 5.91 g/m*3 24.1 C 0 km/h
2138 12-05-2006 20:31:02 23.2 C 6.24 g/m*3 23.2 C 0 km/h
2139 12-05-2006 20:41:02 22.8 C 6.3 g/m*3 22.8 C 0 km/h
2140 12-05-2006 20:51:02 22.4 C 6.36 g/m*3 22.4 C 0 km/h
2141 12-05-2006 21:01:01 22 C 6.4 g/m*3 22 C 0 km/h
2142 12-05-2006 21:11:01 21.5 C 6.6 g/m*3 21.5 C 0 km/h
2143 12-05-2006 21:21:02 20.8 C 6.88 g/m*3 20.8 C 0 km/h
2144 12-05-2006 21:31:01 20.5 C 6.94 g/m*3 20.5 C 0 km/h
2145 12-05-2006 21:41:01 20.2 C 6.99 g/m*3 20.2 C 0 km/h
2146 12-05-2006 21:51:02 20.2 C 7.17 g/m*3 20.2 C 0 km/h
2147 12-05-2006 22:01:02 20 C 7.26 g/m*3 20 C 0 km/h
2148 12-05-2006 22:11:02 19.7 C 7.3 g/m*3 19.7 C 0 km/h
2149 12-05-2006 22:21:02 19.6 C 7.26 g/m*3 19.6 C 0 km/h
2150 12-05-2006 22:31:02 18.9 C 7.45 g/m*3 18.9 C 0 km/h
Sensor: Nr:Datum:Temp:Abs-Feuchte:Windchill:Wind:
Aussen-T/F 2151 12-05-2006 22:41:02 18.7 C 7.52 g/m*3 18.7 C 0 km/h
2152 12-05-2006 22:51:02 18.6 C 7.48 g/m*3 18.6 C 0 km/h
2153 12-05-2006 23:01:02 18.5 C 7.91 g/m*3 18.5 C 0 km/h
2154 12-05-2006 23:11:02 18.1 C 7.57 g/m*3 18.1 C 0 km/h
2155 12-05-2006 23:21:01 17.9 C 8.09 g/m*3 17.9 C 0 km/h
2156 12-05-2006 23:31:02 17.8 C 8.04 g/m*3 17.8 C 0 km/h
2157 12-05-2006 23:41:02 17.7 C 8.15 g/m*3 17.7 C 0 km/h
2158 12-05-2006 23:51:02 17.7 C 8 g/m*3 17.7 C 0 km/h
2159 13-05-2006 00:01:02 17.6 C 8.1 g/m*3 17.6 C 0 km/h
2160 13-05-2006 00:11:02 17.7 C 7.85 g/m*3 17.7 C 0 km/h
2161 13-05-2006 00:21:02 17.8 C 7.89 g/m*3 17.8 C 0 km/h
2162 13-05-2006 00:31:02 17.5 C 7.75 g/m*3 17.5 C 0 km/h
2163 13-05-2006 00:41:02 17.3 C 7.96 g/m*3 17.3 C 0 km/h
2164 13-05-2006 00:51:02 17 C 7.81 g/m*3 17 C 0 km/h
2165 13-05-2006 01:01:01 16.8 C 8.15 g/m*3 16.8 C 0 km/h
2166 13-05-2006 01:11:01 16.4 C 8.23 g/m*3 16.4 C 0 km/h
2167 13-05-2006 01:21:02 16.5 C 8.43 g/m*3 16.5 C 0 km/h
2168 13-05-2006 01:31:01 17.3 C 7.96 g/m*3 17.3 C 0 km/h
2169 13-05-2006 01:41:01 17.5 C 7.9 g/m*3 17.5 C 0 km/h
2170 13-05-2006 01:51:02 17.4 C 8 g/m*3 17.4 C 0 km/h
2171 13-05-2006 02:01:02 17 C 8.1 g/m*3 17 C 0 km/h
2172 13-05-2006 02:11:02 16.8 C 8.29 g/m*3 16.8 C 0 km/h
2173 13-05-2006 02:21:02 16 C 9.26 g/m*3 16 C 0 km/h
2174 13-05-2006 02:31:02 15.2 C 9.48 g/m*3 15.2 C 0 km/h
2175 13-05-2006 02:41:02 15.3 C 9.66 g/m*3 15.3 C 0 km/h
Sensor: Nr:Datum:Temp:Abs-Feuchte:Windchill:Wind:
Aussen-T/F 2176 13-05-2006 02:52:04 15.4 C 9.33 g/m*3 15.4 C 0 km/h
2177 13-05-2006 03:02:04 15.4 C 9.2 g/m*3 15.4 C 0 km/h
2178 13-05-2006 03:12:03 15.5 C 9.12 g/m*3 15.5 C 0 km/h
2179 13-05-2006 03:22:03 15.5 C 9.25 g/m*3 15.5 C 0 km/h
2180 13-05-2006 03:32:02 15.4 C 9.33 g/m*3 15.4 C 0 km/h
2181 13-05-2006 03:42:02 15.4 C 9.33 g/m*3 15.4 C 0 km/h
2182 13-05-2006 03:52:02 15 C 9.49 g/m*3 15 C 0 km/h
2183 13-05-2006 04:02:02 15 C 9.23 g/m*3 15 C 0 km/h
2184 13-05-2006 04:12:02 15.1 C 9.29 g/m*3 15.1 C 0 km/h
2185 13-05-2006 04:22:02 14.7 C 9.57 g/m*3 14.7 C 0 km/h
2186 13-05-2006 04:32:02 14.3 C 9.58 g/m*3 14.3 C 0 km/h
2187 13-05-2006 04:42:02 14.2 C 9.52 g/m*3 14.2 C 0 km/h
2188 13-05-2006 04:52:02 14.2 C 9.4 g/m*3 14.2 C 0 km/h
2189 13-05-2006 05:02:02 14.3 C 9.34 g/m*3 14.3 C 0 km/h
2190 13-05-2006 05:12:02 14.4 C 9.27 g/m*3 14.4 C 0 km/h
2191 13-05-2006 05:22:02 14.4 C 9.27 g/m*3 14.4 C 0 km/h
2192 13-05-2006 05:32:02 14.5 C 9.45 g/m*3 14.5 C 0 km/h
2193 13-05-2006 05:42:02 14.5 C 9.58 g/m*3 14.5 C 0 km/h
2194 13-05-2006 05:52:02 14.5 C 9.58 g/m*3 14.5 C 0 km/h
2195 13-05-2006 06:02:03 14.4 C 9.52 g/m*3 14.4 C 0 km/h
2196 13-05-2006 06:12:03 14.2 C 9.52 g/m*3 14.2 C 0 km/h
2197 13-05-2006 06:22:03 14.2 C 9.52 g/m*3 14.2 C 0 km/h
2198 13-05-2006 06:32:02 14.2 C 9.4 g/m*3 14.2 C 0 km/h
2199 13-05-2006 06:42:03 14.4 C 9.39 g/m*3 14.4 C 0 km/h
2200 13-05-2006 06:52:02 14.4 C 9.15 g/m*3 14.4 C 0 km/h
Sensor: Nr:Datum:Temp:Abs-Feuchte:Windchill:Wind:
Aussen-T/F 2201 13-05-2006 07:02:02 14.5 C 9.2 g/m*3 14.5 C 0 km/h
2202 13-05-2006 07:12:02 14.4 C 9.02 g/m*3 14.4 C 0 km/h
2203 13-05-2006 07:22:02 14.5 C 9.08 g/m*3 14.5 C 0 km/h
2204 13-05-2006 07:32:02 14.5 C 8.95 g/m*3 14.5 C 0 km/h
2205 13-05-2006 07:42:02 14.6 C 9.01 g/m*3 14.6 C 0 km/h
2206 13-05-2006 07:52:02 14.8 C 9.12 g/m*3 14.8 C 0 km/h
2207 13-05-2006 08:02:02 14.8 C 9.12 g/m*3 14.8 C 0 km/h
2208 13-05-2006 08:12:02 14.9 C 9.05 g/m*3 14.9 C 0 km/h
2209 13-05-2006 08:22:01 15.1 C 9.03 g/m*3 15.1 C 0 km/h
2210 13-05-2006 08:32:01 15.4 C 9.07 g/m*3 15.4 C 0 km/h
2211 13-05-2006 08:42:01 15.5 C 9.12 g/m*3 15.5 C 0 km/h
2212 13-05-2006 08:52:02 15.5 C 9.12 g/m*3 15.5 C 0 km/h
2213 13-05-2006 09:02:01 15.8 C 9.29 g/m*3 15.8 C 0 km/h
2214 13-05-2006 09:12:01 15.6 C 9.04 g/m*3 15.6 C 0 km/h
2215 13-05-2006 09:22:01 15.8 C 9.15 g/m*3 15.8 C 0 km/h
2216 13-05-2006 09:32:01 15.7 C 9.1 g/m*3 15.7 C 0 km/h
2217 13-05-2006 09:42:01 15.8 C 9.02 g/m*3 15.8 C 0 km/h
2218 13-05-2006 09:52:02 15.8 C 9.02 g/m*3 15.8 C 0 km/h
2219 13-05-2006 10:02:02 15.9 C 9.07 g/m*3 15.9 C 0 km/h
2220 13-05-2006 10:12:02 15.8 C 9.02 g/m*3 15.8 C 0 km/h
2221 13-05-2006 10:22:02 16.1 C 9.05 g/m*3 16.1 C 0 km/h
2222 13-05-2006 10:32:02 16.6 C 9.04 g/m*3 16.6 C 0 km/h
2223 13-05-2006 10:42:02 17 C 8.97 g/m*3 17 C 0 km/h
2224 13-05-2006 10:52:02 16.8 C 9.01 g/m*3 16.8 C 0 km/h
2225 13-05-2006 11:02:01 16.6 C 9.04 g/m*3 16.6 C 0 km/h
Sensor: Nr:Datum:Temp:Abs-Feuchte:Windchill:Wind:
Aussen-T/F 2226 13-05-2006 11:12:01 16.6 C 9.04 g/m*3 16.6 C 0 km/h
2227 13-05-2006 11:22:01 16.6 C 9.04 g/m*3 16.6 C 0 km/h
2228 13-05-2006 11:32:02 16.6 C 9.18 g/m*3 16.6 C 0 km/h
2229 13-05-2006 11:42:02 16.9 C 9.21 g/m*3 16.9 C 0 km/h
2230 13-05-2006 11:52:02 16.9 C 9.06 g/m*3 16.9 C 0 km/h
2231 13-05-2006 12:02:01 16.7 C 8.95 g/m*3 16.7 C 0 km/h
2232 13-05-2006 12:12:01 16.7 C 8.95 g/m*3 16.7 C 0 km/h
2233 13-05-2006 12:22:01 16.8 C 9.01 g/m*3 16.8 C 0 km/h
2234 13-05-2006 12:32:02 18 C 8.91 g/m*3 18 C 0 km/h
2235 13-05-2006 12:42:02 18.2 C 8.55 g/m*3 18.2 C 0 km/h
2236 13-05-2006 12:52:02 18.3 C 8.6 g/m*3 18.3 C 0 km/h
2237 13-05-2006 13:02:02 18.5 C 8.54 g/m*3 18.5 C 0 km/h
2238 13-05-2006 13:12:02 19.5 C 8.39 g/m*3 19.5 C 0 km/h
2239 13-05-2006 13:22:02 19.2 C 8.08 g/m*3 19.2 C 0 km/h
2240 13-05-2006 13:32:01 19.3 C 8.13 g/m*3 19.3 C 0 km/h
2241 13-05-2006 13:42:01 19.8 C 8.37 g/m*3 19.8 C 0 km/h
2242 13-05-2006 13:52:02 19.7 C 8.15 g/m*3 19.7 C 0 km/h
2243 13-05-2006 14:02:02 19.9 C 8.42 g/m*3 19.9 C 0 km/h
2244 13-05-2006 14:12:02 19.6 C 8.44 g/m*3 19.6 C 0 km/h
2245 13-05-2006 14:22:02 19.4 C 8.68 g/m*3 19.4 C 0 km/h
2246 13-05-2006 14:32:02 19.2 C 9.07 g/m*3 19.2 C 0 km/h
2247 13-05-2006 14:42:02 20.1 C 8.52 g/m*3 20.1 C 0 km/h
2248 13-05-2006 14:52:02 20.1 C 8.34 g/m*3 20.1 C 0 km/h
2249 13-05-2006 15:02:02 19.9 C 8.42 g/m*3 19.9 C 0 km/h
2250 13-05-2006 15:12:02 20.1 C 8.34 g/m*3 20.1 C 0 km/h
Sensor: Nr:Datum:Temp:Abs-Feuchte:Windchill:Wind:
Aussen-T/F 2251 13-05-2006 15:22:02 19.7 C 8.32 g/m*3 19.7 C 0 km/h
2252 13-05-2006 15:32:02 18.8 C 8.7 g/m*3 18.8 C 0 km/h
2253 13-05-2006 15:42:02 18.4 C 9.12 g/m*3 18.4 C 0 km/h
2254 13-05-2006 15:52:02 17.5 C 9.69 g/m*3 17.5 C 0 km/h
2255 13-05-2006 16:02:02 17.9 C 9.77 g/m*3 17.9 C 0 km/h
2256 13-05-2006 16:12:02 18.2 C 9.64 g/m*3 18.2 C 0 km/h
2257 13-05-2006 16:22:02 19.6 C 9.12 g/m*3 19.6 C 0 km/h
2258 13-05-2006 16:32:02 18.6 C 8.91 g/m*3 18.6 C 0 km/h
2259 13-05-2006 16:42:02 15.9 C 10.29 g/m*3 15.9 C 0 km/h
2260 13-05-2006 16:52:02 15.8 C 11.31 g/m*3 15.8 C 0 km/h
2261 13-05-2006 17:02:03 15.6 C 11.44 g/m*3 15.6 C 0 km/h
2262 13-05-2006 17:12:03 15.4 C 11.43 g/m*3 15.4 C 0 km/h
2263 13-05-2006 17:22:03 16 C 11.85 g/m*3 16 C 0 km/h
2264 13-05-2006 17:32:03 16.6 C 12.15 g/m*3 16.6 C 0 km/h
2265 13-05-2006 17:42:03 17.3 C 12.08 g/m*3 17.3 C 0 km/h
2266 13-05-2006 17:52:02 18.7 C 12.33 g/m*3 18.7 C 0 km/h
2267 13-05-2006 18:02:02 19.5 C 11.24 g/m*3 19.5 C 0 km/h
2268 13-05-2006 18:12:02 20 C 11.06 g/m*3 20 C 0 km/h
2269 13-05-2006 18:22:02 20.1 C 10.6 g/m*3 20.1 C 0 km/h
2270 13-05-2006 18:32:01 19.2 C 9.73 g/m*3 19.2 C 0 km/h
2271 13-05-2006 18:42:01 19.5 C 11.41 g/m*3 19.5 C 0 km/h
2272 13-05-2006 18:52:02 19.2 C 11.21 g/m*3 19.2 C 0 km/h
2273 13-05-2006 19:02:02 18.9 C 11.66 g/m*3 18.9 C 0 km/h
2274 13-05-2006 19:12:02 18.4 C 11.48 g/m*3 18.4 C 0 km/h
2275 13-05-2006 19:22:01 17.7 C 11.16 g/m*3 17.7 C 0 km/h
Sensor: Nr:Datum:Temp:Abs-Feuchte:Windchill:Wind:
Aussen-T/F 2276 13-05-2006 19:32:02 17.2 C 10.98 g/m*3 17.2 C 0 km/h
2277 13-05-2006 19:42:02 17 C 11.14 g/m*3 17 C 0 km/h
2278 13-05-2006 19:52:01 16.3 C 10.68 g/m*3 16.3 C 0 km/h
2279 13-05-2006 20:02:02 15.9 C 10.56 g/m*3 15.9 C 0 km/h
2280 13-05-2006 20:12:02 15.7 C 10.7 g/m*3 15.7 C 0 km/h
2281 13-05-2006 20:22:01 15.6 C 10.64 g/m*3 15.6 C 0 km/h
2282 13-05-2006 20:32:02 15.7 C 10.84 g/m*3 15.7 C 0 km/h
2283 13-05-2006 20:42:02 15.4 C 10.64 g/m*3 15.4 C 0 km/h
2284 13-05-2006 20:52:02 15.4 C 10.77 g/m*3 15.4 C 0 km/h
2285 13-05-2006 21:02:03 15.1 C 10.58 g/m*3 15.1 C 0 km/h
2286 13-05-2006 21:12:03 15 C 10.51 g/m*3 15 C 0 km/h
2287 13-05-2006 21:22:02 15.1 C 10.58 g/m*3 15.1 C 0 km/h
2288 13-05-2006 21:33:03 15.2 C 10.64 g/m*3 15.2 C 0 km/h
2289 13-05-2006 21:43:03 15.2 C 10.64 g/m*3 15.2 C 0 km/h
2290 13-05-2006 21:53:03 15.2 C 10.77 g/m*3 15.2 C 0 km/h
2291 13-05-2006 22:03:03 14.5 C 9.83 g/m*3 14.5 C 0 km/h
2292 13-05-2006 22:13:03 14.5 C 9.58 g/m*3 14.5 C 0 km/h
2293 13-05-2006 22:23:03 14.4 C 9.64 g/m*3 14.4 C 0 km/h
2294 13-05-2006 22:33:03 14.1 C 9.95 g/m*3 14.1 C 0 km/h
2295 13-05-2006 22:43:03 13.8 C 9.89 g/m*3 13.8 C 0 km/h
2296 13-05-2006 22:53:03 13.5 C 9.71 g/m*3 13.5 C 0 km/h
2297 13-05-2006 23:03:04 13.5 C 9.59 g/m*3 13.5 C 0 km/h
2298 13-05-2006 23:13:04 13.3 C 9.7 g/m*3 13.3 C 0 km/h
2299 13-05-2006 23:23:04 13.2 C 9.76 g/m*3 13.2 C 0 km/h
2300 13-05-2006 23:33:04 13.2 C 9.76 g/m*3 13.2 C 0 km/h
Sensor: Nr:Datum:Temp:Abs-Feuchte:Windchill:Wind:
Aussen-T/F 2301 13-05-2006 23:43:04 13.4 C 9.76 g/m*3 13.4 C 0 km/h
2302 13-05-2006 23:53:04 13.3 C 9.7 g/m*3 13.3 C 0 km/h
2303 14-05-2006 00:03:04 13.3 C 9.59 g/m*3 13.3 C 0 km/h
2304 14-05-2006 00:13:04 13.3 C 9.7 g/m*3 13.3 C 0 km/h
2305 14-05-2006 00:23:04 13.4 C 9.76 g/m*3 13.4 C 0 km/h
2306 14-05-2006 00:33:04 13.3 C 9.59 g/m*3 13.3 C 0 km/h
2307 14-05-2006 00:43:04 13.1 C 9.47 g/m*3 13.1 C 0 km/h
2308 14-05-2006 00:53:04 13.1 C 9.47 g/m*3 13.1 C 0 km/h
2309 14-05-2006 01:03:04 13 C 9.41 g/m*3 13 C 0 km/h
2310 14-05-2006 01:13:04 13 C 9.19 g/m*3 13 C 0 km/h
2311 14-05-2006 01:23:04 13 C 9.19 g/m*3 13 C 0 km/h
2312 14-05-2006 01:33:04 12.8 C 9.07 g/m*3 12.8 C 0 km/h
2313 14-05-2006 01:43:04 12.9 C 9.24 g/m*3 12.9 C 0 km/h
2314 14-05-2006 01:53:05 12.9 C 9.13 g/m*3 12.9 C 0 km/h
2315 14-05-2006 02:03:05 12.9 C 9.13 g/m*3 12.9 C 0 km/h
2316 14-05-2006 02:13:05 13 C 8.96 g/m*3 13 C 0 km/h
2317 14-05-2006 02:23:05 13 C 8.96 g/m*3 13 C 0 km/h
2318 14-05-2006 02:33:05 12.9 C 9.02 g/m*3 12.9 C 0 km/h
2319 14-05-2006 02:43:05 12.9 C 9.02 g/m*3 12.9 C 0 km/h
2320 14-05-2006 02:53:05 12.8 C 8.85 g/m*3 12.8 C 0 km/h
2321 14-05-2006 03:03:05 12.9 C 8.9 g/m*3 12.9 C 0 km/h
2322 14-05-2006 03:13:05 12.9 C 8.79 g/m*3 12.9 C 0 km/h
2323 14-05-2006 03:23:05 12.8 C 8.85 g/m*3 12.8 C 0 km/h
2324 14-05-2006 03:33:05 12.8 C 8.96 g/m*3 12.8 C 0 km/h
2325 14-05-2006 03:43:05 12.7 C 8.91 g/m*3 12.7 C 0 km/h
Sensor: Nr:Datum:Temp:Abs-Feuchte:Windchill:Wind:
Aussen-T/F 2326 14-05-2006 03:53:05 12.7 C 8.91 g/m*3 12.7 C 0 km/h
2327 14-05-2006 04:03:05 12.7 C 8.79 g/m*3 12.7 C 0 km/h
2328 14-05-2006 04:13:05 12.7 C 8.91 g/m*3 12.7 C 0 km/h
2329 14-05-2006 04:23:05 12.7 C 8.79 g/m*3 12.7 C 0 km/h
2330 14-05-2006 04:33:05 12.8 C 8.85 g/m*3 12.8 C 0 km/h
2331 14-05-2006 04:43:05 12.8 C 8.85 g/m*3 12.8 C 0 km/h
2332 14-05-2006 04:53:06 12.8 C 8.85 g/m*3 12.8 C 0 km/h
2333 14-05-2006 05:03:06 12.8 C 8.85 g/m*3 12.8 C 0 km/h
2334 14-05-2006 05:13:06 12.8 C 8.96 g/m*3 12.8 C 0 km/h
2335 14-05-2006 05:23:06 12.7 C 8.91 g/m*3 12.7 C 0 km/h
2336 14-05-2006 05:33:06 12.6 C 8.96 g/m*3 12.6 C 0 km/h
2337 14-05-2006 05:43:06 12.6 C 8.96 g/m*3 12.6 C 0 km/h
2338 14-05-2006 05:53:06 12.6 C 8.96 g/m*3 12.6 C 0 km/h
2339 14-05-2006 06:03:06 12.4 C 8.96 g/m*3 12.4 C 0 km/h
2340 14-05-2006 06:13:06 12.2 C 8.85 g/m*3 12.2 C 0 km/h
2341 14-05-2006 06:23:06 12 C 8.85 g/m*3 12 C 0 km/h
2342 14-05-2006 06:33:06 11.8 C 8.84 g/m*3 11.8 C 0 km/h
2343 14-05-2006 06:43:06 11.8 C 8.95 g/m*3 11.8 C 0 km/h
2344 14-05-2006 06:53:06 11.9 C 9 g/m*3 11.9 C 0 km/h
2345 14-05-2006 07:03:06 12 C 8.95 g/m*3 12 C 0 km/h
2346 14-05-2006 07:13:06 12.1 C 8.9 g/m*3 12.1 C 0 km/h
2347 14-05-2006 07:23:06 12.2 C 8.85 g/m*3 12.2 C 0 km/h
2348 14-05-2006 07:33:06 12.2 C 8.85 g/m*3 12.2 C 0 km/h
2349 14-05-2006 07:43:06 12.5 C 9.02 g/m*3 12.5 C 0 km/h
2350 14-05-2006 07:53:07 12.7 C 9.02 g/m*3 12.7 C 0 km/h
Sensor: Nr:Datum:Temp:Abs-Feuchte:Windchill:Wind:
Aussen-T/F 2351 14-05-2006 08:03:07 12.8 C 9.07 g/m*3 12.8 C 0 km/h
2352 14-05-2006 08:13:07 13 C 8.96 g/m*3 13 C 0 km/h
2353 14-05-2006 08:23:07 13.1 C 9.01 g/m*3 13.1 C 0 km/h
2354 14-05-2006 08:33:07 13.4 C 9.07 g/m*3 13.4 C 0 km/h
2355 14-05-2006 08:43:07 13.6 C 9.18 g/m*3 13.6 C 0 km/h
2356 14-05-2006 08:53:07 14 C 9.17 g/m*3 14 C 0 km/h
2357 14-05-2006 09:03:03 14.7 C 9.32 g/m*3 14.7 C 0 km/h
2358 14-05-2006 09:13:03 15.1 C 9.29 g/m*3 15.1 C 0 km/h
2359 14-05-2006 09:23:03 14.8 C 9.25 g/m*3 14.8 C 0 km/h
2360 14-05-2006 09:33:02 15 C 9.23 g/m*3 15 C 0 km/h
2361 14-05-2006 09:43:02 15.5 C 9.12 g/m*3 15.5 C 0 km/h
2362 14-05-2006 09:53:02 15.9 C 9.07 g/m*3 15.9 C 0 km/h
2363 14-05-2006 10:03:02 16.6 C 9.04 g/m*3 16.6 C 0 km/h
2364 14-05-2006 10:13:02 16.7 C 8.67 g/m*3 16.7 C 0 km/h
2365 14-05-2006 10:23:01 17.5 C 8.5 g/m*3 17.5 C 0 km/h
2366 14-05-2006 10:33:02 17.1 C 8.44 g/m*3 17.1 C 0 km/h
2367 14-05-2006 10:43:02 16.7 C 8.24 g/m*3 16.7 C 0 km/h
2368 14-05-2006 10:53:02 17.2 C 8.35 g/m*3 17.2 C 0 km/h
2369 14-05-2006 11:03:03 17.1 C 8.15 g/m*3 17.1 C 0 km/h
2370 14-05-2006 11:13:03 17.4 C 8.15 g/m*3 17.4 C 0 km/h
2371 14-05-2006 11:23:02 17.3 C 8.1 g/m*3 17.3 C 0 km/h
2372 14-05-2006 11:33:03 17.3 C 7.51 g/m*3 17.3 C 0 km/h
2373 14-05-2006 11:43:03 17 C 7.23 g/m*3 17 C 0 km/h
2374 14-05-2006 11:53:02 17.9 C 7.48 g/m*3 17.9 C 0 km/h
2375 14-05-2006 12:03:01 18.3 C 7.19 g/m*3 18.3 C 0 km/h
Sensor: Nr:Datum:Temp:Abs-Feuchte:Windchill:Wind:
Aussen-T/F 2376 14-05-2006 12:13:01 18.9 C 7.29 g/m*3 18.9 C 0 km/h
2377 14-05-2006 12:23:02 18.6 C 7.48 g/m*3 18.6 C 0 km/h
2378 14-05-2006 12:33:01 18.8 C 7.41 g/m*3 18.8 C 0 km/h
2379 14-05-2006 12:43:01 18.2 C 7.46 g/m*3 18.2 C 0 km/h
2380 14-05-2006 12:53:01 17.7 C 7.69 g/m*3 17.7 C 0 km/h
2381 14-05-2006 13:03:02 17.3 C 8.1 g/m*3 17.3 C 0 km/h
2382 14-05-2006 13:13:02 17.4 C 8.3 g/m*3 17.4 C 0 km/h
2383 14-05-2006 13:23:02 17.5 C 8.5 g/m*3 17.5 C 0 km/h
2384 14-05-2006 13:33:02 17.6 C 8.4 g/m*3 17.6 C 0 km/h
2385 14-05-2006 13:43:02 17.5 C 8.5 g/m*3 17.5 C 0 km/h
2386 14-05-2006 13:53:02 17 C 8.39 g/m*3 17 C 0 km/h
2387 14-05-2006 14:03:02 17.5 C 8.5 g/m*3 17.5 C 0 km/h
2388 14-05-2006 14:13:02 17.4 C 8.45 g/m*3 17.4 C 0 km/h
2389 14-05-2006 14:23:02 17.7 C 8.6 g/m*3 17.7 C 0 km/h
2390 14-05-2006 14:33:02 18 C 8.29 g/m*3 18 C 0 km/h
2391 14-05-2006 14:43:02 17.7 C 8.15 g/m*3 17.7 C 0 km/h
2392 14-05-2006 14:53:02 18.2 C 8.24 g/m*3 18.2 C 0 km/h
2393 14-05-2006 15:03:02 19.5 C 8.22 g/m*3 19.5 C 0 km/h
2394 14-05-2006 15:13:02 19 C 7.82 g/m*3 19 C 0 km/h
2395 14-05-2006 15:23:02 17.6 C 7.8 g/m*3 17.6 C 0 km/h
2396 14-05-2006 15:33:03 17 C 8.1 g/m*3 17 C 0 km/h
2397 14-05-2006 15:43:03 17.1 C 8.15 g/m*3 17.1 C 0 km/h
2398 14-05-2006 15:53:02 17.9 C 8.24 g/m*3 17.9 C 0 km/h
2399 14-05-2006 16:03:02 17.7 C 8 g/m*3 17.7 C 0 km/h
2400 14-05-2006 16:13:02 16.7 C 8.1 g/m*3 16.7 C 0 km/h
Sensor: Nr:Datum:Temp:Abs-Feuchte:Windchill:Wind:
Aussen-T/F 2401 14-05-2006 16:23:02 16.7 C 8.24 g/m*3 16.7 C 0 km/h
2402 14-05-2006 16:33:01 17 C 8.25 g/m*3 17 C 0 km/h
2403 14-05-2006 16:43:01 17.5 C 8.05 g/m*3 17.5 C 0 km/h
2404 14-05-2006 16:53:02 17.9 C 8.24 g/m*3 17.9 C 0 km/h
2405 14-05-2006 17:03:01 18.1 C 8.19 g/m*3 18.1 C 0 km/h
2406 14-05-2006 17:13:01 17.5 C 7.9 g/m*3 17.5 C 0 km/h
2407 14-05-2006 17:23:02 17.1 C 7.71 g/m*3 17.1 C 0 km/h
2408 14-05-2006 17:33:02 17.2 C 7.61 g/m*3 17.2 C 0 km/h
2409 14-05-2006 17:43:02 17.2 C 7.76 g/m*3 17.2 C 0 km/h
2410 14-05-2006 17:53:02 17.7 C 8 g/m*3 17.7 C 0 km/h
2411 14-05-2006 18:03:02 17.6 C 7.95 g/m*3 17.6 C 0 km/h
2412 14-05-2006 18:13:02 17.7 C 8 g/m*3 17.7 C 0 km/h
2413 14-05-2006 18:23:03 18.2 C 7.46 g/m*3 18.2 C 0 km/h
2414 14-05-2006 18:33:02 17.7 C 7.39 g/m*3 17.7 C 0 km/h
2415 14-05-2006 18:43:02 16.9 C 7.62 g/m*3 16.9 C 0 km/h
2416 14-05-2006 18:53:02 17.2 C 7.91 g/m*3 17.2 C 0 km/h
2417 14-05-2006 19:03:02 17.6 C 7.95 g/m*3 17.6 C 0 km/h
2418 14-05-2006 19:13:02 17.5 C 7.6 g/m*3 17.5 C 0 km/h
2419 14-05-2006 19:23:02 17.7 C 7.85 g/m*3 17.7 C 0 km/h
2420 14-05-2006 19:33:02 17.7 C 8 g/m*3 17.7 C 0 km/h
2421 14-05-2006 19:43:02 17.5 C 7.6 g/m*3 17.5 C 0 km/h
2422 14-05-2006 19:53:02 17.4 C 7.56 g/m*3 17.4 C 0 km/h
2423 14-05-2006 20:03:02 17.1 C 7.57 g/m*3 17.1 C 0 km/h
2424 14-05-2006 20:13:02 17.1 C 7.86 g/m*3 17.1 C 0 km/h
2425 14-05-2006 20:23:03 16.9 C 7.91 g/m*3 16.9 C 0 km/h
Sensor: Nr:Datum:Temp:Abs-Feuchte:Windchill:Wind:
Aussen-T/F 2426 14-05-2006 20:33:02 16.4 C 7.96 g/m*3 16.4 C 0 km/h
2427 14-05-2006 20:43:03 15.7 C 8.03 g/m*3 15.7 C 0 km/h
2428 14-05-2006 20:53:02 15 C 8.08 g/m*3 15 C 0 km/h
2429 14-05-2006 21:03:02 14.5 C 8.08 g/m*3 14.5 C 0 km/h
2430 14-05-2006 21:13:02 14.1 C 8.13 g/m*3 14.1 C 0 km/h
2431 14-05-2006 21:23:02 13.6 C 8.24 g/m*3 13.6 C 0 km/h
2432 14-05-2006 21:33:02 13.3 C 8.32 g/m*3 13.3 C 0 km/h
2433 14-05-2006 21:43:02 13.2 C 8.38 g/m*3 13.2 C 0 km/h
2434 14-05-2006 21:53:02 13.1 C 8.44 g/m*3 13.1 C 0 km/h
2435 14-05-2006 22:03:02 12.9 C 8.45 g/m*3 12.9 C 0 km/h
2436 14-05-2006 22:13:02 12.7 C 8.35 g/m*3 12.7 C 0 km/h
2437 14-05-2006 22:23:02 12.6 C 8.41 g/m*3 12.6 C 0 km/h
2438 14-05-2006 22:33:02 12.5 C 8.47 g/m*3 12.5 C 0 km/h
2439 14-05-2006 22:43:02 12.4 C 8.52 g/m*3 12.4 C 0 km/h
2440 14-05-2006 22:53:02 12.2 C 8.42 g/m*3 12.2 C 0 km/h
2441 14-05-2006 23:03:01 12.1 C 8.36 g/m*3 12.1 C 0 km/h
2442 14-05-2006 23:13:01 12 C 8.42 g/m*3 12 C 0 km/h
2443 14-05-2006 23:23:02 11.8 C 8.42 g/m*3 11.8 C 0 km/h
2444 14-05-2006 23:33:02 11.5 C 8.26 g/m*3 11.5 C 0 km/h
2445 14-05-2006 23:43:02 11.5 C 8.26 g/m*3 11.5 C 0 km/h
2446 14-05-2006 23:53:02 11.3 C 8.36 g/m*3 11.3 C 0 km/h
2447 15-05-2006 00:03:02 11.1 C 8.26 g/m*3 11.1 C 0 km/h
2448 15-05-2006 00:13:02 11.1 C 8.26 g/m*3 11.1 C 0 km/h
2449 15-05-2006 00:23:03 10.8 C 8.2 g/m*3 10.8 C 0 km/h
2450 15-05-2006 00:33:02 10.8 C 8.2 g/m*3 10.8 C 0 km/h
Sensor: Nr:Datum:Temp:Abs-Feuchte:Windchill:Wind:
Aussen-T/F 2451 15-05-2006 00:43:02 10.7 C 8.25 g/m*3 10.7 C 0 km/h
2452 15-05-2006 00:53:02 10.5 C 8.15 g/m*3 10.5 C 0 km/h
2453 15-05-2006 01:03:02 10.4 C 8.1 g/m*3 10.4 C 0 km/h
2454 15-05-2006 01:13:02 10.3 C 8.14 g/m*3 10.3 C 0 km/h
2455 15-05-2006 01:23:02 10.2 C 8.09 g/m*3 10.2 C 0 km/h
2456 15-05-2006 01:33:02 10.2 C 8.09 g/m*3 10.2 C 0 km/h
2457 15-05-2006 01:43:02 10 C 7.99 g/m*3 10 C 0 km/h
2458 15-05-2006 01:53:03 9.8 C 8.07 g/m*3 9.8 C 0 km/h
2459 15-05-2006 02:03:02 9.7 C 8.02 g/m*3 9.7 C 0 km/h
2460 15-05-2006 02:13:03 9.7 C 8.02 g/m*3 9.7 C 0 km/h
2461 15-05-2006 02:23:02 9.7 C 8.11 g/m*3 9.7 C 0 km/h
2462 15-05-2006 02:33:02 9.8 C 8.16 g/m*3 9.8 C 0 km/h
2463 15-05-2006 02:43:02 9.9 C 8.22 g/m*3 9.9 C 0 km/h
2464 15-05-2006 02:54:03 9.9 C 8.22 g/m*3 9.9 C 0 km/h
2465 15-05-2006 03:04:03 9.9 C 8.22 g/m*3 9.9 C 0 km/h
2466 15-05-2006 03:14:03 9.9 C 8.12 g/m*3 9.9 C 0 km/h
2467 15-05-2006 03:24:03 9.8 C 8.07 g/m*3 9.8 C 0 km/h
2468 15-05-2006 03:34:02 9.9 C 8.12 g/m*3 9.9 C 0 km/h
2469 15-05-2006 03:44:02 9.9 C 8.12 g/m*3 9.9 C 0 km/h
2470 15-05-2006 03:54:02 9.9 C 8.12 g/m*3 9.9 C 0 km/h
2471 15-05-2006 04:04:02 9.8 C 8.07 g/m*3 9.8 C 0 km/h
2472 15-05-2006 04:14:02 9.9 C 8.12 g/m*3 9.9 C 0 km/h
2473 15-05-2006 04:24:02 9.9 C 8.12 g/m*3 9.9 C 0 km/h
2474 15-05-2006 04:34:02 9.9 C 8.03 g/m*3 9.9 C 0 km/h
2475 15-05-2006 04:44:02 9.7 C 8.02 g/m*3 9.7 C 0 km/h
Sensor: Nr:Datum:Temp:Abs-Feuchte:Windchill:Wind:
Aussen-T/F 2476 15-05-2006 04:54:02 9.5 C 8.01 g/m*3 9.5 C 0 km/h
2477 15-05-2006 05:04:02 9.3 C 7.91 g/m*3 9.3 C 0 km/h
2478 15-05-2006 05:14:02 9.2 C 7.86 g/m*3 9.2 C 0 km/h
2479 15-05-2006 05:24:02 9.1 C 7.9 g/m*3 9.1 C 0 km/h
2480 15-05-2006 05:34:02 9.1 C 7.9 g/m*3 9.1 C 0 km/h
2481 15-05-2006 05:44:02 9.3 C 8 g/m*3 9.3 C 0 km/h
2482 15-05-2006 05:54:02 9.3 C 8 g/m*3 9.3 C 0 km/h
2483 15-05-2006 06:04:02 9.3 C 7.91 g/m*3 9.3 C 0 km/h
2484 15-05-2006 06:14:03 9.5 C 8.01 g/m*3 9.5 C 0 km/h
2485 15-05-2006 06:24:02 9.7 C 8.11 g/m*3 9.7 C 0 km/h
2486 15-05-2006 06:34:01 9.8 C 8.07 g/m*3 9.8 C 0 km/h
2487 15-05-2006 06:44:01 9.8 C 7.98 g/m*3 9.8 C 0 km/h
2488 15-05-2006 06:54:02 9.8 C 7.98 g/m*3 9.8 C 0 km/h
2489 15-05-2006 07:04:02 9.8 C 7.98 g/m*3 9.8 C 0 km/h
2490 15-05-2006 07:14:02 9.6 C 7.88 g/m*3 9.6 C 0 km/h
2491 15-05-2006 07:24:02 9.5 C 7.83 g/m*3 9.5 C 0 km/h
2492 15-05-2006 07:34:02 9.8 C 8.07 g/m*3 9.8 C 0 km/h
2493 15-05-2006 07:44:02 10.1 C 8.04 g/m*3 10.1 C 0 km/h
2494 15-05-2006 07:54:02 10.6 C 8.2 g/m*3 10.6 C 0 km/h
2495 15-05-2006 08:04:02 10.9 C 8.26 g/m*3 10.9 C 0 km/h
2496 15-05-2006 08:14:02 11.1 C 8.16 g/m*3 11.1 C 0 km/h
2497 15-05-2006 08:24:02 11.2 C 8.11 g/m*3 11.2 C 0 km/h
2498 15-05-2006 08:34:03 11.4 C 8.11 g/m*3 11.4 C 0 km/h
2499 15-05-2006 08:44:03 11.7 C 8.26 g/m*3 11.7 C 0 km/h
2500 15-05-2006 08:54:02 12.3 C 8.36 g/m*3 12.3 C 0 km/h
Sensor: Nr:Datum:Temp:Abs-Feuchte:Windchill:Wind:
Aussen-T/F 2501 15-05-2006 09:04:02 12.8 C 8.4 g/m*3 12.8 C 0 km/h
2502 15-05-2006 09:14:02 13.1 C 8.33 g/m*3 13.1 C 0 km/h
2503 15-05-2006 09:24:02 13.3 C 8.2 g/m*3 13.3 C 0 km/h
2504 15-05-2006 09:34:03 13.8 C 8.34 g/m*3 13.8 C 0 km/h
2505 15-05-2006 09:44:03 14.5 C 8.46 g/m*3 14.5 C 0 km/h
2506 15-05-2006 09:54:02 14.8 C 8.11 g/m*3 14.8 C 0 km/h
2507 15-05-2006 10:04:02 15.3 C 8.23 g/m*3 15.3 C 0 km/h
2508 15-05-2006 10:14:02 15.9 C 8.4 g/m*3 15.9 C 0 km/h
2509 15-05-2006 10:24:02 16.2 C 8.27 g/m*3 16.2 C 0 km/h
2510 15-05-2006 10:34:02 16.7 C 8.38 g/m*3 16.7 C 0 km/h
2511 15-05-2006 10:44:02 17.2 C 8.35 g/m*3 17.2 C 0 km/h
2512 15-05-2006 10:54:02 18.1 C 8.5 g/m*3 18.1 C 0 km/h
2513 15-05-2006 11:04:02 18.4 C 8.18 g/m*3 18.4 C 0 km/h
2514 15-05-2006 11:14:02 18.8 C 8.54 g/m*3 18.8 C 0 km/h
2515 15-05-2006 11:24:02 19 C 8.15 g/m*3 19 C 0 km/h
2516 15-05-2006 11:34:02 19.3 C 8.29 g/m*3 19.3 C 0 km/h
2517 15-05-2006 11:44:02 19 C 8.15 g/m*3 19 C 0 km/h
2518 15-05-2006 11:54:02 20 C 8.47 g/m*3 20 C 0 km/h
2519 15-05-2006 12:04:02 20.4 C 8.31 g/m*3 20.4 C 0 km/h
2520 15-05-2006 12:14:02 21.4 C 8.62 g/m*3 21.4 C 0 km/h
2521 15-05-2006 12:24:01 21.2 C 7.78 g/m*3 21.2 C 0 km/h
2522 15-05-2006 12:34:02 21.9 C 7.91 g/m*3 21.9 C 0 km/h
2523 15-05-2006 12:44:02 21.7 C 7.82 g/m*3 21.7 C 0 km/h
2524 15-05-2006 12:54:02 22.1 C 7.81 g/m*3 22.1 C 0 km/h
2525 15-05-2006 13:04:02 23 C 8.22 g/m*3 23 C 0 km/h
Sensor: Nr:Datum:Temp:Abs-Feuchte:Windchill:Wind:
Aussen-T/F 2526 15-05-2006 13:14:02 23 C 7.81 g/m*3 23 C 0 km/h
2527 15-05-2006 13:24:01 23.1 C 7.44 g/m*3 23.1 C 0 km/h
2528 15-05-2006 13:34:02 22.9 C 7.56 g/m*3 22.9 C 0 km/h
2529 15-05-2006 13:44:02 22.7 C 7.48 g/m*3 22.7 C 0 km/h
2530 15-05-2006 13:54:02 21.9 C 7.91 g/m*3 21.9 C 0 km/h
2531 15-05-2006 14:04:01 22.2 C 7.66 g/m*3 22.2 C 0 km/h
2532 15-05-2006 14:14:01 23 C 7.6 g/m*3 23 C 0 km/h
2533 15-05-2006 14:24:01 23.7 C 7.49 g/m*3 23.7 C 0 km/h
2534 15-05-2006 14:34:02 24.1 C 7.66 g/m*3 24.1 C 0 km/h
2535 15-05-2006 14:44:02 24.7 C 7.47 g/m*3 24.7 C 0 km/h
2536 15-05-2006 14:54:01 25.7 C 7.66 g/m*3 25.7 C 0 km/h
2537 15-05-2006 15:04:01 25.5 C 7.34 g/m*3 25.5 C 0 km/h
2538 15-05-2006 15:14:01 25.9 C 7.75 g/m*3 25.9 C 0 km/h
2539 15-05-2006 15:24:01 25.7 C 7.42 g/m*3 25.7 C 0 km/h
2540 15-05-2006 15:34:02 25.9 C 7.51 g/m*3 25.9 C 0 km/h
2541 15-05-2006 15:44:02 25.8 C 6.74 g/m*3 25.8 C 0 km/h
2542 15-05-2006 15:54:02 24.6 C 7.2 g/m*3 24.6 C 0 km/h
2543 15-05-2006 16:04:02 25.6 C 6.9 g/m*3 25.6 C 0 km/h
2544 15-05-2006 16:14:02 25.1 C 6.94 g/m*3 25.1 C 0 km/h
2545 15-05-2006 16:24:02 25.1 C 7.18 g/m*3 25.1 C 0 km/h
2546 15-05-2006 16:34:03 24.8 C 7.51 g/m*3 24.8 C 0 km/h
2547 15-05-2006 16:44:03 24.5 C 7.39 g/m*3 24.5 C 0 km/h
2548 15-05-2006 16:54:02 23.9 C 8.22 g/m*3 23.9 C 0 km/h
2549 15-05-2006 17:04:02 24.2 C 8.8 g/m*3 24.2 C 0 km/h
2550 15-05-2006 17:14:02 24.4 C 8.46 g/m*3 24.4 C 0 km/h
Sensor: Nr:Datum:Temp:Abs-Feuchte:Windchill:Wind:
Aussen-T/F 2551 15-05-2006 17:24:02 24.4 C 9.35 g/m*3 24.4 C 0 km/h
2552 15-05-2006 17:34:02 24.2 C 9.46 g/m*3 24.2 C 0 km/h
2553 15-05-2006 17:44:02 23.7 C 9.2 g/m*3 23.7 C 0 km/h
2554 15-05-2006 17:54:02 23.3 C 8.99 g/m*3 23.3 C 0 km/h
2555 15-05-2006 18:04:02 22.4 C 9.14 g/m*3 22.4 C 0 km/h
2556 15-05-2006 18:14:02 22.1 C 9.37 g/m*3 22.1 C 0 km/h
2557 15-05-2006 18:24:01 21.5 C 9.62 g/m*3 21.5 C 0 km/h
2558 15-05-2006 18:34:02 21 C 9.34 g/m*3 21 C 0 km/h
2559 15-05-2006 18:44:02 20.9 C 9.29 g/m*3 20.9 C 0 km/h
2560 15-05-2006 18:54:02 20.8 C 9.42 g/m*3 20.8 C 0 km/h
2561 15-05-2006 19:04:01 20.8 C 9.42 g/m*3 20.8 C 0 km/h
2562 15-05-2006 19:14:01 20.7 C 9 g/m*3 20.7 C 0 km/h
2563 15-05-2006 19:24:02 20.8 C 8.87 g/m*3 20.8 C 0 km/h
2564 15-05-2006 19:34:02 20.5 C 8.72 g/m*3 20.5 C 0 km/h
2565 15-05-2006 19:44:02 20.4 C 8.85 g/m*3 20.4 C 0 km/h
2566 15-05-2006 19:54:02 20.2 C 8.74 g/m*3 20.2 C 0 km/h
2567 15-05-2006 20:04:01 20.1 C 8.87 g/m*3 20.1 C 0 km/h
2568 15-05-2006 20:14:01 19.8 C 8.71 g/m*3 19.8 C 0 km/h
2569 15-05-2006 20:24:01 19.6 C 8.61 g/m*3 19.6 C 0 km/h
2570 15-05-2006 20:34:02 19.5 C 8.73 g/m*3 19.5 C 0 km/h
2571 15-05-2006 20:44:02 19.4 C 8.34 g/m*3 19.4 C 0 km/h
2572 15-05-2006 20:54:01 19.3 C 8.29 g/m*3 19.3 C 0 km/h
2573 15-05-2006 21:04:01 19.1 C 8.36 g/m*3 19.1 C 0 km/h
2574 15-05-2006 21:14:01 18.9 C 8.26 g/m*3 18.9 C 0 km/h
2575 15-05-2006 21:24:01 18.8 C 8.21 g/m*3 18.8 C 0 km/h
Sensor: Nr:Datum:Temp:Abs-Feuchte:Windchill:Wind:
Aussen-T/F 2576 15-05-2006 21:34:02 18.9 C 8.26 g/m*3 18.9 C 0 km/h
2577 15-05-2006 21:44:02 18.7 C 8.33 g/m*3 18.7 C 0 km/h
2578 15-05-2006 21:54:02 18.6 C 8.44 g/m*3 18.6 C 0 km/h
2579 15-05-2006 22:04:02 18.5 C 8.39 g/m*3 18.5 C 0 km/h
2580 15-05-2006 22:14:02 18.5 C 8.54 g/m*3 18.5 C 0 km/h
2581 15-05-2006 22:24:02 18.3 C 8.6 g/m*3 18.3 C 0 km/h
2582 15-05-2006 22:34:03 18.1 C 8.5 g/m*3 18.1 C 0 km/h
2583 15-05-2006 22:44:03 18 C 8.75 g/m*3 18 C 0 km/h
2584 15-05-2006 22:54:02 17.9 C 8.86 g/m*3 17.9 C 0 km/h
2585 15-05-2006 23:04:02 17.9 C 9.01 g/m*3 17.9 C 0 km/h
2586 15-05-2006 23:14:02 17.9 C 9.16 g/m*3 17.9 C 0 km/h
2587 15-05-2006 23:24:02 17.9 C 9.01 g/m*3 17.9 C 0 km/h
2588 15-05-2006 23:34:03 17.9 C 8.86 g/m*3 17.9 C 0 km/h
2589 15-05-2006 23:44:03 17.9 C 9.01 g/m*3 17.9 C 0 km/h
2590 15-05-2006 23:54:02 17.8 C 9.11 g/m*3 17.8 C 0 km/h
2591 16-05-2006 00:04:02 17.7 C 9.05 g/m*3 17.7 C 0 km/h
2592 16-05-2006 00:14:02 17.5 C 9.09 g/m*3 17.5 C 0 km/h
2593 16-05-2006 00:24:02 17.5 C 9.24 g/m*3 17.5 C 0 km/h
2594 16-05-2006 00:34:02 17.6 C 9.3 g/m*3 17.6 C 0 km/h
2595 16-05-2006 00:44:02 17.2 C 9.08 g/m*3 17.2 C 0 km/h
2596 16-05-2006 00:54:02 17.2 C 9.23 g/m*3 17.2 C 0 km/h
2597 16-05-2006 01:04:02 17 C 9.41 g/m*3 17 C 0 km/h
2598 16-05-2006 01:14:02 16.9 C 9.64 g/m*3 16.9 C 0 km/h
2599 16-05-2006 01:24:01 16.8 C 9.58 g/m*3 16.8 C 0 km/h
2600 16-05-2006 01:34:02 16.7 C 9.66 g/m*3 16.7 C 0 km/h
Sensor: Nr:Datum:Temp:Abs-Feuchte:Windchill:Wind:
Aussen-T/F 2601 16-05-2006 01:44:02 16.6 C 9.61 g/m*3 16.6 C 0 km/h
2602 16-05-2006 01:54:02 16.4 C 9.77 g/m*3 16.4 C 0 km/h
2603 16-05-2006 02:04:02 16.4 C 9.77 g/m*3 16.4 C 0 km/h
2604 16-05-2006 02:14:02 16.1 C 9.73 g/m*3 16.1 C 0 km/h
2605 16-05-2006 02:24:02 15.9 C 9.89 g/m*3 15.9 C 0 km/h
2606 16-05-2006 02:34:01 15.6 C 9.71 g/m*3 15.6 C 0 km/h
2607 16-05-2006 02:44:01 15.4 C 9.85 g/m*3 15.4 C 0 km/h
2608 16-05-2006 02:55:04 15.8 C 10.1 g/m*3 15.8 C 0 km/h
2609 16-05-2006 03:05:04 15.7 C 10.03 g/m*3 15.7 C 0 km/h
2610 16-05-2006 03:15:03 15.4 C 9.85 g/m*3 15.4 C 0 km/h
2611 16-05-2006 03:25:03 15.2 C 9.73 g/m*3 15.2 C 0 km/h
2612 16-05-2006 03:35:02 15.1 C 9.93 g/m*3 15.1 C 0 km/h
2613 16-05-2006 03:45:02 15 C 10.13 g/m*3 15 C 0 km/h
2614 16-05-2006 03:55:02 15.3 C 10.19 g/m*3 15.3 C 0 km/h
2615 16-05-2006 04:05:02 15.2 C 9.99 g/m*3 15.2 C 0 km/h
2616 16-05-2006 04:15:02 15 C 10 g/m*3 15 C 0 km/h
2617 16-05-2006 04:25:02 15 C 10 g/m*3 15 C 0 km/h
2618 16-05-2006 04:35:02 15 C 10.13 g/m*3 15 C 0 km/h
2619 16-05-2006 04:45:02 15 C 10.13 g/m*3 15 C 0 km/h
2620 16-05-2006 04:55:02 14.7 C 10.07 g/m*3 14.7 C 0 km/h
2621 16-05-2006 05:05:02 14.7 C 10.2 g/m*3 14.7 C 0 km/h
2622 16-05-2006 05:15:02 14.7 C 10.32 g/m*3 14.7 C 0 km/h
2623 16-05-2006 05:25:03 14.7 C 10.32 g/m*3 14.7 C 0 km/h
2624 16-05-2006 05:35:02 14.6 C 10.26 g/m*3 14.6 C 0 km/h
2625 16-05-2006 05:45:02 14.6 C 10.39 g/m*3 14.6 C 0 km/h
Sensor: Nr:Datum:Temp:Abs-Feuchte:Windchill:Wind:
Aussen-T/F 2626 16-05-2006 05:55:02 14.6 C 10.39 g/m*3 14.6 C 0 km/h
2627 16-05-2006 06:05:02 14.6 C 10.39 g/m*3 14.6 C 0 km/h
2628 16-05-2006 06:15:01 14.7 C 10.45 g/m*3 14.7 C 0 km/h
2629 16-05-2006 06:25:01 14.7 C 10.32 g/m*3 14.7 C 0 km/h
2630 16-05-2006 06:35:01 14.7 C 10.32 g/m*3 14.7 C 0 km/h
2631 16-05-2006 06:45:02 14.8 C 10.39 g/m*3 14.8 C 0 km/h
2632 16-05-2006 06:55:02 15 C 10.39 g/m*3 15 C 0 km/h
2633 16-05-2006 07:05:02 15.1 C 10.32 g/m*3 15.1 C 0 km/h
2634 16-05-2006 07:15:01 15.3 C 10.45 g/m*3 15.3 C 0 km/h
2635 16-05-2006 07:25:01 15.3 C 10.32 g/m*3 15.3 C 0 km/h
2636 16-05-2006 07:35:01 15.5 C 10.44 g/m*3 15.5 C 0 km/h
2637 16-05-2006 07:45:02 15.8 C 10.5 g/m*3 15.8 C 0 km/h
2638 16-05-2006 07:55:02 15.9 C 10.43 g/m*3 15.9 C 0 km/h
2639 16-05-2006 08:05:02 16 C 10.35 g/m*3 16 C 0 km/h
2640 16-05-2006 08:15:02 16.2 C 10.48 g/m*3 16.2 C 0 km/h
2641 16-05-2006 08:25:02 16.6 C 10.59 g/m*3 16.6 C 0 km/h
2642 16-05-2006 08:35:01 16.9 C 10.64 g/m*3 16.9 C 0 km/h
2643 16-05-2006 08:45:02 17.2 C 10.69 g/m*3 17.2 C 0 km/h
2644 16-05-2006 08:55:02 17.5 C 10.59 g/m*3 17.5 C 0 km/h
2645 16-05-2006 09:05:02 18.1 C 10.51 g/m*3 18.1 C 0 km/h
2646 16-05-2006 09:15:02 18.4 C 10.54 g/m*3 18.4 C 0 km/h
2647 16-05-2006 09:25:03 19 C 10.43 g/m*3 19 C 0 km/h
2648 16-05-2006 09:35:02 19.2 C 10.22 g/m*3 19.2 C 0 km/h
2649 16-05-2006 09:45:02 19.4 C 10.18 g/m*3 19.4 C 0 km/h
2650 16-05-2006 09:55:02 19.5 C 10.24 g/m*3 19.5 C 0 km/h
Sensor: Nr:Datum:Temp:Abs-Feuchte:Windchill:Wind:
Aussen-T/F 2651 16-05-2006 10:05:02 20 C 10.37 g/m*3 20 C 0 km/h
2652 16-05-2006 10:15:02 20.5 C 10.32 g/m*3 20.5 C 0 km/h
2653 16-05-2006 10:25:02 20.6 C 10.38 g/m*3 20.6 C 0 km/h
2654 16-05-2006 10:35:02 20.4 C 9.91 g/m*3 20.4 C 0 km/h
2655 16-05-2006 10:45:02 20.6 C 9.13 g/m*3 20.6 C 0 km/h
2656 16-05-2006 10:55:02 20.8 C 9.05 g/m*3 20.8 C 0 km/h
2657 16-05-2006 11:05:01 20.8 C 8.69 g/m*3 20.8 C 0 km/h
2658 16-05-2006 11:15:01 20.4 C 8.49 g/m*3 20.4 C 0 km/h
2659 16-05-2006 11:25:01 20.8 C 8.69 g/m*3 20.8 C 0 km/h
2660 16-05-2006 11:35:01 21.1 C 8.29 g/m*3 21.1 C 0 km/h
2661 16-05-2006 11:45:02 21.1 C 8.11 g/m*3 21.1 C 0 km/h
2662 16-05-2006 11:55:02 20.8 C 8.15 g/m*3 20.8 C 0 km/h
2663 16-05-2006 12:05:02 21.5 C 8.3 g/m*3 21.5 C 0 km/h
2664 16-05-2006 12:15:01 22 C 8.35 g/m*3 22 C 0 km/h
2665 16-05-2006 12:25:01 22 C 7.76 g/m*3 22 C 0 km/h
2666 16-05-2006 12:35:01 22.4 C 7.94 g/m*3 22.4 C 0 km/h
2667 16-05-2006 12:45:02 23.1 C 7.65 g/m*3 23.1 C 0 km/h
2668 16-05-2006 12:55:02 23.4 C 7.78 g/m*3 23.4 C 0 km/h
2669 16-05-2006 13:05:02 24.2 C 7.7 g/m*3 24.2 C 0 km/h
2670 16-05-2006 13:15:02 23.4 C 7.57 g/m*3 23.4 C 0 km/h
2671 16-05-2006 13:25:02 24.5 C 7.61 g/m*3 24.5 C 0 km/h
2672 16-05-2006 13:35:01 25.6 C 7.14 g/m*3 25.6 C 0 km/h
2673 16-05-2006 13:45:02 25.3 C 7.02 g/m*3 25.3 C 0 km/h
2674 16-05-2006 13:55:02 24.1 C 7 g/m*3 24.1 C 0 km/h
2675 16-05-2006 14:05:02 23.9 C 7.79 g/m*3 23.9 C 0 km/h
Sensor: Nr:Datum:Temp:Abs-Feuchte:Windchill:Wind:
Aussen-T/F 2676 16-05-2006 14:15:02 24.2 C 7.7 g/m*3 24.2 C 0 km/h
2677 16-05-2006 14:25:03 24.5 C 7.16 g/m*3 24.5 C 0 km/h
2678 16-05-2006 14:35:02 24.7 C 7.47 g/m*3 24.7 C 0 km/h
2679 16-05-2006 14:45:02 24.3 C 7.08 g/m*3 24.3 C 0 km/h
2680 16-05-2006 14:55:02 23.9 C 7.57 g/m*3 23.9 C 0 km/h
2681 16-05-2006 15:05:02 23.8 C 7.74 g/m*3 23.8 C 0 km/h
2682 16-05-2006 15:15:02 23.7 C 7.49 g/m*3 23.7 C 0 km/h
2683 16-05-2006 15:25:02 25.3 C 7.49 g/m*3 25.3 C 0 km/h
2684 16-05-2006 15:35:02 25.5 C 7.1 g/m*3 25.5 C 0 km/h
2685 16-05-2006 15:45:02 24.9 C 7.55 g/m*3 24.9 C 0 km/h
2686 16-05-2006 15:55:02 25 C 7.6 g/m*3 25 C 0 km/h
2687 16-05-2006 16:05:02 24.2 C 7.48 g/m*3 24.2 C 0 km/h
2688 16-05-2006 16:15:02 24.9 C 7.55 g/m*3 24.9 C 0 km/h
2689 16-05-2006 16:25:02 25.7 C 7.42 g/m*3 25.7 C 0 km/h
2690 16-05-2006 16:35:03 24.7 C 7.24 g/m*3 24.7 C 0 km/h
2691 16-05-2006 16:45:02 24.8 C 7.28 g/m*3 24.8 C 0 km/h
2692 16-05-2006 16:55:02 25.1 C 7.41 g/m*3 25.1 C 0 km/h
2693 16-05-2006 17:05:02 25.8 C 7.46 g/m*3 25.8 C 0 km/h
2694 16-05-2006 17:15:02 25.7 C 7.66 g/m*3 25.7 C 0 km/h
2695 16-05-2006 17:25:02 25.7 C 7.66 g/m*3 25.7 C 0 km/h
2696 16-05-2006 17:35:04 26.1 C 7.34 g/m*3 26.1 C 0 km/h
2697 16-05-2006 17:45:02 25.5 C 7.34 g/m*3 25.5 C 0 km/h
2698 16-05-2006 17:55:02 24.6 C 7.65 g/m*3 24.6 C 0 km/h
2699 16-05-2006 18:05:02 24.1 C 7.66 g/m*3 24.1 C 0 km/h
2700 16-05-2006 18:15:02 23.8 C 7.96 g/m*3 23.8 C 0 km/h
Sensor: Nr:Datum:Temp:Abs-Feuchte:Windchill:Wind:
Aussen-T/F 2701 16-05-2006 18:25:02 23.6 C 8.08 g/m*3 23.6 C 0 km/h
2702 16-05-2006 18:35:02 23.3 C 7.95 g/m*3 23.3 C 0 km/h
2703 16-05-2006 18:45:02 23 C 7.81 g/m*3 23 C 0 km/h
2704 16-05-2006 18:55:02 22.9 C 8.17 g/m*3 22.9 C 0 km/h
2705 16-05-2006 19:05:02 22.9 C 8.17 g/m*3 22.9 C 0 km/h
2706 16-05-2006 19:15:02 22.5 C 7.99 g/m*3 22.5 C 0 km/h
2707 16-05-2006 19:25:02 22.3 C 8.1 g/m*3 22.3 C 0 km/h
2708 16-05-2006 19:35:03 22.4 C 8.34 g/m*3 22.4 C 0 km/h
2709 16-05-2006 19:45:02 22.2 C 8.44 g/m*3 22.2 C 0 km/h
2710 16-05-2006 19:55:02 22 C 8.35 g/m*3 22 C 0 km/h
2711 16-05-2006 20:05:02 21.7 C 8.97 g/m*3 21.7 C 0 km/h
2712 16-05-2006 20:15:02 21.3 C 8.95 g/m*3 21.3 C 0 km/h
2713 16-05-2006 20:25:02 20.9 C 9.11 g/m*3 20.9 C 0 km/h
2714 16-05-2006 20:35:03 20.4 C 9.02 g/m*3 20.4 C 0 km/h
2715 16-05-2006 20:45:02 20.3 C 9.15 g/m*3 20.3 C 0 km/h
2716 16-05-2006 20:55:02 20.1 C 9.04 g/m*3 20.1 C 0 km/h
2717 16-05-2006 21:05:02 20 C 9.16 g/m*3 20 C 0 km/h
2718 16-05-2006 21:15:02 19.8 C 9.39 g/m*3 19.8 C 0 km/h
2719 16-05-2006 21:25:02 19.7 C 9.34 g/m*3 19.7 C 0 km/h
2720 16-05-2006 21:35:02 19.7 C 9.51 g/m*3 19.7 C 0 km/h
2721 16-05-2006 21:45:02 19.5 C 9.4 g/m*3 19.5 C 0 km/h
2722 16-05-2006 21:55:02 19.4 C 9.34 g/m*3 19.4 C 0 km/h
2723 16-05-2006 22:05:02 19.3 C 9.29 g/m*3 19.3 C 0 km/h
2724 16-05-2006 22:15:02 19.1 C 9.51 g/m*3 19.1 C 0 km/h
2725 16-05-2006 22:25:02 18.4 C 11.17 g/m*3 18.4 C 0 km/h
Sensor: Nr:Datum:Temp:Abs-Feuchte:Windchill:Wind:
Aussen-T/F 2726 16-05-2006 22:35:02 17.4 C 11.26 g/m*3 17.4 C 0 km/h
2727 16-05-2006 22:45:02 16.6 C 11.3 g/m*3 16.6 C 0 km/h
2728 16-05-2006 22:55:02 16.2 C 11.31 g/m*3 16.2 C 0 km/h
2729 16-05-2006 23:06:03 16.1 C 11.24 g/m*3 16.1 C 0 km/h
2730 16-05-2006 23:16:03 16 C 11.31 g/m*3 16 C 0 km/h
2731 16-05-2006 23:26:03 15.5 C 11.24 g/m*3 15.5 C 0 km/h
2732 16-05-2006 23:36:03 15.3 C 11.49 g/m*3 15.3 C 0 km/h
2733 16-05-2006 23:46:04 14.9 C 11.34 g/m*3 14.9 C 0 km/h
2734 16-05-2006 23:56:04 14.8 C 11.4 g/m*3 14.8 C 0 km/h
2735 17-05-2006 00:06:04 14.5 C 11.32 g/m*3 14.5 C 0 km/h
2736 17-05-2006 00:16:04 14.7 C 11.46 g/m*3 14.7 C 0 km/h
2737 17-05-2006 00:26:04 14.4 C 11.25 g/m*3 14.4 C 0 km/h
2738 17-05-2006 00:36:04 14.1 C 11.04 g/m*3 14.1 C 0 km/h
2739 17-05-2006 00:46:04 14.1 C 11.04 g/m*3 14.1 C 0 km/h
2740 17-05-2006 00:56:04 13.5 C 10.76 g/m*3 13.5 C 0 km/h
2741 17-05-2006 01:06:04 13.4 C 10.69 g/m*3 13.4 C 0 km/h
2742 17-05-2006 01:16:04 13.2 C 10.56 g/m*3 13.2 C 0 km/h
2743 17-05-2006 01:26:04 13 C 10.43 g/m*3 13 C 0 km/h
2744 17-05-2006 01:36:04 12.9 C 10.48 g/m*3 12.9 C 0 km/h
2745 17-05-2006 01:46:04 12.7 C 10.35 g/m*3 12.7 C 0 km/h
2746 17-05-2006 01:56:04 12.7 C 10.35 g/m*3 12.7 C 0 km/h
2747 17-05-2006 02:06:04 12.7 C 10.35 g/m*3 12.7 C 0 km/h
2748 17-05-2006 02:16:04 12.8 C 10.42 g/m*3 12.8 C 0 km/h
2749 17-05-2006 02:26:04 12.7 C 10.24 g/m*3 12.7 C 0 km/h
2750 17-05-2006 02:36:05 12.7 C 10.13 g/m*3 12.7 C 0 km/h
Sensor: Nr:Datum:Temp:Abs-Feuchte:Windchill:Wind:
Aussen-T/F 2751 17-05-2006 02:46:05 12.8 C 10.19 g/m*3 12.8 C 0 km/h
2752 17-05-2006 02:56:05 12.4 C 10.05 g/m*3 12.4 C 0 km/h
2753 17-05-2006 03:06:05 12.3 C 9.99 g/m*3 12.3 C 0 km/h
2754 17-05-2006 03:16:05 12.4 C 10.05 g/m*3 12.4 C 0 km/h
2755 17-05-2006 03:26:05 12.5 C 10.22 g/m*3 12.5 C 0 km/h
2756 17-05-2006 03:36:05 12.8 C 10.42 g/m*3 12.8 C 0 km/h
2757 17-05-2006 03:46:05 12.8 C 10.42 g/m*3 12.8 C 0 km/h
2758 17-05-2006 03:56:05 12.9 C 10.48 g/m*3 12.9 C 0 km/h
2759 17-05-2006 04:06:05 13.1 C 10.61 g/m*3 13.1 C 0 km/h
2760 17-05-2006 04:16:05 13.1 C 10.5 g/m*3 13.1 C 0 km/h
2761 17-05-2006 04:26:05 13.1 C 10.5 g/m*3 13.1 C 0 km/h
2762 17-05-2006 04:36:05 13 C 10.32 g/m*3 13 C 0 km/h
2763 17-05-2006 04:46:05 13 C 10.32 g/m*3 13 C 0 km/h
2764 17-05-2006 04:56:05 12.8 C 10.19 g/m*3 12.8 C 0 km/h
2765 17-05-2006 05:06:05 12.8 C 10.3 g/m*3 12.8 C 0 km/h
2766 17-05-2006 05:16:05 12.8 C 10.3 g/m*3 12.8 C 0 km/h
2767 17-05-2006 05:26:05 12.9 C 10.37 g/m*3 12.9 C 0 km/h
2768 17-05-2006 05:36:05 12.9 C 10.37 g/m*3 12.9 C 0 km/h
2769 17-05-2006 05:46:06 13 C 10.43 g/m*3 13 C 0 km/h
2770 17-05-2006 05:56:06 13.2 C 10.56 g/m*3 13.2 C 0 km/h
2771 17-05-2006 06:06:06 13.4 C 10.58 g/m*3 13.4 C 0 km/h
2772 17-05-2006 06:16:06 13.6 C 10.47 g/m*3 13.6 C 0 km/h
2773 17-05-2006 06:26:06 13.7 C 10.42 g/m*3 13.7 C 0 km/h
2774 17-05-2006 06:36:06 13.6 C 10.24 g/m*3 13.6 C 0 km/h
2775 17-05-2006 06:46:06 13.6 C 10.12 g/m*3 13.6 C 0 km/h
Sensor: Nr:Datum:Temp:Abs-Feuchte:Windchill:Wind:
Aussen-T/F 2776 17-05-2006 06:56:06 13.5 C 10.18 g/m*3 13.5 C 0 km/h
2777 17-05-2006 07:06:04 13.6 C 10.24 g/m*3 13.6 C 0 km/h
2778 17-05-2006 07:16:02 13.7 C 10.3 g/m*3 13.7 C 0 km/h
2779 17-05-2006 07:26:02 13.8 C 10.48 g/m*3 13.8 C 0 km/h
2780 17-05-2006 07:36:02 14.2 C 10.5 g/m*3 14.2 C 0 km/h
2781 17-05-2006 07:46:02 14.4 C 10.51 g/m*3 14.4 C 0 km/h
2782 17-05-2006 07:56:02 14.8 C 10.51 g/m*3 14.8 C 0 km/h
2783 17-05-2006 08:06:02 14.7 C 10.45 g/m*3 14.7 C 0 km/h
2784 17-05-2006 08:16:02 15 C 10.39 g/m*3 15 C 0 km/h
2785 17-05-2006 08:26:02 15.3 C 10.45 g/m*3 15.3 C 0 km/h
2786 17-05-2006 08:36:02 15.6 C 10.51 g/m*3 15.6 C 0 km/h
2787 17-05-2006 08:46:02 16.1 C 10.14 g/m*3 16.1 C 0 km/h
2788 17-05-2006 08:56:02 16.1 C 10.01 g/m*3 16.1 C 0 km/h
2789 17-05-2006 09:06:02 16.2 C 10.07 g/m*3 16.2 C 0 km/h
2790 17-05-2006 09:16:02 16.4 C 9.63 g/m*3 16.4 C 0 km/h
2791 17-05-2006 09:26:02 16.5 C 9.97 g/m*3 16.5 C 0 km/h
2792 17-05-2006 09:36:02 16.6 C 9.75 g/m*3 16.6 C 0 km/h
2793 17-05-2006 09:46:02 16.8 C 9.58 g/m*3 16.8 C 0 km/h
2794 17-05-2006 09:56:02 16.7 C 9.38 g/m*3 16.7 C 0 km/h
2795 17-05-2006 10:06:02 16.8 C 9.15 g/m*3 16.8 C 0 km/h
2796 17-05-2006 10:16:01 17 C 8.83 g/m*3 17 C 0 km/h
2797 17-05-2006 10:26:01 17.2 C 8.93 g/m*3 17.2 C 0 km/h
2798 17-05-2006 10:36:02 17 C 8.68 g/m*3 17 C 0 km/h
2799 17-05-2006 10:46:02 17.1 C 9.03 g/m*3 17.1 C 0 km/h
2800 17-05-2006 10:56:02 17 C 8.68 g/m*3 17 C 0 km/h
Sensor: Nr:Datum:Temp:Abs-Feuchte:Windchill:Wind:
Aussen-T/F 2801 17-05-2006 11:06:01 17.1 C 8.44 g/m*3 17.1 C 0 km/h
2802 17-05-2006 11:16:01 17.9 C 8.55 g/m*3 17.9 C 0 km/h
2803 17-05-2006 11:26:01 17.6 C 8.7 g/m*3 17.6 C 0 km/h
2804 17-05-2006 11:36:02 17.7 C 8.75 g/m*3 17.7 C 0 km/h
2805 17-05-2006 11:46:02 17.7 C 8.6 g/m*3 17.7 C 0 km/h
2806 17-05-2006 11:56:03 18 C 7.99 g/m*3 18 C 0 km/h
2807 17-05-2006 12:06:02 18.7 C 8.17 g/m*3 18.7 C 0 km/h
2808 17-05-2006 12:16:02 18.8 C 8.05 g/m*3 18.8 C 0 km/h
2809 17-05-2006 12:26:02 19.6 C 7.93 g/m*3 19.6 C 0 km/h
2810 17-05-2006 12:36:03 19.8 C 7.69 g/m*3 19.8 C 0 km/h
2811 17-05-2006 12:46:02 20.2 C 7.69 g/m*3 20.2 C 0 km/h
2812 17-05-2006 12:56:02 19.6 C 7.77 g/m*3 19.6 C 0 km/h
2813 17-05-2006 13:06:02 19 C 7.5 g/m*3 19 C 0 km/h
2814 17-05-2006 13:16:03 19.5 C 7.72 g/m*3 19.5 C 0 km/h
2815 17-05-2006 13:26:03 21.6 C 7.59 g/m*3 21.6 C 0 km/h
2816 17-05-2006 13:36:02 21 C 7.33 g/m*3 21 C 0 km/h
2817 17-05-2006 13:46:02 20.4 C 7.78 g/m*3 20.4 C 0 km/h
2818 17-05-2006 13:56:03 20.8 C 7.97 g/m*3 20.8 C 0 km/h
2819 17-05-2006 14:06:02 21.4 C 7.5 g/m*3 21.4 C 0 km/h
2820 17-05-2006 14:16:01 21.5 C 7.92 g/m*3 21.5 C 0 km/h
2821 17-05-2006 14:26:01 20.8 C 7.6 g/m*3 20.8 C 0 km/h
2822 17-05-2006 14:36:02 21.1 C 7.92 g/m*3 21.1 C 0 km/h
2823 17-05-2006 14:46:02 21.7 C 7.63 g/m*3 21.7 C 0 km/h
2824 17-05-2006 14:56:02 22.5 C 7.59 g/m*3 22.5 C 0 km/h
2825 17-05-2006 15:06:01 23.1 C 7.65 g/m*3 23.1 C 0 km/h
Sensor: Nr:Datum:Temp:Abs-Feuchte:Windchill:Wind:
Aussen-T/F 2826 17-05-2006 15:16:01 23.4 C 7.57 g/m*3 23.4 C 0 km/h
2827 17-05-2006 15:26:01 23.5 C 7.61 g/m*3 23.5 C 0 km/h
2828 17-05-2006 15:36:02 23.6 C 7.44 g/m*3 23.6 C 0 km/h
2829 17-05-2006 15:46:01 24.6 C 7.43 g/m*3 24.6 C 0 km/h
2830 17-05-2006 15:56:02 25.6 C 7.62 g/m*3 25.6 C 0 km/h
2831 17-05-2006 16:06:01 24.8 C 7.06 g/m*3 24.8 C 0 km/h
2832 17-05-2006 16:16:01 24.5 C 6.94 g/m*3 24.5 C 0 km/h
2833 17-05-2006 16:26:01 25.1 C 6.94 g/m*3 25.1 C 0 km/h
2834 17-05-2006 16:36:02 24.4 C 6.9 g/m*3 24.4 C 0 km/h
2835 17-05-2006 16:46:02 24.6 C 6.98 g/m*3 24.6 C 0 km/h
2836 17-05-2006 16:56:03 24.4 C 6.68 g/m*3 24.4 C 0 km/h
2837 17-05-2006 17:06:02 24.6 C 6.98 g/m*3 24.6 C 0 km/h
2838 17-05-2006 17:16:02 24.2 C 7.04 g/m*3 24.2 C 0 km/h
2839 17-05-2006 17:26:02 25.9 C 7.51 g/m*3 25.9 C 0 km/h
2840 17-05-2006 17:36:03 26.5 C 7.51 g/m*3 26.5 C 0 km/h
2841 17-05-2006 17:46:03 26.8 C 7.13 g/m*3 26.8 C 0 km/h
2842 17-05-2006 17:56:03 26.3 C 7.43 g/m*3 26.3 C 0 km/h
2843 17-05-2006 18:06:02 26.2 C 7.14 g/m*3 26.2 C 0 km/h
2844 17-05-2006 18:16:03 25.3 C 7.49 g/m*3 25.3 C 0 km/h
2845 17-05-2006 18:26:03 25.1 C 7.41 g/m*3 25.1 C 0 km/h
2846 17-05-2006 18:36:02 24.8 C 7.74 g/m*3 24.8 C 0 km/h
2847 17-05-2006 18:46:02 24.8 C 7.97 g/m*3 24.8 C 0 km/h
2848 17-05-2006 18:56:03 24.2 C 8.36 g/m*3 24.2 C 0 km/h
2849 17-05-2006 19:06:02 24.4 C 8.46 g/m*3 24.4 C 0 km/h
2850 17-05-2006 19:16:02 24.4 C 9.35 g/m*3 24.4 C 0 km/h
Sensor: Nr:Datum:Temp:Abs-Feuchte:Windchill:Wind:
Aussen-T/F 2851 17-05-2006 19:26:02 24.1 C 8.97 g/m*3 24.1 C 0 km/h
2852 17-05-2006 19:36:02 23.7 C 9.2 g/m*3 23.7 C 0 km/h
2853 17-05-2006 19:46:02 23.1 C 9.1 g/m*3 23.1 C 0 km/h
2854 17-05-2006 19:56:02 21.9 C 9.07 g/m*3 21.9 C 0 km/h
2855 17-05-2006 20:06:03 21.2 C 8.9 g/m*3 21.2 C 0 km/h
2856 17-05-2006 20:16:02 20.7 C 9.18 g/m*3 20.7 C 0 km/h
2857 17-05-2006 20:26:02 20 C 8.81 g/m*3 20 C 0 km/h
2858 17-05-2006 20:36:03 19.5 C 8.73 g/m*3 19.5 C 0 km/h
2859 17-05-2006 20:46:02 18.9 C 8.59 g/m*3 18.9 C 0 km/h
2860 17-05-2006 20:56:02 18.7 C 8.65 g/m*3 18.7 C 0 km/h
2861 17-05-2006 21:06:03 18.6 C 8.75 g/m*3 18.6 C 0 km/h
2862 17-05-2006 21:16:03 18.4 C 8.81 g/m*3 18.4 C 0 km/h
2863 17-05-2006 21:26:03 18.3 C 8.76 g/m*3 18.3 C 0 km/h
2864 17-05-2006 21:36:02 17.9 C 8.7 g/m*3 17.9 C 0 km/h
2865 17-05-2006 21:46:02 17.9 C 8.7 g/m*3 17.9 C 0 km/h
2866 17-05-2006 21:56:02 18 C 8.75 g/m*3 18 C 0 km/h
2867 17-05-2006 22:06:02 18 C 9.22 g/m*3 18 C 0 km/h
2868 17-05-2006 22:16:02 18 C 9.22 g/m*3 18 C 0 km/h
2869 17-05-2006 22:26:02 17.8 C 9.41 g/m*3 17.8 C 0 km/h
2870 17-05-2006 22:36:02 17.5 C 9.24 g/m*3 17.5 C 0 km/h
2871 17-05-2006 22:46:02 17.5 C 9.09 g/m*3 17.5 C 0 km/h
2872 17-05-2006 22:56:02 17.7 C 9.51 g/m*3 17.7 C 0 km/h
2873 17-05-2006 23:06:02 17.1 C 9.32 g/m*3 17.1 C 0 km/h
2874 17-05-2006 23:16:02 17 C 9.26 g/m*3 17 C 0 km/h
2875 17-05-2006 23:26:02 17 C 9.26 g/m*3 17 C 0 km/h
Sensor: Nr:Datum:Temp:Abs-Feuchte:Windchill:Wind:
Aussen-T/F 2876 17-05-2006 23:36:03 17.2 C 9.37 g/m*3 17.2 C 0 km/h
2877 17-05-2006 23:46:02 17.2 C 9.37 g/m*3 17.2 C 0 km/h
2878 17-05-2006 23:56:02 17.4 C 9.19 g/m*3 17.4 C 0 km/h
2879 18-05-2006 00:06:02 17.7 C 9.51 g/m*3 17.7 C 0 km/h
2880 18-05-2006 00:16:03 17.2 C 9.67 g/m*3 17.2 C 0 km/h
2881 18-05-2006 00:26:03 17.2 C 9.81 g/m*3 17.2 C 0 km/h
2882 18-05-2006 00:36:02 17.3 C 9.43 g/m*3 17.3 C 0 km/h
2883 18-05-2006 00:46:02 17.3 C 9.28 g/m*3 17.3 C 0 km/h
2884 18-05-2006 00:56:02 16.8 C 9.87 g/m*3 16.8 C 0 km/h
2885 18-05-2006 01:06:02 16.7 C 9.52 g/m*3 16.7 C 0 km/h
2886 18-05-2006 01:16:02 17.1 C 9.17 g/m*3 17.1 C 0 km/h
2887 18-05-2006 01:26:02 17.5 C 9.09 g/m*3 17.5 C 0 km/h
2888 18-05-2006 01:36:02 17.6 C 9 g/m*3 17.6 C 0 km/h
2889 18-05-2006 01:46:03 17.5 C 9.24 g/m*3 17.5 C 0 km/h
2890 18-05-2006 01:56:03 17.4 C 9.19 g/m*3 17.4 C 0 km/h
2891 18-05-2006 02:06:02 16.6 C 9.75 g/m*3 16.6 C 0 km/h
2892 18-05-2006 02:16:03 15.6 C 10.37 g/m*3 15.6 C 0 km/h
2893 18-05-2006 02:26:03 15.5 C 10.71 g/m*3 15.5 C 0 km/h
2894 18-05-2006 02:36:02 15.7 C 10.57 g/m*3 15.7 C 0 km/h
2895 18-05-2006 02:47:04 15.7 C 10.57 g/m*3 15.7 C 0 km/h
2896 18-05-2006 02:57:04 15.6 C 10.51 g/m*3 15.6 C 0 km/h
2897 18-05-2006 03:07:04 15.5 C 10.44 g/m*3 15.5 C 0 km/h
2898 18-05-2006 03:17:04 15.4 C 10.38 g/m*3 15.4 C 0 km/h
2899 18-05-2006 03:27:04 15.4 C 10.38 g/m*3 15.4 C 0 km/h
2900 18-05-2006 03:37:02 15.4 C 10.38 g/m*3 15.4 C 0 km/h
Sensor: Nr:Datum:Temp:Abs-Feuchte:Windchill:Wind:
Aussen-T/F 2901 18-05-2006 03:47:02 15.3 C 10.32 g/m*3 15.3 C 0 km/h
2902 18-05-2006 03:57:02 15.7 C 10.03 g/m*3 15.7 C 0 km/h
2903 18-05-2006 04:07:02 15.7 C 10.17 g/m*3 15.7 C 0 km/h
2904 18-05-2006 04:17:02 15.7 C 10.17 g/m*3 15.7 C 0 km/h
2905 18-05-2006 04:27:02 15.7 C 10.17 g/m*3 15.7 C 0 km/h
2906 18-05-2006 04:37:02 15.8 C 9.96 g/m*3 15.8 C 0 km/h
2907 18-05-2006 04:47:03 16 C 9.67 g/m*3 16 C 0 km/h
2908 18-05-2006 04:57:03 15.9 C 10.02 g/m*3 15.9 C 0 km/h
2909 18-05-2006 05:07:02 15.6 C 10.24 g/m*3 15.6 C 0 km/h
2910 18-05-2006 05:17:03 15.5 C 10.44 g/m*3 15.5 C 0 km/h
2911 18-05-2006 05:27:03 15.3 C 10.45 g/m*3 15.3 C 0 km/h
2912 18-05-2006 05:37:02 15.4 C 10.38 g/m*3 15.4 C 0 km/h
2913 18-05-2006 05:47:01 15.4 C 10.64 g/m*3 15.4 C 0 km/h
2914 18-05-2006 05:57:01 15.1 C 10.58 g/m*3 15.1 C 0 km/h
2915 18-05-2006 06:07:01 14.7 C 10.95 g/m*3 14.7 C 0 km/h
2916 18-05-2006 06:17:02 14.8 C 11.15 g/m*3 14.8 C 0 km/h
2917 18-05-2006 06:27:02 15.1 C 11.35 g/m*3 15.1 C 0 km/h
2918 18-05-2006 06:37:02 15.1 C 11.35 g/m*3 15.1 C 0 km/h
2919 18-05-2006 06:47:02 15.1 C 11.35 g/m*3 15.1 C 0 km/h
2920 18-05-2006 06:57:02 15.4 C 11.43 g/m*3 15.4 C 0 km/h
2921 18-05-2006 07:07:02 15.4 C 11.3 g/m*3 15.4 C 0 km/h
2922 18-05-2006 07:17:02 15.3 C 11.1 g/m*3 15.3 C 0 km/h
2923 18-05-2006 07:27:02 15.2 C 11.29 g/m*3 15.2 C 0 km/h
2924 18-05-2006 07:37:02 15.2 C 11.16 g/m*3 15.2 C 0 km/h
2925 18-05-2006 07:47:02 15.3 C 11.23 g/m*3 15.3 C 0 km/h
Sensor: Nr:Datum:Temp:Abs-Feuchte:Windchill:Wind:
Aussen-T/F 2926 18-05-2006 07:57:02 15.4 C 11.3 g/m*3 15.4 C 0 km/h
2927 18-05-2006 08:07:02 15.6 C 11.44 g/m*3 15.6 C 0 km/h
2928 18-05-2006 08:17:02 15.4 C 11.43 g/m*3 15.4 C 0 km/h
2929 18-05-2006 08:27:02 15.3 C 11.36 g/m*3 15.3 C 0 km/h
2930 18-05-2006 08:37:02 15.2 C 11.42 g/m*3 15.2 C 0 km/h
2931 18-05-2006 08:47:02 15.2 C 11.42 g/m*3 15.2 C 0 km/h
2932 18-05-2006 08:57:02 15.4 C 11.56 g/m*3 15.4 C 0 km/h
2933 18-05-2006 09:07:03 15.7 C 11.77 g/m*3 15.7 C 0 km/h
2934 18-05-2006 09:17:02 16 C 11.85 g/m*3 16 C 0 km/h
2935 18-05-2006 09:27:02 15.8 C 11.58 g/m*3 15.8 C 0 km/h
2936 18-05-2006 09:37:02 15.8 C 11.58 g/m*3 15.8 C 0 km/h
2937 18-05-2006 09:47:01 15.9 C 11.51 g/m*3 15.9 C 0 km/h
2938 18-05-2006 09:57:01 15.9 C 11.65 g/m*3 15.9 C 0 km/h
2939 18-05-2006 10:07:02 16.2 C 11.58 g/m*3 16.2 C 0 km/h
2940 18-05-2006 10:17:02 16.4 C 11.72 g/m*3 16.4 C 0 km/h
2941 18-05-2006 10:27:02 16.5 C 11.65 g/m*3 16.5 C 0 km/h
2942 18-05-2006 10:37:02 16.6 C 11.58 g/m*3 16.6 C 0 km/h
2943 18-05-2006 10:47:02 16.6 C 11.72 g/m*3 16.6 C 0 km/h
2944 18-05-2006 10:57:02 16.7 C 11.94 g/m*3 16.7 C 0 km/h
2945 18-05-2006 11:07:02 16.8 C 12.01 g/m*3 16.8 C 0 km/h
2946 18-05-2006 11:17:02 17.2 C 12.3 g/m*3 17.2 C 0 km/h
2947 18-05-2006 11:27:02 17.4 C 12.3 g/m*3 17.4 C 0 km/h
2948 18-05-2006 11:37:02 17.9 C 12.37 g/m*3 17.9 C 0 km/h
2949 18-05-2006 11:47:02 18.4 C 11.95 g/m*3 18.4 C 0 km/h
2950 18-05-2006 11:57:02 18.8 C 11.76 g/m*3 18.8 C 0 km/h
Sensor: Nr:Datum:Temp:Abs-Feuchte:Windchill:Wind:
Aussen-T/F 2951 18-05-2006 12:07:01 19.4 C 11.85 g/m*3 19.4 C 0 km/h
2952 18-05-2006 12:17:01 20 C 11.92 g/m*3 20 C 0 km/h
2953 18-05-2006 12:27:01 20.2 C 11.71 g/m*3 20.2 C 0 km/h
2954 18-05-2006 12:37:01 19.5 C 11.24 g/m*3 19.5 C 0 km/h
2955 18-05-2006 12:47:02 18.1 C 10.66 g/m*3 18.1 C 0 km/h
2956 18-05-2006 12:57:02 17.2 C 11.13 g/m*3 17.2 C 0 km/h
2957 18-05-2006 13:07:02 16.8 C 11.87 g/m*3 16.8 C 0 km/h
2958 18-05-2006 13:17:01 16.7 C 12.22 g/m*3 16.7 C 0 km/h
2959 18-05-2006 13:27:01 16.4 C 12.28 g/m*3 16.4 C 0 km/h
2960 18-05-2006 13:37:01 17.1 C 12.96 g/m*3 17.1 C 0 km/h
2961 18-05-2006 13:47:02 18.5 C 13.77 g/m*3 18.5 C 0 km/h
2962 18-05-2006 13:57:02 19.9 C 13.57 g/m*3 19.9 C 0 km/h
2963 18-05-2006 14:07:02 21 C 13.01 g/m*3 21 C 0 km/h
2964 18-05-2006 14:17:01 21.6 C 12.9 g/m*3 21.6 C 0 km/h
2965 18-05-2006 14:27:01 21.6 C 12.33 g/m*3 21.6 C 0 km/h
2966 18-05-2006 14:37:01 20.6 C 11.1 g/m*3 20.6 C 0 km/h
2967 18-05-2006 14:47:02 21.1 C 11.24 g/m*3 21.1 C 0 km/h
2968 18-05-2006 14:57:02 20.5 C 9.96 g/m*3 20.5 C 0 km/h
2969 18-05-2006 15:07:02 21.3 C 9.32 g/m*3 21.3 C 0 km/h
2970 18-05-2006 15:17:01 21.7 C 8.97 g/m*3 21.7 C 0 km/h
2971 18-05-2006 15:27:01 21.7 C 8.97 g/m*3 21.7 C 0 km/h
2972 18-05-2006 15:37:01 22.2 C 8.64 g/m*3 22.2 C 0 km/h
2973 18-05-2006 15:47:02 21.7 C 8.58 g/m*3 21.7 C 0 km/h
2974 18-05-2006 15:57:02 23 C 8.22 g/m*3 23 C 0 km/h
2975 18-05-2006 16:07:02 22.7 C 8.08 g/m*3 22.7 C 0 km/h
Sensor: Nr:Datum:Temp:Abs-Feuchte:Windchill:Wind:
Aussen-T/F 2976 18-05-2006 16:17:01 22.6 C 7.83 g/m*3 22.6 C 0 km/h
2977 18-05-2006 16:27:01 21.5 C 7.73 g/m*3 21.5 C 0 km/h
2978 18-05-2006 16:37:01 21.2 C 7.78 g/m*3 21.2 C 0 km/h
2979 18-05-2006 16:47:02 20.9 C 7.83 g/m*3 20.9 C 0 km/h
2980 18-05-2006 16:57:02 21.9 C 7.72 g/m*3 21.9 C 0 km/h
2981 18-05-2006 17:07:02 22.8 C 7.52 g/m*3 22.8 C 0 km/h
2982 18-05-2006 17:17:02 21.5 C 6.98 g/m*3 21.5 C 0 km/h
2983 18-05-2006 17:27:02 21.7 C 7.06 g/m*3 21.7 C 0 km/h
2984 18-05-2006 17:37:01 22.2 C 7.07 g/m*3 22.2 C 0 km/h
2985 18-05-2006 17:47:02 22.7 C 7.48 g/m*3 22.7 C 0 km/h
2986 18-05-2006 17:57:02 22.9 C 7.56 g/m*3 22.9 C 0 km/h
2987 18-05-2006 18:07:02 22.5 C 7.39 g/m*3 22.5 C 0 km/h
2988 18-05-2006 18:17:02 22.5 C 7.39 g/m*3 22.5 C 0 km/h
2989 18-05-2006 18:27:02 22.5 C 7.59 g/m*3 22.5 C 0 km/h
2990 18-05-2006 18:37:02 22.4 C 7.94 g/m*3 22.4 C 0 km/h
2991 18-05-2006 18:47:02 22.1 C 8.39 g/m*3 22.1 C 0 km/h
2992 18-05-2006 18:57:02 21.2 C 7.97 g/m*3 21.2 C 0 km/h
2993 18-05-2006 19:07:02 21.6 C 7.97 g/m*3 21.6 C 0 km/h
2994 18-05-2006 19:17:02 21.8 C 7.87 g/m*3 21.8 C 0 km/h
2995 18-05-2006 19:27:02 21 C 7.88 g/m*3 21 C 0 km/h
2996 18-05-2006 19:37:03 20.9 C 8.56 g/m*3 20.9 C 0 km/h
2997 18-05-2006 19:47:02 21.1 C 8.29 g/m*3 21.1 C 0 km/h
2998 18-05-2006 19:57:02 21.8 C 8.63 g/m*3 21.8 C 0 km/h
2999 18-05-2006 20:07:02 21.5 C 8.49 g/m*3 21.5 C 0 km/h
3000 18-05-2006 20:17:02 20.6 C 8.95 g/m*3 20.6 C 0 km/h
Sensor: Nr:Datum:Temp:Abs-Feuchte:Windchill:Wind:
Aussen-T/F 3001 18-05-2006 20:27:02 20.2 C 8.57 g/m*3 20.2 C 0 km/h
3002 18-05-2006 20:37:02 19.7 C 8.66 g/m*3 19.7 C 0 km/h
3003 18-05-2006 20:47:03 19.3 C 8.79 g/m*3 19.3 C 0 km/h
3004 18-05-2006 20:57:03 18.8 C 8.7 g/m*3 18.8 C 0 km/h
3005 18-05-2006 21:07:03 18.3 C 8.91 g/m*3 18.3 C 0 km/h
3006 18-05-2006 21:17:02 17.9 C 9.01 g/m*3 17.9 C 0 km/h
3007 18-05-2006 21:27:03 17.4 C 8.89 g/m*3 17.4 C 0 km/h
3008 18-05-2006 21:37:02 17 C 8.83 g/m*3 17 C 0 km/h
3009 18-05-2006 21:47:02 16.9 C 9.06 g/m*3 16.9 C 0 km/h
3010 18-05-2006 21:57:02 17 C 9.26 g/m*3 17 C 0 km/h
3011 18-05-2006 22:07:02 17.2 C 9.08 g/m*3 17.2 C 0 km/h
3012 18-05-2006 22:17:01 17.8 C 9.11 g/m*3 17.8 C 0 km/h
3013 18-05-2006 22:27:01 17.8 C 9.11 g/m*3 17.8 C 0 km/h
3014 18-05-2006 22:37:02 17.8 C 9.11 g/m*3 17.8 C 0 km/h
3015 18-05-2006 22:47:02 17.7 C 8.75 g/m*3 17.7 C 0 km/h
3016 18-05-2006 22:57:02 17.5 C 8.95 g/m*3 17.5 C 0 km/h
3017 18-05-2006 23:07:02 17.3 C 8.84 g/m*3 17.3 C 0 km/h
3018 18-05-2006 23:17:01 17.1 C 8.44 g/m*3 17.1 C 0 km/h
3019 18-05-2006 23:27:01 17.1 C 8.15 g/m*3 17.1 C 0 km/h
3020 18-05-2006 23:37:02 16.9 C 8.34 g/m*3 16.9 C 0 km/h
3021 18-05-2006 23:47:02 16.8 C 8.29 g/m*3 16.8 C 0 km/h
3022 18-05-2006 23:57:02 16.6 C 8.33 g/m*3 16.6 C 0 km/h

Legende:
   Min
   Max


Maximal/Minimal-Werte vom 28.04.2006 - 18.05.2006

Sensor Min Max Avg
Temp
(Aussen-T/F)
1.7 °C
01-05-2006  06:20:02
31.6 °C
11-05-2006  17:50:02
16.27 °C
Abs-Feuchte
(Aussen-T/F)
2.7 g/m*3
29-04-2006  14:38:03
13.77 g/m*3
18-05-2006  13:47:02
6.97 g/m*3
Windchill
(Aussen-T/F)
1.7 C
01-05-2006  06:20:02
31.6 C
11-05-2006  17:50:02
16.27 C

Die Daten stammen von einer Davis Vantage Pro 2 Wetter-Station und werden unter Linux mit der Software wview2wettercgi und aufbereitet. Alle Angaben erfolgen ohne Gewähr für ihre Vollständigkeit oder Richtigkeit.
Kontakt: Rainer Krienke krienke@uni-koblenz.de . Meine Webseiten an der Uni Koblenz oder privat.
Version: $Revision: 0.78 $